Provisional Data: South Branch Tunkhannock Creek near La Plume, PA


Please select a monitoring station.
Please select start date.
Please select start date.

Toggle Unit: C/F Toggle Unit: C/F
Sample Time Temperature (C) Temperature (F) Specific Conductivity (mS/cm) pH   Turbidity (NTU+) DO (mg/L)
3/23/2021 12:00:00 AM 4.6 40.28 0.234 7.38 3.86 11.93
3/23/2021 12:15:00 AM 4.54 40.172 0.233 7.39 4 11.94
3/23/2021 12:30:00 AM 4.48 40.064 0.233 7.39 4.18 11.97
3/23/2021 12:45:00 AM 4.42 39.956 0.232 7.39 4 11.97
3/23/2021 1:00:00 AM 4.37 39.866 0.231 7.39 4.13 11.99
3/23/2021 1:15:00 AM 4.32 39.776 0.232 7.39 3.89 12.01
3/23/2021 1:30:00 AM 4.26 39.668 0.233 7.38 4.04 12.02
3/23/2021 1:45:00 AM 4.21 39.578 0.232 7.38 4.18 12.03
3/23/2021 2:00:00 AM 4.16 39.488 0.232 7.38 4.1 12.06
3/23/2021 2:15:00 AM 4.11 39.398 0.232 7.38 3.96 12.07
3/23/2021 2:30:00 AM 4.06 39.308 0.23 7.38 4.4 12.09
3/23/2021 2:45:00 AM 4.01 39.218 0.232 7.38 3.96 12.12
3/23/2021 3:00:00 AM 3.96 39.128 0.232 7.38 4.01 12.13
3/23/2021 3:15:00 AM 3.91 39.038 0.232 7.38 3.96 12.14
3/23/2021 3:30:00 AM 3.87 38.966 0.232 7.37 3.99 12.17
3/23/2021 3:45:00 AM 3.82 38.876 0.232 7.38 4.12 12.17
3/23/2021 4:00:00 AM 3.78 38.804 0.233 7.38 4.2 12.18
3/23/2021 4:15:00 AM 3.73 38.714 0.233 7.38 4.23 12.21
3/23/2021 4:30:00 AM 3.68 38.624 0.233 7.38 3.89 12.22
3/23/2021 4:45:00 AM 3.64 38.552 0.232 7.38 4.02 12.22
3/23/2021 5:00:00 AM 3.6 38.48 0.233 7.38 4.07 12.24
3/23/2021 5:15:00 AM 3.56 38.408 0.234 7.37 3.94 12.24
3/23/2021 5:30:00 AM 3.51 38.318 0.233 7.38 4.06 12.27
3/23/2021 5:45:00 AM 3.47 38.246 0.233 7.38 3.96 12.29
3/23/2021 6:00:00 AM 3.43 38.174 0.235 7.38 3.85 12.3
3/23/2021 6:15:00 AM 3.39 38.102 0.235 7.38 3.76 12.33
3/23/2021 6:30:00 AM 3.34 38.012 0.235 7.38 3.84 12.34
3/23/2021 6:45:00 AM 3.31 37.958 0.235 7.37 3.77 12.36
3/23/2021 7:00:00 AM 3.27 37.886 0.235 7.38 3.89 12.38
3/23/2021 7:15:00 AM 3.23 37.814 0.236 7.39 4.03 12.41
3/23/2021 7:30:00 AM 3.2 37.76 0.236 7.4 3.83 12.49
3/23/2021 7:45:00 AM 3.17 37.706 0.236 7.41 3.92 12.58
3/23/2021 8:00:00 AM 3.16 37.688 0.236 7.43 4 12.68
3/23/2021 8:15:00 AM 3.16 37.688 0.237 7.46 3.95 12.79
3/23/2021 8:30:00 AM 3.17 37.706 0.237 7.5 3.85 12.96
3/23/2021 8:45:00 AM 3.2 37.76 0.237 7.54 3.74 13.09
3/23/2021 9:00:00 AM 3.24 37.832 0.238 7.57 3.93 13.2
3/23/2021 9:15:00 AM 3.3 37.94 0.238 7.61 4.15 13.31
3/23/2021 9:30:00 AM 3.38 38.084 0.237 7.65 4.34 13.39
3/23/2021 9:45:00 AM 3.48 38.264 0.238 7.69 4.2 13.46
3/23/2021 10:00:00 AM 3.59 38.462 0.238 7.73 3.88 13.53
3/23/2021 10:15:00 AM 3.72 38.696 0.238 7.78 3.94 13.6
3/23/2021 10:30:00 AM 3.87 38.966 0.239 7.82 3.85 13.63
3/23/2021 10:45:00 AM 4.05 39.29 0.237 7.88 3.79 13.67
3/23/2021 11:00:00 AM 4.23 39.614 0.238 7.94 3.71 13.67
3/23/2021 11:15:00 AM 4.43 39.974 0.238 7.98 3.61 13.68
3/23/2021 11:30:00 AM 4.65 40.37 0.238 8.03 3.57 13.65
3/23/2021 11:45:00 AM 4.88 40.784 0.237 8.08 3.73 13.62
3/23/2021 12:00:00 PM 5.12 41.216 0.236 8.13 3.88 13.6
3/23/2021 12:15:00 PM 5.37 41.666 0.236 8.17 3.67 13.56
3/23/2021 12:30:00 PM 5.62 42.116 0.236 8.21 3.57 13.49
3/23/2021 12:45:00 PM 5.85 42.53 0.235 8.25 3.65 13.45
3/23/2021 1:00:00 PM 6.11 42.998 0.234 8.28 3.76 13.38
3/23/2021 1:15:00 PM 6.37 43.466 0.234 8.32 4.05 13.33
3/23/2021 1:30:00 PM 6.65 43.97 0.234 8.36 3.56 13.27
3/23/2021 1:45:00 PM 6.89 44.402 0.234 8.39 3.8 13.2
3/23/2021 2:00:00 PM 7.13 44.834 0.234 8.41 3.54 13.15
3/23/2021 2:15:00 PM 7.34 45.212 0.233 8.44 3.6 13.08
3/23/2021 2:30:00 PM 7.53 45.554 0.234 8.46 3.56 13
3/23/2021 2:45:00 PM 7.67 45.806 0.234 8.49 3.67 12.95
3/23/2021 3:00:00 PM 7.81 46.058 0.233 8.51 3.45 12.91
3/23/2021 3:15:00 PM 7.89 46.202 0.234 8.52 3.51 12.85
3/23/2021 3:30:00 PM 7.97 46.346 0.234 8.53 3.68 12.8
3/23/2021 3:45:00 PM 7.99 46.382 0.234 8.53 3.54 12.74
3/23/2021 4:00:00 PM 8 46.4 0.234 8.53 3.56 12.7
3/23/2021 4:15:00 PM 8.02 46.436 0.234 8.54 3.47 12.7
3/23/2021 4:30:00 PM 8.03 46.454 0.233 8.55 3.54 12.67
3/23/2021 4:45:00 PM 8.01 46.418 0.232 8.52 3.71 12.6
3/23/2021 5:00:00 PM 7.97 46.346 0.232 8.5 3.88 12.57
3/23/2021 5:15:00 PM 7.92 46.256 0.232 8.48 3.54 12.56
3/23/2021 5:30:00 PM 7.86 46.148 0.233 8.44 3.65 12.52
3/23/2021 5:45:00 PM 7.78 46.004 0.233 8.37 3.58 12.47
3/23/2021 6:00:00 PM 7.68 45.824 0.232 8.27 3.71 12.35
3/23/2021 6:15:00 PM 7.57 45.626 0.233 8.13 3.7 12.21
3/23/2021 6:30:00 PM 7.46 45.428 0.233 7.98 3.67 12.06
3/23/2021 6:45:00 PM 7.35 45.23 0.233 7.87 3.88 11.92
3/23/2021 7:00:00 PM 7.25 45.05 0.233 7.77 4.02 11.79
3/23/2021 7:15:00 PM 7.14 44.852 0.232 7.7 3.54 11.67
3/23/2021 7:30:00 PM 7.03 44.654 0.231 7.63 3.75 11.59
3/23/2021 7:45:00 PM 6.92 44.456 0.23 7.58 3.88 11.49
3/23/2021 8:00:00 PM 6.8 44.24 0.231 7.54 3.88 11.44
3/23/2021 8:15:00 PM 6.68 44.024 0.232 7.51 3.79 11.41
3/23/2021 8:30:00 PM 6.58 43.844 0.232 7.49 3.82 11.4
3/23/2021 8:45:00 PM 6.49 43.682 0.232 7.47 3.53 11.39
3/23/2021 9:00:00 PM 6.42 43.556 0.231 7.46 3.82 11.37
3/23/2021 9:15:00 PM 6.35 43.43 0.231 7.45 3.49 11.37
3/23/2021 9:30:00 PM 6.28 43.304 0.231 7.43 3.73 11.36
3/23/2021 9:45:00 PM 6.21 43.178 0.23 7.43 3.62 11.37
3/23/2021 10:00:00 PM 6.13 43.034 0.23 7.42 3.68 11.38
3/23/2021 10:15:00 PM 6.04 42.872 0.231 7.41 3.89 11.41
3/23/2021 10:30:00 PM 5.96 42.728 0.231 7.41 3.71 11.42
3/23/2021 10:45:00 PM 5.89 42.602 0.23 7.4 3.81 11.45
3/23/2021 11:00:00 PM 5.83 42.494 0.23 7.4 3.59 11.46
3/23/2021 11:15:00 PM 5.76 42.368 0.23 7.4 3.95 11.48
3/23/2021 11:30:00 PM 5.7 42.26 0.23 7.39 3.78 11.49
3/23/2021 11:45:00 PM 5.65 42.17 0.231 7.39 3.68 11.5
3/24/2021 12:00:00 AM 5.59 42.062 0.231 7.39 3.86 11.51
3/24/2021 12:15:00 AM 5.53 41.954 0.23 7.38 3.8 11.53
3/24/2021 12:30:00 AM 5.48 41.864 0.23 7.38 3.6 11.55
3/24/2021 12:45:00 AM 5.43 41.774 0.23 7.38 3.58 11.57
3/24/2021 1:00:00 AM 5.38 41.684 0.23 7.38 3.57 11.59
3/24/2021 1:15:00 AM 5.34 41.612 0.229 7.38 3.83 11.6
3/24/2021 1:30:00 AM 5.3 41.54 0.229 7.38 3.56 11.61
3/24/2021 1:45:00 AM 5.28 41.504 0.229 7.37 3.67 11.62
3/24/2021 2:00:00 AM 5.26 41.468 0.229 7.38 3.8 11.63
3/24/2021 2:15:00 AM 5.24 41.432 0.229 7.38 3.61 11.64
3/24/2021 2:30:00 AM 5.22 41.396 0.228 7.37 3.59 11.64
3/24/2021 2:45:00 AM 5.2 41.36 0.228 7.37 3.71 11.65
3/24/2021 3:00:00 AM 5.19 41.342 0.229 7.37 3.51 11.67
3/24/2021 3:15:00 AM 5.18 41.324 0.229 7.37 3.75 11.66
3/24/2021 3:30:00 AM 5.17 41.306 0.229 7.37 3.69 11.68
3/24/2021 3:45:00 AM 5.16 41.288 0.23 7.36 3.55 11.67
3/24/2021 4:00:00 AM 5.16 41.288 0.231 7.37 3.48 11.65
3/24/2021 4:15:00 AM 5.16 41.288 0.232 7.36 3.7 11.65
3/24/2021 4:30:00 AM 5.14 41.252 0.23 7.36 3.64 11.67
3/24/2021 4:45:00 AM 5.13 41.234 0.229 7.37 3.81 11.68
3/24/2021 5:00:00 AM 5.12 41.216 0.229 7.37 3.53 11.68
3/24/2021 5:15:00 AM 5.11 41.198 0.229 7.36 3.75 11.68
3/24/2021 5:30:00 AM 5.1 41.18 0.228 7.37 3.69 11.67
3/24/2021 5:45:00 AM 5.1 41.18 0.229 7.37 3.69 11.68
3/24/2021 6:00:00 AM 5.1 41.18 0.229 7.36 3.66 11.69
3/24/2021 6:15:00 AM 5.09 41.162 0.228 7.36 3.51 11.7
3/24/2021 6:30:00 AM 5.09 41.162 0.228 7.37 3.55 11.69
3/24/2021 6:45:00 AM 5.08 41.144 0.229 7.37 3.55 11.69
3/24/2021 7:00:00 AM 5.08 41.144 0.23 7.36 3.47 11.7
3/24/2021 7:15:00 AM 5.08 41.144 0.229 7.36 3.6 11.71
3/24/2021 7:30:00 AM 5.08 41.144 0.23 7.38 3.4 11.76
3/24/2021 7:45:00 AM 5.08 41.144 0.231 7.39 3.53 11.79
3/24/2021 8:00:00 AM 5.08 41.144 0.232 7.4 3.59 11.83
3/24/2021 8:15:00 AM 5.09 41.162 0.232 7.41 3.58 11.88
3/24/2021 8:30:00 AM 5.1 41.18 0.233 7.42 3.48 11.92
3/24/2021 8:45:00 AM 5.12 41.216 0.234 7.44 3.52 11.98
3/24/2021 9:00:00 AM 5.13 41.234 0.235 7.45 3.57 12.06
3/24/2021 9:15:00 AM 5.14 41.252 0.236 7.47 3.64 12.12
3/24/2021 9:30:00 AM 5.16 41.288 0.236 7.48 3.58 12.18
3/24/2021 9:45:00 AM 5.18 41.324 0.237 7.52 3.66 12.29
3/24/2021 10:00:00 AM 5.2 41.36 0.238 7.54 3.5 12.35
3/24/2021 10:15:00 AM 5.21 41.378 0.239 7.55 3.64 12.36
3/24/2021 10:30:00 AM 5.24 41.432 0.239 7.59 3.71 12.48
3/24/2021 10:45:00 AM 5.29 41.522 0.239 7.63 3.83 12.58
3/24/2021 11:00:00 AM 5.32 41.576 0.239 7.65 3.54 12.59
3/24/2021 11:15:00 AM 5.36 41.648 0.239 7.66 3.69 12.58
3/24/2021 11:30:00 AM 5.42 41.756 0.239 7.71 3.45 12.68
3/24/2021 11:45:00 AM 5.49 41.882 0.239 7.76 3.38 12.76
3/24/2021 12:00:00 PM 5.56 42.008 0.238 7.82 3.44 12.88
3/24/2021 12:15:00 PM 5.68 42.224 0.237 7.92 3.69 13.02
3/24/2021 12:30:00 PM 5.81 42.458 0.237 8.03 3.56 13.13
3/24/2021 12:45:00 PM 5.95 42.71 0.236 8.13 3.48 13.2
3/24/2021 1:00:00 PM 6.05 42.89 0.235 8.19 3.69 13.21
3/24/2021 1:15:00 PM 6.1 42.98 0.235 8.22 3.61 13.15
3/24/2021 1:30:00 PM 6.18 43.124 0.235 8.22 3.65 13.08
3/24/2021 1:45:00 PM 6.24 43.232 0.234 8.2 3.51 13.01
3/24/2021 2:00:00 PM 6.29 43.322 0.233 8.17 3.81 12.91
3/24/2021 2:15:00 PM 6.34 43.412 0.233 8.14 3.93 12.83
3/24/2021 2:30:00 PM 6.38 43.484 0.232 8.08 4.06 12.71
3/24/2021 2:45:00 PM 6.44 43.592 0.232 7.99 4.17 12.56
3/24/2021 3:00:00 PM 6.49 43.682 0.232 7.94 4.36 12.44
3/24/2021 3:15:00 PM 6.51 43.718 0.232 7.85 5.1 12.27
3/24/2021 3:30:00 PM 6.56 43.808 0.233 7.8 5.61 12.2
3/24/2021 3:45:00 PM 6.61 43.898 0.234 7.77 6.79 12.12
3/24/2021 4:00:00 PM 6.64 43.952 0.234 7.74 6.88 12.08
3/24/2021 4:15:00 PM 6.66 43.988 0.234 7.71 6.76 11.98
3/24/2021 4:30:00 PM 6.68 44.024 0.236 7.67 6.71 11.87
3/24/2021 4:45:00 PM 6.7 44.06 0.236 7.63 6.81 11.79
3/24/2021 5:00:00 PM 6.71 44.078 0.237 7.6 7.42 11.73
3/24/2021 5:15:00 PM 6.74 44.132 0.239 7.59 8.23 11.72
3/24/2021 5:30:00 PM 6.76 44.168 0.24 7.58 8.71 11.69
3/24/2021 5:45:00 PM 6.78 44.204 0.241 7.56 8.9 11.65
3/24/2021 6:00:00 PM 6.81 44.258 0.245 7.56 9.33 11.61
3/24/2021 6:15:00 PM 6.83 44.294 0.247 7.54 9.88 11.55
3/24/2021 6:30:00 PM 6.86 44.348 0.249 7.52 11.05 11.5
3/24/2021 6:45:00 PM 6.87 44.366 0.249 7.5 11.45 11.45
3/24/2021 7:00:00 PM 6.88 44.384 0.249 7.48 11.79 11.39
3/24/2021 7:15:00 PM 6.9 44.42 0.252 7.47 11.47 11.35
3/24/2021 7:30:00 PM 6.91 44.438 0.254 7.45 11.18 11.31
3/24/2021 7:45:00 PM 6.91 44.438 0.256 7.44 11.41 11.28
3/24/2021 8:00:00 PM 6.9 44.42 0.262 7.44 11.15 11.26
3/24/2021 8:15:00 PM 6.88 44.384 0.269 7.43 10.09 11.25
3/24/2021 8:30:00 PM 6.86 44.348 0.275 7.42 10.6 11.25
3/24/2021 8:45:00 PM 6.84 44.312 0.28 7.42 9.03 11.25
3/24/2021 9:00:00 PM 6.82 44.276 0.285 7.42 8.79 11.25
3/24/2021 9:15:00 PM 6.79 44.222 0.288 7.42 8.89 11.25
3/24/2021 9:30:00 PM 6.77 44.186 0.287 7.42 8.36 11.26
3/24/2021 9:45:00 PM 6.74 44.132 0.282 7.42 8.14 11.27
3/24/2021 10:00:00 PM 6.72 44.096 0.276 7.42 8 11.28
3/24/2021 10:15:00 PM 6.7 44.06 0.27 7.41 8.38 11.28
3/24/2021 10:30:00 PM 6.68 44.024 0.264 7.41 7.74 11.29
3/24/2021 10:45:00 PM 6.65 43.97 0.26 7.41 7.17 11.3
3/24/2021 11:00:00 PM 6.63 43.934 0.256 7.4 6.96 11.31
3/24/2021 11:15:00 PM 6.61 43.898 0.253 7.41 6.7 11.31
3/24/2021 11:30:00 PM 6.59 43.862 0.25 7.4 6.76 11.32
3/24/2021 11:45:00 PM 6.56 43.808 0.247 7.4 6.26 11.34
3/25/2021 12:00:00 AM 6.53 43.754 0.245 7.39 6.3 11.35
3/25/2021 12:15:00 AM 6.5 43.7 0.242 7.39 5.92 11.36
3/25/2021 12:30:00 AM 6.46 43.628 0.241 7.39 6 11.37
3/25/2021 12:45:00 AM 6.43 43.574 0.24 7.39 5.82 11.39
3/25/2021 1:00:00 AM 6.4 43.52 0.239 7.39 5.81 11.39
3/25/2021 1:15:00 AM 6.37 43.466 0.238 7.38 5.54 11.4
3/25/2021 1:30:00 AM 6.35 43.43 0.236 7.38 5.57 11.4
3/25/2021 1:45:00 AM 6.33 43.394 0.235 7.38 5.33 11.41
3/25/2021 2:00:00 AM 6.33 43.394 0.234 7.38 5.34 11.41
3/25/2021 2:15:00 AM 6.32 43.376 0.233 7.38 5.29 11.41
3/25/2021 2:30:00 AM 6.31 43.358 0.232 7.38 5.16 11.41
3/25/2021 2:45:00 AM 6.3 43.34 0.231 7.37 4.95 11.41
3/25/2021 3:00:00 AM 6.29 43.322 0.23 7.37 4.9 11.42
3/25/2021 3:15:00 AM 6.28 43.304 0.23 7.37 5.03 11.42
3/25/2021 3:30:00 AM 6.27 43.286 0.231 7.37 5.03 11.42
3/25/2021 3:45:00 AM 6.26 43.268 0.231 7.37 4.71 11.42
3/25/2021 4:00:00 AM 6.22 43.196 0.23 7.37 4.69 11.44
3/25/2021 4:15:00 AM 6.2 43.16 0.23 7.36 4.76 11.45
3/25/2021 4:30:00 AM 6.17 43.106 0.23 7.37 4.69 11.46
3/25/2021 4:45:00 AM 6.15 43.07 0.231 7.36 4.62 11.47
3/25/2021 5:00:00 AM 6.12 43.016 0.231 7.36 4.69 11.48
3/25/2021 5:15:00 AM 6.1 42.98 0.231 7.36 4.47 11.48
3/25/2021 5:30:00 AM 6.09 42.962 0.231 7.36 4.49 11.49
3/25/2021 5:45:00 AM 6.07 42.926 0.231 7.36 4.47 11.5
3/25/2021 6:00:00 AM 6.05 42.89 0.231 7.36 4.48 11.51
3/25/2021 6:15:00 AM 6.02 42.836 0.232 7.35 4.39 11.52
3/25/2021 6:30:00 AM 6 42.8 0.232 7.36 4.56 11.53
3/25/2021 6:45:00 AM 5.98 42.764 0.232 7.36 4.39 11.54
3/25/2021 7:00:00 AM 5.95 42.71 0.233 7.36 4.41 11.55
3/25/2021 7:15:00 AM 5.94 42.692 0.233 7.37 4.46 11.57
3/25/2021 7:30:00 AM 5.93 42.674 0.233 7.37 4.34 11.61
3/25/2021 7:45:00 AM 5.93 42.674 0.233 7.39 4.11 11.68
3/25/2021 8:00:00 AM 5.94 42.692 0.233 7.41 4.28 11.75
3/25/2021 8:15:00 AM 5.95 42.71 0.233 7.43 4.09 11.81
3/25/2021 8:30:00 AM 5.98 42.764 0.232 7.45 4.33 11.92
3/25/2021 8:45:00 AM 6.02 42.836 0.232 7.5 4.69 12.03
3/25/2021 9:00:00 AM 6.06 42.908 0.232 7.53 4.64 12.12
3/25/2021 9:15:00 AM 6.12 43.016 0.232 7.58 4.43 12.24
3/25/2021 9:30:00 AM 6.17 43.106 0.232 7.62 5.06 12.32
3/25/2021 9:45:00 AM 6.22 43.196 0.232 7.66 4.55 12.39
3/25/2021 10:00:00 AM 6.27 43.286 0.232 7.71 4.26 12.47
3/25/2021 10:15:00 AM 6.31 43.358 0.232 7.75 4.31 12.52
3/25/2021 10:30:00 AM 6.37 43.466 0.232 7.79 4.22 12.58
3/25/2021 10:45:00 AM 6.46 43.628 0.232 7.85 4.08 12.65
3/25/2021 11:00:00 AM 6.57 43.826 0.231 7.92 3.94 12.72
3/25/2021 11:15:00 AM 6.67 44.006 0.231 7.99 3.84 12.76
3/25/2021 11:30:00 AM 6.77 44.186 0.23 8.04 3.82 12.79
3/25/2021 11:45:00 AM 6.88 44.384 0.229 8.09 3.87 12.79
3/25/2021 12:00:00 PM 7.01 44.618 0.23 8.15 3.95 12.81
3/25/2021 12:15:00 PM 7.24 45.032 0.23 8.2 3.86 12.81
3/25/2021 12:30:00 PM 7.4 45.32 0.229 8.23 3.91 12.77
3/25/2021 12:45:00 PM 7.59 45.662 0.229 8.24 3.79 12.73
3/25/2021 1:00:00 PM 7.75 45.95 0.229 8.27 3.85 12.7
3/25/2021 1:15:00 PM 7.91 46.238 0.228 8.29 3.87 12.66
3/25/2021 1:30:00 PM 8.09 46.562 0.228 8.32 3.66 12.62
3/25/2021 1:45:00 PM 8.22 46.796 0.228 8.34 3.88 12.59
3/25/2021 2:00:00 PM 8.36 47.048 0.228 8.36 3.98 12.57
3/25/2021 2:15:00 PM 8.51 47.318 0.228 8.38 3.99 12.53
3/25/2021 2:30:00 PM 8.67 47.606 0.228 8.39 3.96 12.47
3/25/2021 2:45:00 PM 8.8 47.84 0.228 8.39 3.85 12.43
3/25/2021 3:00:00 PM 8.92 48.056 0.228 8.42 3.83 12.39
3/25/2021 3:15:00 PM 9.01 48.218 0.229 8.42 3.72 12.37
3/25/2021 3:30:00 PM 9.06 48.308 0.229 8.43 3.94 12.33
3/25/2021 3:45:00 PM 9.07 48.326 0.229 8.44 3.72 12.31
3/25/2021 4:00:00 PM 9.05 48.29 0.229 8.43 3.7 12.28
3/25/2021 4:15:00 PM 9.04 48.272 0.23 8.42 3.57 12.25
3/25/2021 4:30:00 PM 9.01 48.218 0.231 8.4 3.8 12.22
3/25/2021 4:45:00 PM 8.95 48.11 0.232 8.37 3.63 12.18
3/25/2021 5:00:00 PM 8.89 48.002 0.231 8.32 3.77 12.13
3/25/2021 5:15:00 PM 8.83 47.894 0.231 8.28 3.66 12.08
3/25/2021 5:30:00 PM 8.76 47.768 0.231 8.22 3.74 12.02
3/25/2021 5:45:00 PM 8.66 47.588 0.231 8.14 3.81 11.97
3/25/2021 6:00:00 PM 8.57 47.426 0.232 8.04 3.77 11.88
3/25/2021 6:15:00 PM 8.47 47.246 0.232 7.94 3.68 11.79
3/25/2021 6:30:00 PM 8.37 47.066 0.233 7.86 3.8 11.67
3/25/2021 6:45:00 PM 8.27 46.886 0.233 7.78 3.64 11.58
3/25/2021 7:00:00 PM 8.16 46.688 0.233 7.7 3.64 11.45
3/25/2021 7:15:00 PM 8.05 46.49 0.233 7.63 3.5 11.35
3/25/2021 7:30:00 PM 7.95 46.31 0.234 7.58 3.71 11.26
3/25/2021 7:45:00 PM 7.86 46.148 0.234 7.53 3.68 11.18
3/25/2021 8:00:00 PM 7.77 45.986 0.234 7.5 3.84 11.13
3/25/2021 8:15:00 PM 7.68 45.824 0.235 7.47 3.6 11.09
3/25/2021 8:30:00 PM 7.58 45.644 0.235 7.45 3.6 11.07
3/25/2021 8:45:00 PM 7.49 45.482 0.236 7.43 3.64 11.06
3/25/2021 9:00:00 PM 7.42 45.356 0.236 7.41 3.5 11.06
3/25/2021 9:15:00 PM 7.35 45.23 0.237 7.4 3.67 11.07
3/25/2021 9:30:00 PM 7.29 45.122 0.239 7.4 3.67 11.07
3/25/2021 9:45:00 PM 7.25 45.05 0.24 7.4 3.59 11.09
3/25/2021 10:00:00 PM 7.2 44.96 0.24 7.39 3.55 11.1
3/25/2021 10:15:00 PM 7.15 44.87 0.24 7.39 3.71 11.09
3/25/2021 10:30:00 PM 7.08 44.744 0.24 7.39 3.45 11.11
3/25/2021 10:45:00 PM 7.03 44.654 0.241 7.39 3.65 11.12
3/25/2021 11:00:00 PM 7 44.6 0.241 7.39 3.65 11.13
3/25/2021 11:15:00 PM 6.98 44.564 0.242 7.38 3.48 11.12
3/25/2021 11:30:00 PM 6.96 44.528 0.242 7.38 3.51 11.12
3/25/2021 11:45:00 PM 6.95 44.51 0.242 7.38 3.5 11.13
3/26/2021 12:00:00 AM 6.94 44.492 0.242 7.36 3.5 11.13
3/26/2021 12:15:00 AM 6.92 44.456 0.242 7.38 3.78 11.12
3/26/2021 12:30:00 AM 6.91 44.438 0.242 7.38 3.61 11.13
3/26/2021 12:45:00 AM 6.9 44.42 0.242 7.38 3.61 11.12
3/26/2021 1:00:00 AM 6.9 44.42 0.243 7.37 3.67 11.13
3/26/2021 1:15:00 AM 6.9 44.42 0.242 7.38 3.39 11.12
3/26/2021 1:30:00 AM 6.9 44.42 0.241 7.38 3.42 11.12
3/26/2021 1:45:00 AM 6.89 44.402 0.241 7.38 3.44 11.12
3/26/2021 2:00:00 AM 6.88 44.384 0.242 7.38 3.59 11.12
3/26/2021 2:15:00 AM 6.86 44.348 0.243 7.38 3.69 11.11
3/26/2021 2:30:00 AM 6.84 44.312 0.243 7.37 3.57 11.12
3/26/2021 2:45:00 AM 6.81 44.258 0.242 7.37 3.55 11.12
3/26/2021 3:00:00 AM 6.8 44.24 0.243 7.37 3.55 11.13
3/26/2021 3:15:00 AM 6.78 44.204 0.243 7.37 3.56 11.13
3/26/2021 3:30:00 AM 6.78 44.204 0.243 7.36 3.53 11.12
3/26/2021 3:45:00 AM 6.78 44.204 0.242 7.36 3.63 11.11
3/26/2021 4:00:00 AM 6.81 44.258 0.241 7.36 3.53 11.1
3/26/2021 4:15:00 AM 6.84 44.312 0.24 7.36 3.45 11.09
3/26/2021 4:30:00 AM 6.88 44.384 0.24 7.37 3.37 11.07
3/26/2021 4:45:00 AM 6.93 44.474 0.239 7.37 3.45 11.05
3/26/2021 5:00:00 AM 6.96 44.528 0.239 7.37 3.57 11.05
3/26/2021 5:15:00 AM 7 44.6 0.238 7.37 3.39 11.03
3/26/2021 5:30:00 AM 7.03 44.654 0.236 7.37 3.52 11.01
3/26/2021 5:45:00 AM 7.05 44.69 0.236 7.37 3.6 11
3/26/2021 6:00:00 AM 7.07 44.726 0.236 7.37 3.39 10.99
3/26/2021 6:15:00 AM 7.11 44.798 0.236 7.38 3.4 10.98
3/26/2021 6:30:00 AM 7.14 44.852 0.236 7.38 3.45 10.96
3/26/2021 6:45:00 AM 7.18 44.924 0.236 7.38 3.44 10.95
3/26/2021 7:00:00 AM 7.2 44.96 0.234 7.38 3.43 10.95
3/26/2021 7:15:00 AM 7.22 44.996 0.234 7.39 3.55 10.97
3/26/2021 7:30:00 AM 7.27 45.086 0.233 7.4 3.44 11.02
3/26/2021 7:45:00 AM 7.31 45.158 0.233 7.42 3.46 11.05
3/26/2021 8:00:00 AM 7.35 45.23 0.232 7.43 3.44 11.08
3/26/2021 8:15:00 AM 7.4 45.32 0.231 7.44 3.52 11.14
3/26/2021 8:30:00 AM 7.49 45.482 0.231 7.48 3.45 11.21
3/26/2021 8:45:00 AM 7.58 45.644 0.231 7.5 3.41 11.29
3/26/2021 9:00:00 AM 7.64 45.752 0.23 7.51 3.29 11.28
3/26/2021 9:15:00 AM 7.67 45.806 0.229 7.53 3.36 11.33
3/26/2021 9:30:00 AM 7.71 45.878 0.229 7.55 3.38 11.35
3/26/2021 9:45:00 AM 7.79 46.022 0.228 7.6 3.39 11.52
3/26/2021 10:00:00 AM 7.89 46.202 0.228 7.68 3.33 11.72
3/26/2021 10:15:00 AM 8.04 46.472 0.228 7.75 3.34 11.86
3/26/2021 10:30:00 AM 8.21 46.778 0.227 7.85 3.26 11.98
3/26/2021 10:45:00 AM 8.35 47.03 0.227 7.91 3.37 12.02
3/26/2021 11:00:00 AM 8.48 47.264 0.228 7.94 3.26 12.02
3/26/2021 11:15:00 AM 8.54 47.372 0.228 7.91 3.26 11.9
3/26/2021 11:30:00 AM 8.6 47.48 0.227 7.92 3.17 11.86
3/26/2021 11:45:00 AM 8.71 47.678 0.227 7.97 3.28 11.9
3/26/2021 12:00:00 PM 8.85 47.93 0.227 8.04 3.39 11.94
3/26/2021 12:15:00 PM 8.96 48.128 0.227 8.1 3.41 11.96
3/26/2021 12:30:00 PM 9.07 48.326 0.227 8.16 3.35 11.98
3/26/2021 12:45:00 PM 9.26 48.668 0.227 8.23 3.25 12.03
3/26/2021 1:00:00 PM 9.42 48.956 0.227 8.3 3.46 12.05
3/26/2021 1:15:00 PM 9.57 49.226 0.227 8.35 3.23 12.06
3/26/2021 1:30:00 PM 9.63 49.334 0.228 8.36 3.26 12
3/26/2021 1:45:00 PM 9.64 49.352 0.228 8.29 3.19 11.87
3/26/2021 2:00:00 PM 9.65 49.37 0.228 8.26 3.23 11.81
3/26/2021 2:15:00 PM 9.65 49.37 0.228 8.23 3.22 11.75
3/26/2021 2:30:00 PM 9.66 49.388 0.228 8.22 3.26 11.74
3/26/2021 2:45:00 PM 9.66 49.388 0.229 8.2 3.16 11.68
3/26/2021 3:00:00 PM 9.66 49.388 0.229 8.2 3.22 11.67
3/26/2021 3:15:00 PM 9.63 49.334 0.229 8.17 3.14 11.64
3/26/2021 3:30:00 PM 9.58 49.244 0.229 8.09 3.3 11.56
3/26/2021 3:45:00 PM 9.5 49.1 0.23 8.01 3.17 11.44
3/26/2021 4:00:00 PM 9.42 48.956 0.231 7.97 3.15 11.46
3/26/2021 4:15:00 PM 9.32 48.776 0.232 7.98 3.14 11.52
3/26/2021 4:30:00 PM 9.24 48.632 0.232 8.03 3.11 11.63
3/26/2021 4:45:00 PM 9.15 48.47 0.232 8.01 3.06 11.63
3/26/2021 5:00:00 PM 9.06 48.308 0.232 7.99 3.15 11.61
3/26/2021 5:15:00 PM 8.96 48.128 0.234 7.95 3.23 11.59
3/26/2021 5:30:00 PM 8.86 47.948 0.235 7.94 3.18 11.62
3/26/2021 5:45:00 PM 8.71 47.678 0.237 7.91 3.13 11.61
3/26/2021 6:00:00 PM 8.59 47.462 0.238 7.88 3.25 11.62
3/26/2021 6:15:00 PM 8.44 47.192 0.24 7.82 3.37 11.55
3/26/2021 6:30:00 PM 8.3 46.94 0.242 7.74 3.23 11.44
3/26/2021 6:45:00 PM 8.16 46.688 0.244 7.69 4.02 11.34
3/26/2021 7:00:00 PM 8.02 46.436 0.246 7.64 4.94 11.27
3/26/2021 7:15:00 PM 7.87 46.166 0.249 7.59 3.41 11.22
3/26/2021 7:30:00 PM 7.73 45.914 0.251 7.56 3.2 11.19
3/26/2021 7:45:00 PM 7.61 45.698 0.254 7.53 3.19 11.15
3/26/2021 8:00:00 PM 7.49 45.482 0.258 7.51 3.31 11.11
3/26/2021 8:15:00 PM 7.37 45.266 0.263 7.5 3.31 11.11
3/26/2021 8:30:00 PM 7.26 45.068 0.269 7.48 3.22 11.12
3/26/2021 8:45:00 PM 7.15 44.87 0.273 7.47 3.31 11.12
3/26/2021 9:00:00 PM 7.05 44.69 0.275 7.46 3.28 11.14
3/26/2021 9:15:00 PM 6.98 44.564 0.278 7.46 3.31 11.14
3/26/2021 9:30:00 PM 6.91 44.438 0.279 7.45 3.26 11.16
3/26/2021 9:45:00 PM 6.84 44.312 0.28 7.44 3.31 11.16
3/26/2021 10:00:00 PM 6.78 44.204 0.281 7.44 3.4 11.19
3/26/2021 10:15:00 PM 6.72 44.096 0.282 7.43 3.31 11.2
3/26/2021 10:30:00 PM 6.66 43.988 0.283 7.43 3.33 11.22
3/26/2021 10:45:00 PM 6.61 43.898 0.285 7.43 3.22 11.23
3/26/2021 11:00:00 PM 6.57 43.826 0.286 7.43 3.25 11.24
3/26/2021 11:15:00 PM 6.54 43.772 0.285 7.43 3.4 11.24
3/26/2021 11:30:00 PM 6.51 43.718 0.284 7.43 3.88 11.25
3/26/2021 11:45:00 PM 6.47 43.646 0.283 7.43 3.38 11.26
3/27/2021 12:00:00 AM 6.44 43.592 0.281 7.42 3.4 11.26
3/27/2021 12:15:00 AM 6.41 43.538 0.278 7.41 3.3 11.27
3/27/2021 12:30:00 AM 6.38 43.484 0.278 7.42 3.48 11.28
3/27/2021 12:45:00 AM 6.35 43.43 0.275 7.42 3.48 11.28
3/27/2021 1:00:00 AM 6.33 43.394 0.274 7.41 3.23 11.28
3/27/2021 1:15:00 AM 6.31 43.358 0.272 7.41 3.18 11.29
3/27/2021 1:30:00 AM 6.29 43.322 0.27 7.41 3.18 11.28
3/27/2021 1:45:00 AM 6.26 43.268 0.269 7.41 3.2 11.29
3/27/2021 2:00:00 AM 6.24 43.232 0.267 7.41 3.21 11.3
3/27/2021 2:15:00 AM 6.22 43.196 0.266 7.41 3.21 11.3
3/27/2021 2:30:00 AM 6.19 43.142 0.265 7.41 6.95 11.31
3/27/2021 2:45:00 AM 6.16 43.088 0.264 7.41 3.17 11.31
3/27/2021 3:00:00 AM 6.13 43.034 0.265 7.41 3.19 11.32
3/27/2021 3:15:00 AM 6.1 42.98 0.263 7.4 3.18 11.33
3/27/2021 3:30:00 AM 6.06 42.908 0.263 7.4 3.23 11.33
3/27/2021 3:45:00 AM 6.04 42.872 0.263 7.4 3.28 11.34
3/27/2021 4:00:00 AM 6.03 42.854 0.263 7.4 3.22 11.35
3/27/2021 4:15:00 AM 6.02 42.836 0.262 7.4 3.21 11.36
3/27/2021 4:30:00 AM 6 42.8 0.262 7.4 3.25 11.38
3/27/2021 4:45:00 AM 5.98 42.764 0.261 7.4 3.3 11.37
3/27/2021 5:00:00 AM 5.97 42.746 0.261 7.4 3.13 11.39
3/27/2021 5:15:00 AM 5.96 42.728 0.261 7.4 3.31 11.38
3/27/2021 5:30:00 AM 5.96 42.728 0.261 7.39 3.24 11.39
3/27/2021 5:45:00 AM 5.95 42.71 0.26 7.4 3.18 11.41
3/27/2021 6:00:00 AM 5.95 42.71 0.26 7.39 3.15 11.41
3/27/2021 6:15:00 AM 5.94 42.692 0.26 7.39 3.16 11.4
3/27/2021 6:30:00 AM 5.93 42.674 0.261 7.4 3.19 11.41
3/27/2021 6:45:00 AM 5.93 42.674 0.26 7.4 3.37 11.41
3/27/2021 7:00:00 AM 5.92 42.656 0.26 7.4 3.22 11.43
3/27/2021 7:15:00 AM 5.93 42.674 0.26 7.41 3.23 11.47
3/27/2021 7:30:00 AM 5.94 42.692 0.259 7.41 3.54 11.51
3/27/2021 7:45:00 AM 5.95 42.71 0.26 7.44 3.35 11.62
3/27/2021 8:00:00 AM 5.97 42.746 0.259 7.47 3.25 11.77
3/27/2021 8:15:00 AM 5.99 42.782 0.258 7.51 3.23 11.88
3/27/2021 8:30:00 AM 6.04 42.872 0.257 7.55 3.19 12.05
3/27/2021 8:45:00 AM 6.08 42.944 0.257 7.57 3.37 12.08
3/27/2021 9:00:00 AM 6.12 43.016 0.256 7.61 3.29 12.2
3/27/2021 9:15:00 AM 6.2 43.16 0.256 7.67 3.31 12.34
3/27/2021 9:30:00 AM 6.28 43.304 0.255 7.74 3.32 12.51
3/27/2021 9:45:00 AM 6.36 43.448 0.255 7.8 3.2 12.63
3/27/2021 10:00:00 AM 6.45 43.61 0.253 7.88 3.21 12.75
3/27/2021 10:15:00 AM 6.61 43.898 0.252 7.96 3.33 12.84
3/27/2021 10:30:00 AM 6.74 44.132 0.252 8.03 3.66 12.88
3/27/2021 10:45:00 AM 6.84 44.312 0.251 8.1 3.2 12.9
3/27/2021 11:00:00 AM 6.97 44.546 0.25 8.16 3.18 12.91
3/27/2021 11:15:00 AM 7.12 44.816 0.249 8.2 3.24 12.9
3/27/2021 11:30:00 AM 7.31 45.158 0.249 8.25 3.06 12.89
3/27/2021 11:45:00 AM 7.49 45.482 0.248 8.29 3.26 12.86
3/27/2021 12:00:00 PM 7.72 45.896 0.248 8.34 3.22 12.86
3/27/2021 12:15:00 PM 7.93 46.274 0.246 8.38 3.1 12.84
3/27/2021 12:30:00 PM 8.2 46.76 0.245 8.43 3.11 12.78
3/27/2021 12:45:00 PM 8.43 47.174 0.246 8.44 3.1 12.72
3/27/2021 1:00:00 PM 8.57 47.426 0.245 8.46 3.09 12.67
3/27/2021 1:15:00 PM 8.85 47.93 0.244 8.52 2.99 12.64
3/27/2021 1:30:00 PM 8.97 48.146 0.244 8.52 3 12.55
3/27/2021 1:45:00 PM 9.13 48.434 0.244 8.54 3.12 12.5
3/27/2021 2:00:00 PM 9.28 48.704 0.244 8.55 3 12.44
3/27/2021 2:15:00 PM 9.5 49.1 0.243 8.59 3.09 12.42
3/27/2021 2:30:00 PM 9.66 49.388 0.243 8.62 3.1 12.37
3/27/2021 2:45:00 PM 9.79 49.622 0.242 8.63 3.02 12.3
3/27/2021 3:00:00 PM 9.93 49.874 0.242 8.64 3.01 12.28
3/27/2021 3:15:00 PM 10.07 50.126 0.241 8.66 2.95 12.23
3/27/2021 3:30:00 PM 10.14 50.252 0.24 8.67 3.01 12.18
3/27/2021 3:45:00 PM 10.17 50.306 0.239 8.66 2.98 12.13
3/27/2021 4:00:00 PM 10.2 50.36 0.239 8.68 3.18 12.13
3/27/2021 4:15:00 PM 10.2 50.36 0.238 8.68 3.12 12.1
3/27/2021 4:30:00 PM 10.18 50.324 0.237 8.66 3.06 12.05
3/27/2021 4:45:00 PM 10.15 50.27 0.237 8.65 3.14 11.99
3/27/2021 5:00:00 PM 10.11 50.198 0.237 8.62 3.26 11.94
3/27/2021 5:15:00 PM 10.06 50.108 0.237 8.58 3.03 11.88
3/27/2021 5:30:00 PM 10 50 0.237 8.52 2.96 11.82
3/27/2021 5:45:00 PM 9.94 49.892 0.237 8.44 3.15 11.74
3/27/2021 6:00:00 PM 9.88 49.784 0.237 8.36 2.99 11.68
3/27/2021 6:15:00 PM 9.81 49.658 0.237 8.24 2.99 11.57
3/27/2021 6:30:00 PM 9.76 49.568 0.236 8.13 3.18 11.45
3/27/2021 6:45:00 PM 9.71 49.478 0.236 8.02 2.98 11.32
3/27/2021 7:00:00 PM 9.67 49.406 0.236 7.9 3.15 11.15
3/27/2021 7:15:00 PM 9.64 49.352 0.236 7.8 2.98 10.98
3/27/2021 7:30:00 PM 9.6 49.28 0.236 7.7 2.99 10.82
3/27/2021 7:45:00 PM 9.56 49.208 0.236 7.64 2.99 10.67
3/27/2021 8:00:00 PM 9.49 49.082 0.236 7.58 3.16 10.56
3/27/2021 8:15:00 PM 9.42 48.956 0.235 7.55 3.03 10.49
3/27/2021 8:30:00 PM 9.35 48.83 0.236 7.51 3.13 10.44
3/27/2021 8:45:00 PM 9.29 48.722 0.236 7.49 3.05 10.41
3/27/2021 9:00:00 PM 9.23 48.614 0.236 7.47 3.03 10.36
3/27/2021 9:15:00 PM 9.17 48.506 0.237 7.46 3.04 10.37
3/27/2021 9:30:00 PM 9.1 48.38 0.237 7.44 3.02 10.37
3/27/2021 9:45:00 PM 9.02 48.236 0.236 7.44 3.09 10.37
3/27/2021 10:00:00 PM 8.95 48.11 0.236 7.43 3.04 10.38
3/27/2021 10:15:00 PM 8.89 48.002 0.236 7.42 2.96 10.37
3/27/2021 10:30:00 PM 8.82 47.876 0.236 7.41 3.36 10.38
3/27/2021 10:45:00 PM 8.76 47.768 0.237 7.41 3.09 10.39
3/27/2021 11:00:00 PM 8.71 47.678 0.236 7.41 2.96 10.41
3/27/2021 11:15:00 PM 8.65 47.57 0.236 7.4 3.11 10.42
3/27/2021 11:30:00 PM 8.59 47.462 0.236 7.39 3.07 10.43
3/27/2021 11:45:00 PM 8.53 47.354 0.235 7.4 3.05 10.46
3/28/2021 12:00:00 AM 8.47 47.246 0.235 7.38 3.09 10.47
3/28/2021 12:15:00 AM 8.41 47.138 0.236 7.39 2.98 10.49
3/28/2021 12:30:00 AM 8.35 47.03 0.236 7.39 3.11 10.5
3/28/2021 12:45:00 AM 8.29 46.922 0.236 7.39 3.02 10.53
3/28/2021 1:00:00 AM 8.23 46.814 0.236 7.38 3.03 10.52
3/28/2021 1:15:00 AM 8.18 46.724 0.235 7.39 3.05 10.55
3/28/2021 1:30:00 AM 8.12 46.616 0.235 7.37 3.16 10.55
3/28/2021 1:45:00 AM 8.06 46.508 0.235 7.38 3.02 10.57
3/28/2021 2:00:00 AM 8.01 46.418 0.236 7.38 3.01 10.59
3/28/2021 2:15:00 AM 7.96 46.328 0.236 7.38 3.02 10.61
3/28/2021 2:30:00 AM 7.92 46.256 0.237 7.37 3.09 10.62
3/28/2021 2:45:00 AM 7.87 46.166 0.237 7.38 3.04 10.63
3/28/2021 3:00:00 AM 7.84 46.112 0.237 7.38 3.06 10.65
3/28/2021 3:15:00 AM 7.8 46.04 0.237 7.38 3.11 10.65
3/28/2021 3:30:00 AM 7.76 45.968 0.237 7.38 3 10.67
3/28/2021 3:45:00 AM 7.71 45.878 0.237 7.38 2.97 10.67
3/28/2021 4:00:00 AM 7.66 45.788 0.237 7.38 3.01 10.68
3/28/2021 4:15:00 AM 7.63 45.734 0.237 7.38 3.07 10.7
3/28/2021 4:30:00 AM 7.61 45.698 0.237 7.37 2.97 10.7
3/28/2021 4:45:00 AM 7.6 45.68 0.237 7.38 3.11 10.7
3/28/2021 5:00:00 AM 7.59 45.662 0.237 7.38 3.24 10.72
3/28/2021 5:15:00 AM 7.59 45.662 0.237 7.38 3.28 10.71
3/28/2021 5:30:00 AM 7.62 45.716 0.237 7.38 3.02 10.71
3/28/2021 5:45:00 AM 7.66 45.788 0.237 7.38 2.94 10.7
3/28/2021 6:00:00 AM 7.71 45.878 0.236 7.38 3.05 10.67
3/28/2021 6:15:00 AM 7.77 45.986 0.235 7.38 3.07 10.66
3/28/2021 6:30:00 AM 7.84 46.112 0.235 7.38 3.46 10.63
3/28/2021 6:45:00 AM 7.91 46.238 0.236 7.39 3.04 10.61
3/28/2021 7:00:00 AM 7.98 46.364 0.235 7.39 3.03 10.59
3/28/2021 7:15:00 AM 8.04 46.472 0.235 7.4 3.07 10.59
3/28/2021 7:30:00 AM 8.09 46.562 0.235 7.4 2.99 10.56
3/28/2021 7:45:00 AM 8.15 46.67 0.236 7.41 2.99 10.59
3/28/2021 8:00:00 AM 8.2 46.76 0.235 7.42 3.07 10.59
3/28/2021 8:15:00 AM 8.25 46.85 0.235 7.43 3.11 10.61
3/28/2021 8:30:00 AM 8.31 46.958 0.235 7.43 3.05 10.61
3/28/2021 8:45:00 AM 8.36 47.048 0.235 7.44 3.11 10.64
3/28/2021 9:00:00 AM 8.41 47.138 0.235 7.46 3.14 10.67
3/28/2021 9:15:00 AM 8.46 47.228 0.234 7.47 3.19 10.74
3/28/2021 9:30:00 AM 8.5 47.3 0.234 7.5 3.29 10.83
3/28/2021 9:45:00 AM 8.55 47.39 0.234 7.52 3.16 10.92
3/28/2021 10:00:00 AM 8.59 47.462 0.234 7.56 3.17 11.02
3/28/2021 10:15:00 AM 8.64 47.552 0.234 7.6 3.13 11.15
3/28/2021 10:30:00 AM 8.67 47.606 0.234 7.62 3.1 11.21
3/28/2021 10:45:00 AM 8.71 47.678 0.234 7.66 3.17 11.29
3/28/2021 11:00:00 AM 8.75 47.75 0.235 7.71 3.06 11.4
3/28/2021 11:15:00 AM 8.79 47.822 0.234 7.74 3.16 11.46
3/28/2021 11:30:00 AM 8.83 47.894 0.234 7.78 3.15 11.52
3/28/2021 11:45:00 AM 8.89 48.002 0.234 7.85 3.15 11.64
3/28/2021 12:00:00 PM 8.93 48.074 0.234 7.89 3.09 11.7
3/28/2021 12:15:00 PM 8.99 48.182 0.234 7.96 3.11 11.78
3/28/2021 12:30:00 PM 9.03 48.254 0.235 8 3.13 11.8
3/28/2021 12:45:00 PM 9.08 48.344 0.234 8.04 3.13 11.82
3/28/2021 1:00:00 PM 9.14 48.452 0.235 8.09 3.08 11.86
3/28/2021 1:15:00 PM 9.2 48.56 0.236 8.13 3.18 11.85
3/28/2021 1:30:00 PM 9.26 48.668 0.237 8.15 3.17 11.84
3/28/2021 1:45:00 PM 9.32 48.776 0.237 8.19 2.93 11.83
3/28/2021 2:00:00 PM 9.39 48.902 0.237 8.22 3.22 11.83
3/28/2021 2:15:00 PM 9.45 49.01 0.237 8.26 3.15 11.84
3/28/2021 2:30:00 PM 9.53 49.154 0.237 8.3 3.14 11.86
3/28/2021 2:45:00 PM 9.58 49.244 0.238 8.3 3.15 11.81
3/28/2021 3:00:00 PM 9.61 49.298 0.239 8.24 3.47 11.68
3/28/2021 3:15:00 PM 9.65 49.37 0.239 8.21 3.22 11.63
3/28/2021 3:30:00 PM 9.7 49.46 0.239 8.24 3.34 11.65
3/28/2021 3:45:00 PM 9.77 49.586 0.24 8.26 3.23 11.63
3/28/2021 4:00:00 PM 9.81 49.658 0.241 8.25 3.23 11.59
3/28/2021 4:15:00 PM 9.83 49.694 0.242 8.17 3.15 11.45
3/28/2021 4:30:00 PM 9.84 49.712 0.242 8.07 3.2 11.28
3/28/2021 4:45:00 PM 9.85 49.73 0.242 7.97 2.99 11.12
3/28/2021 5:00:00 PM 9.85 49.73 0.243 7.87 3.26 10.93
3/28/2021 5:15:00 PM 9.86 49.748 0.245 7.81 3.1 10.84
3/28/2021 5:30:00 PM 9.89 49.802 0.244 7.76 3.02 10.74
3/28/2021 5:45:00 PM 9.88 49.784 0.245 7.72 2.96 10.68
3/28/2021 6:00:00 PM 9.87 49.766 0.245 7.71 3.22 10.61
3/28/2021 6:15:00 PM 9.85 49.73 0.246 7.65 3.18 10.51
3/28/2021 6:30:00 PM 9.83 49.694 0.247 7.63 3.12 10.45
3/28/2021 6:45:00 PM 9.81 49.658 0.248 7.59 3.25 10.36
3/28/2021 7:00:00 PM 9.77 49.586 0.248 7.58 3.45 10.31
3/28/2021 7:15:00 PM 9.73 49.514 0.25 7.54 4.08 10.27
3/28/2021 7:30:00 PM 9.68 49.424 0.247 7.53 3.49 10.23
3/28/2021 7:45:00 PM 9.63 49.334 0.251 7.51 3.45 10.19
3/28/2021 8:00:00 PM 9.57 49.226 0.251 7.5 3.42 10.15
3/28/2021 8:15:00 PM 9.52 49.136 0.254 7.49 3.45 10.14
3/28/2021 8:30:00 PM 9.49 49.082 0.255 7.48 3.35 10.11
3/28/2021 8:45:00 PM 9.44 48.992 0.256 7.47 3.55 10.14
3/28/2021 9:00:00 PM 9.4 48.92 0.257 7.47 3.77 10.15
3/28/2021 9:15:00 PM 9.36 48.848 0.259 7.46 3.95 10.14
3/28/2021 9:30:00 PM 9.3 48.74 0.26 7.46 4.08 10.16
3/28/2021 9:45:00 PM 9.23 48.614 0.261 7.45 3.89 10.16
3/28/2021 10:00:00 PM 9.15 48.47 0.261 7.45 3.85 10.2
3/28/2021 10:15:00 PM 9.05 48.29 0.262 7.45 3.73 10.22
3/28/2021 10:30:00 PM 8.96 48.128 0.263 7.45 3.82 10.26
3/28/2021 10:45:00 PM 8.86 47.948 0.264 7.45 3.66 10.29
3/28/2021 11:00:00 PM 8.75 47.75 0.265 7.44 3.64 10.34
3/28/2021 11:15:00 PM 8.62 47.516 0.267 7.45 3.93 10.37
3/28/2021 11:30:00 PM 8.5 47.3 0.266 7.45 4.04 10.42
3/28/2021 11:45:00 PM 8.39 47.102 0.267 7.45 3.94 10.47
3/29/2021 12:00:00 AM 8.25 46.85 0.267 7.45 3.85 10.5
3/29/2021 12:15:00 AM 8.12 46.616 0.266 7.45 3.78 10.53
3/29/2021 12:30:00 AM 8 46.4 0.267 7.45 4.25 10.53
3/29/2021 12:45:00 AM 7.9 46.22 0.267 7.45 3.93 10.62
3/29/2021 1:00:00 AM 7.79 46.022 0.266 7.44 3.71 10.63
3/29/2021 1:15:00 AM 7.67 45.806 0.266 7.44 4.04 10.69
3/29/2021 1:30:00 AM 7.54 45.572 0.265 7.45 3.74 10.73
3/29/2021 1:45:00 AM 7.42 45.356 0.266 7.45 4.14 10.77
3/29/2021 2:00:00 AM 7.31 45.158 0.266 7.45 3.9 10.81
3/29/2021 2:15:00 AM 7.18 44.924 0.267 7.45 3.83 10.86
3/29/2021 2:30:00 AM 7.07 44.726 0.266 7.44 3.58 10.9
3/29/2021 2:45:00 AM 6.93 44.474 0.265 7.44 4.03 10.95
3/29/2021 3:00:00 AM 6.82 44.276 0.264 7.44 3.82 10.98
3/29/2021 3:15:00 AM 6.7 44.06 0.263 7.44 3.91 11.02
3/29/2021 3:30:00 AM 6.59 43.862 0.262 7.44 3.81 11.05
3/29/2021 3:45:00 AM 6.5 43.7 0.261 7.44 3.9 11.12
3/29/2021 4:00:00 AM 6.4 43.52 0.26 7.44 3.68 11.15
3/29/2021 4:15:00 AM 6.32 43.376 0.259 7.44 3.9 11.17
3/29/2021 4:30:00 AM 6.25 43.25 0.258 7.44 3.82 11.17
3/29/2021 4:45:00 AM 6.2 43.16 0.257 7.44 3.77 11.21
3/29/2021 5:00:00 AM 6.15 43.07 0.255 7.44 3.89 11.22
3/29/2021 5:15:00 AM 6.1 42.98 0.255 7.44 3.77 11.25
3/29/2021 5:30:00 AM 6.05 42.89 0.254 7.44 3.68 11.29
3/29/2021 5:45:00 AM 6 42.8 0.254 7.44 3.84 11.31
3/29/2021 6:00:00 AM 5.94 42.692 0.253 7.43 3.81 11.32
3/29/2021 6:15:00 AM 5.87 42.566 0.254 7.43 3.76 11.35
3/29/2021 6:30:00 AM 5.81 42.458 0.254 7.43 3.67 11.38
3/29/2021 6:45:00 AM 5.75 42.35 0.254 7.44 3.72 11.37
3/29/2021 7:00:00 AM 5.71 42.278 0.254 7.44 3.68 11.41
3/29/2021 7:15:00 AM 5.67 42.206 0.254 7.44 3.81 11.46
3/29/2021 7:30:00 AM 5.64 42.152 0.253 7.45 3.72 11.53
3/29/2021 7:45:00 AM 5.61 42.098 0.254 7.47 3.76 11.61
3/29/2021 8:00:00 AM 5.59 42.062 0.254 7.48 3.65 11.7
3/29/2021 8:15:00 AM 5.57 42.026 0.254 7.5 3.89 11.76
3/29/2021 8:30:00 AM 5.57 42.026 0.255 7.52 3.52 11.85
3/29/2021 8:45:00 AM 5.56 42.008 0.254 7.54 3.73 11.89
3/29/2021 9:00:00 AM 5.55 41.99 0.254 7.55 3.89 11.96
3/29/2021 9:15:00 AM 5.54 41.972 0.254 7.57 3.7 12.02
3/29/2021 9:30:00 AM 5.52 41.936 0.254 7.58 3.68 12.06
3/29/2021 9:45:00 AM 5.52 41.936 0.254 7.6 3.6 12.14
3/29/2021 10:00:00 AM 5.54 41.972 0.253 7.63 3.62 12.2
3/29/2021 10:15:00 AM 5.59 42.062 0.253 7.67 3.38 12.34
3/29/2021 10:30:00 AM 5.71 42.278 0.253 7.73 3.34 12.5
3/29/2021 10:45:00 AM 5.78 42.404 0.252 7.79 3.46 12.59
3/29/2021 11:00:00 AM 5.84 42.512 0.252 7.85 3.24 12.65
3/29/2021 11:15:00 AM 5.93 42.674 0.251 7.89 3.34 12.71
3/29/2021 11:30:00 AM 6 42.8 0.251 7.93 3.3 12.74
3/29/2021 11:45:00 AM 6.16 43.088 0.251 7.98 3.4 12.79
3/29/2021 12:00:00 PM 6.35 43.43 0.251 8.03 3.56 12.83
3/29/2021 12:15:00 PM 6.49 43.682 0.251 8.07 3.47 12.83
3/29/2021 12:30:00 PM 6.54 43.772 0.251 8.09 3.4 12.79
3/29/2021 12:45:00 PM 6.69 44.042 0.252 8.12 3.89 12.78
3/29/2021 1:00:00 PM 6.85 44.33 0.252 8.13 4.2 12.73
3/29/2021 1:15:00 PM 7.02 44.636 0.252 8.16 3.62 12.72
3/29/2021 1:30:00 PM 7.22 44.996 0.252 8.16 3.47 12.67
3/29/2021 1:45:00 PM 7.41 45.338 0.252 8.18 3.58 12.6
3/29/2021 2:00:00 PM 7.56 45.608 0.252 8.19 3.47 12.56
3/29/2021 2:15:00 PM 7.7 45.86 0.252 8.21 3.5 12.54
3/29/2021 2:30:00 PM 7.83 46.094 0.252 8.22 3.7 12.5
3/29/2021 2:45:00 PM 7.95 46.31 0.251 8.21 3.61 12.42
3/29/2021 3:00:00 PM 8.05 46.49 0.251 8.22 3.41 12.38
3/29/2021 3:15:00 PM 8.13 46.634 0.249 8.21 3.53 12.35
3/29/2021 3:30:00 PM 8.17 46.706 0.25 8.21 3.55 12.28
3/29/2021 3:45:00 PM 8.21 46.778 0.251 8.2 3.68 12.24
3/29/2021 4:00:00 PM 8.23 46.814 0.251 8.18 3.36 12.2
3/29/2021 4:15:00 PM 8.22 46.796 0.252 8.17 3.86 12.16
3/29/2021 4:30:00 PM 8.2 46.76 0.251 8.15 3.66 12.14
3/29/2021 4:45:00 PM 8.17 46.706 0.251 8.12 3.31 12.07
3/29/2021 5:00:00 PM 8.12 46.616 0.252 8.09 3.34 12.06
3/29/2021 5:15:00 PM 8.05 46.49 0.251 8.05 3.3 12
3/29/2021 5:30:00 PM 7.98 46.364 0.251 8.01 3.24 11.96
3/29/2021 5:45:00 PM 7.89 46.202 0.251 7.97 3.43 11.92
3/29/2021 6:00:00 PM 7.78 46.004 0.251 7.91 3.59 11.86
3/29/2021 6:15:00 PM 7.66 45.788 0.252 7.86 3.43 11.77
3/29/2021 6:30:00 PM 7.55 45.59 0.253 7.8 3.38 11.65
3/29/2021 6:45:00 PM 7.43 45.374 0.254 7.73 3.49 11.59
3/29/2021 7:00:00 PM 7.32 45.176 0.254 7.69 3.59 11.53
3/29/2021 7:15:00 PM 7.21 44.978 0.254 7.64 4 11.46
3/29/2021 7:30:00 PM 7.12 44.816 0.254 7.6 4.06 11.39
3/29/2021 7:45:00 PM 7.02 44.636 0.255 7.57 3.55 11.34
3/29/2021 8:00:00 PM 6.92 44.456 0.254 7.54 3.74 11.29
3/29/2021 8:15:00 PM 6.82 44.276 0.254 7.52 3.53 11.26
3/29/2021 8:30:00 PM 6.73 44.114 0.254 7.49 3.66 11.24
3/29/2021 8:45:00 PM 6.64 43.952 0.254 7.49 3.5 11.26
3/29/2021 9:00:00 PM 6.56 43.808 0.254 7.48 3.68 11.23
3/29/2021 9:15:00 PM 6.49 43.682 0.254 7.46 3.66 11.26
3/29/2021 9:30:00 PM 6.41 43.538 0.253 7.45 3.64 11.26
3/29/2021 9:45:00 PM 6.35 43.43 0.253 7.45 3.55 11.25
3/29/2021 10:00:00 PM 6.29 43.322 0.252 7.45 3.51 11.26
3/29/2021 10:15:00 PM 6.24 43.232 0.253 7.44 3.54 11.28
3/29/2021 10:30:00 PM 6.19 43.142 0.253 7.44 3.43 11.29
3/29/2021 10:45:00 PM 6.13 43.034 0.253 7.44 3.35 11.29
3/29/2021 11:00:00 PM 6.08 42.944 0.252 7.43 3.39 11.32
3/29/2021 11:15:00 PM 6.03 42.854 0.252 7.43 3.37 11.34
3/29/2021 11:30:00 PM 5.98 42.764 0.252 7.43 3.32 11.34
3/29/2021 11:45:00 PM 5.94 42.692 0.252 7.43 3.4 11.34
3/30/2021 12:00:00 AM 5.9 42.62 0.252 7.42 3.39 11.37
3/30/2021 12:15:00 AM 5.86 42.548 0.252 7.41 3.24 11.39
3/30/2021 12:30:00 AM 5.82 42.476 0.251 7.42 3.23 11.41
3/30/2021 12:45:00 AM 5.79 42.422 0.252 7.42 3.31 11.42
3/30/2021 1:00:00 AM 5.75 42.35 0.251 7.42 3.28 11.43
3/30/2021 1:15:00 AM 5.72 42.296 0.251 7.42 3.33 11.44
3/30/2021 1:30:00 AM 5.69 42.242 0.25 7.41 3.63 11.45
3/30/2021 1:45:00 AM 5.66 42.188 0.251 7.42 3.42 11.46
3/30/2021 2:00:00 AM 5.63 42.134 0.251 7.41 3.37 11.44
3/30/2021 2:15:00 AM 5.6 42.08 0.251 7.41 3.42 11.47
3/30/2021 2:30:00 AM 5.58 42.044 0.25 7.41 3.51 11.47
3/30/2021 2:45:00 AM 5.55 41.99 0.25 7.41 3.41 11.47
3/30/2021 3:00:00 AM 5.52 41.936 0.25 7.41 3.37 11.47
3/30/2021 3:15:00 AM 5.5 41.9 0.25 7.41 3.6 11.5
3/30/2021 3:30:00 AM 5.47 41.846 0.25 7.41 3.65 11.5
3/30/2021 3:45:00 AM 5.44 41.792 0.25 7.41 3.44 11.53
3/30/2021 4:00:00 AM 5.42 41.756 0.25 7.41 3.26 11.51
3/30/2021 4:15:00 AM 5.39 41.702 0.25 7.41 3.47 11.54
3/30/2021 4:30:00 AM 5.36 41.648 0.25 7.41 3.45 11.55
3/30/2021 4:45:00 AM 5.33 41.594 0.25 7.41 3.57 11.55
3/30/2021 5:00:00 AM 5.31 41.558 0.249 7.4 3.67 11.56
3/30/2021 5:15:00 AM 5.28 41.504 0.249 7.41 3.22 11.59
3/30/2021 5:30:00 AM 5.25 41.45 0.249 7.41 3.2 11.58
3/30/2021 5:45:00 AM 5.23 41.414 0.249 7.41 3.13 11.58
3/30/2021 6:00:00 AM 5.2 41.36 0.249 7.41 3.26 11.61
3/30/2021 6:15:00 AM 5.17 41.306 0.249 7.41 3.39 11.63
3/30/2021 6:30:00 AM 5.15 41.27 0.249 7.4 3.14 11.62
3/30/2021 6:45:00 AM 5.12 41.216 0.249 7.41 3.37 11.64
3/30/2021 7:00:00 AM 5.1 41.18 0.249 7.41 3.99 11.68
3/30/2021 7:15:00 AM 5.09 41.162 0.248 7.42 3.1 11.72
3/30/2021 7:30:00 AM 5.08 41.144 0.248 7.43 3.11 11.76
3/30/2021 7:45:00 AM 5.08 41.144 0.247 7.45 3.08 11.83
3/30/2021 8:00:00 AM 5.1 41.18 0.247 7.47 3.03 11.95
3/30/2021 8:15:00 AM 5.14 41.252 0.246 7.5 3.12 12.08
3/30/2021 8:30:00 AM 5.19 41.342 0.246 7.53 3.04 12.2
3/30/2021 8:45:00 AM 5.26 41.468 0.246 7.56 3.11 12.29
3/30/2021 9:00:00 AM 5.35 41.63 0.245 7.59 3.11 12.36
3/30/2021 9:15:00 AM 5.46 41.828 0.245 7.63 2.94 12.45
3/30/2021 9:30:00 AM 5.6 42.08 0.244 7.66 2.97 12.49
3/30/2021 9:45:00 AM 5.74 42.332 0.245 7.7 2.97 12.57
3/30/2021 10:00:00 AM 5.89 42.602 0.245 7.74 3 12.63
3/30/2021 10:15:00 AM 6.06 42.908 0.244 7.78 2.97 12.66
3/30/2021 10:30:00 AM 6.23 43.214 0.243 7.82 2.94 12.67
3/30/2021 10:45:00 AM 6.41 43.538 0.243 7.86 2.97 12.68
3/30/2021 11:00:00 AM 6.63 43.934 0.243 7.89 2.93 12.65
3/30/2021 11:15:00 AM 6.86 44.348 0.242 7.93 2.95 12.66
3/30/2021 11:30:00 AM 7.11 44.798 0.241 7.96 3.02 12.64
3/30/2021 11:45:00 AM 7.37 45.266 0.242 7.99 2.92 12.6
3/30/2021 12:00:00 PM 7.63 45.734 0.243 8.03 2.9 12.54
3/30/2021 12:15:00 PM 7.89 46.202 0.243 8.05 3.05 12.52
3/30/2021 12:30:00 PM 8.15 46.67 0.243 8.08 2.86 12.46
3/30/2021 12:45:00 PM 8.4 47.12 0.241 8.11 2.95 12.43
3/30/2021 1:00:00 PM 8.66 47.588 0.241 8.14 2.83 12.35
3/30/2021 1:15:00 PM 8.94 48.092 0.24 8.15 3.1 12.3
3/30/2021 1:30:00 PM 9.2 48.56 0.241 8.19 2.84 12.24
3/30/2021 1:45:00 PM 9.44 48.992 0.242 8.2 2.81 12.16
3/30/2021 2:00:00 PM 9.69 49.442 0.241 8.23 2.79 12.1
3/30/2021 2:15:00 PM 9.91 49.838 0.241 8.24 3.04 12.04
3/30/2021 2:30:00 PM 10.11 50.198 0.241 8.25 2.93 11.96
3/30/2021 2:45:00 PM 10.28 50.504 0.241 8.26 2.9 11.9
3/30/2021 3:00:00 PM 10.42 50.756 0.241 8.26 2.93 11.85
3/30/2021 3:15:00 PM 10.54 50.972 0.241 8.26 2.83 11.78
3/30/2021 3:30:00 PM 10.62 51.116 0.24 8.26 2.9 11.73
3/30/2021 3:45:00 PM 10.68 51.224 0.241 8.27 2.97 11.67
3/30/2021 4:00:00 PM 10.72 51.296 0.242 8.25 2.88 11.61
3/30/2021 4:15:00 PM 10.74 51.332 0.242 8.24 2.92 11.57
3/30/2021 4:30:00 PM 10.74 51.332 0.242 8.22 2.93 11.51
3/30/2021 4:45:00 PM 10.72 51.296 0.242 8.2 2.94 11.46
3/30/2021 5:00:00 PM 10.68 51.224 0.242 8.17 2.9 11.41
3/30/2021 5:15:00 PM 10.62 51.116 0.242 8.14 3 11.38
3/30/2021 5:30:00 PM 10.56 51.008 0.243 8.09 3.14 11.31
3/30/2021 5:45:00 PM 10.44 50.792 0.243 8.01 2.99 11.2
3/30/2021 6:00:00 PM 10.37 50.666 0.243 7.98 2.95 11.2
3/30/2021 6:15:00 PM 10.26 50.468 0.243 7.94 2.92 11.14
3/30/2021 6:30:00 PM 10.14 50.252 0.243 7.89 3.03 11.08
3/30/2021 6:45:00 PM 10.01 50.018 0.243 7.81 2.9 10.98
3/30/2021 7:00:00 PM 9.88 49.784 0.244 7.76 2.85 10.88
3/30/2021 7:15:00 PM 9.75 49.55 0.244 7.7 2.94 10.77
3/30/2021 7:30:00 PM 9.62 49.316 0.243 7.65 2.91 10.66
3/30/2021 7:45:00 PM 9.51 49.118 0.244 7.61 3 10.58
3/30/2021 8:00:00 PM 9.4 48.92 0.244 7.57 2.97 10.5
3/30/2021 8:15:00 PM 9.3 48.74 0.244 7.55 3.34 10.47
3/30/2021 8:30:00 PM 9.21 48.578 0.245 7.52 2.95 10.46
3/30/2021 8:45:00 PM 9.11 48.398 0.244 7.51 2.95 10.45
3/30/2021 9:00:00 PM 9.02 48.236 0.244 7.49 2.99 10.45
3/30/2021 9:15:00 PM 8.93 48.074 0.244 7.49 3.06 10.46
3/30/2021 9:30:00 PM 8.86 47.948 0.245 7.47 2.89 10.45
3/30/2021 9:45:00 PM 8.79 47.822 0.245 7.47 3.01 10.46
3/30/2021 10:00:00 PM 8.72 47.696 0.245 7.47 3.05 10.46
3/30/2021 10:15:00 PM 8.65 47.57 0.244 7.46 3 10.49
3/30/2021 10:30:00 PM 8.58 47.444 0.244 7.45 3.15 10.52
3/30/2021 10:45:00 PM 8.51 47.318 0.245 7.45 3.14 10.53
3/30/2021 11:00:00 PM 8.45 47.21 0.245 7.45 2.96 10.54
3/30/2021 11:15:00 PM 8.39 47.102 0.246 7.43 3.01 10.56
3/30/2021 11:30:00 PM 8.34 47.012 0.246 7.44 3.16 10.59
3/30/2021 11:45:00 PM 8.3 46.94 0.244 7.44 2.98 10.6
3/31/2021 12:00:00 AM 8.26 46.868 0.245 7.44 2.9 10.58
3/31/2021 12:15:00 AM 8.23 46.814 0.245 7.44 2.97 10.6
3/31/2021 12:30:00 AM 8.21 46.778 0.245 7.43 2.8 10.59
3/31/2021 12:45:00 AM 8.17 46.706 0.246 7.43 2.82 10.61
3/31/2021 1:00:00 AM 8.15 46.67 0.245 7.43 2.84 10.61
3/31/2021 1:15:00 AM 8.12 46.616 0.245 7.43 2.91 10.62
3/31/2021 1:30:00 AM 8.1 46.58 0.245 7.43 2.8 10.63
3/31/2021 1:45:00 AM 8.08 46.544 0.245 7.43 2.82 10.63
3/31/2021 2:00:00 AM 8.07 46.526 0.244 7.43 2.97 10.64
3/31/2021 2:15:00 AM 8.06 46.508 0.244 7.41 2.99 10.63
3/31/2021 2:30:00 AM 8.06 46.508 0.244 7.42 2.9 10.63
3/31/2021 2:45:00 AM 8.04 46.472 0.244 7.42 2.97 10.64
3/31/2021 3:00:00 AM 8.03 46.454 0.244 7.42 2.89 10.63
3/31/2021 3:15:00 AM 8.03 46.454 0.244 7.42 2.75 10.64
3/31/2021 3:30:00 AM 8.02 46.436 0.244 7.41 2.79 10.65
3/31/2021 3:45:00 AM 8.01 46.418 0.243 7.41 2.7 10.64
3/31/2021 4:00:00 AM 8 46.4 0.244 7.42 2.74 10.64
3/31/2021 4:15:00 AM 7.99 46.382 0.244 7.42 2.88 10.64
3/31/2021 4:30:00 AM 7.99 46.382 0.244 7.41 2.72 10.64
3/31/2021 4:45:00 AM 7.97 46.346 0.245 7.42 2.7 10.64
3/31/2021 5:00:00 AM 7.95 46.31 0.245 7.41 2.79 10.63
3/31/2021 5:15:00 AM 7.92 46.256 0.245 7.41 2.97 10.65
3/31/2021 5:30:00 AM 7.89 46.202 0.245 7.41 2.72 10.66
3/31/2021 5:45:00 AM 7.86 46.148 0.245 7.41 2.75 10.66
3/31/2021 6:00:00 AM 7.82 46.076 0.246 7.41 2.75 10.68
3/31/2021 6:15:00 AM 7.79 46.022 0.245 7.41 2.86 10.68
3/31/2021 6:30:00 AM 7.76 45.968 0.245 7.41 2.84 10.71
3/31/2021 6:45:00 AM 7.74 45.932 0.245 7.41 2.8 10.7
3/31/2021 7:00:00 AM 7.72 45.896 0.246 7.4 2.82 10.72
3/31/2021 7:15:00 AM 7.71 45.878 0.246 7.42 2.84 10.76
3/31/2021 7:30:00 AM 7.71 45.878 0.245 7.43 2.84 10.81
3/31/2021 7:45:00 AM 7.72 45.896 0.245 7.44 2.79 10.89
3/31/2021 8:00:00 AM 7.74 45.932 0.245 7.46 2.79 10.96
3/31/2021 8:15:00 AM 7.76 45.968 0.245 7.48 2.83 11.04
3/31/2021 8:30:00 AM 7.79 46.022 0.245 7.5 2.82 11.15
3/31/2021 8:45:00 AM 7.84 46.112 0.245 7.53 2.87 11.25
3/31/2021 9:00:00 AM 7.9 46.22 0.245 7.57 2.8 11.38
3/31/2021 9:15:00 AM 7.97 46.346 0.245 7.61 2.93 11.47
3/31/2021 9:30:00 AM 8.05 46.49 0.246 7.65 2.8 11.58
3/31/2021 9:45:00 AM 8.12 46.616 0.246 7.68 2.86 11.62
3/31/2021 10:00:00 AM 8.19 46.742 0.246 7.71 2.85 11.65
3/31/2021 10:15:00 AM 8.27 46.886 0.245 7.74 2.87 11.71
3/31/2021 10:30:00 AM 8.37 47.066 0.245 7.78 2.86 11.77
3/31/2021 10:45:00 AM 8.46 47.228 0.245 7.81 2.94 11.82
3/31/2021 11:00:00 AM 8.53 47.354 0.245 7.83 2.72 11.82
3/31/2021 11:15:00 AM 8.61 47.498 0.246 7.85 2.79 11.78
3/31/2021 11:30:00 AM 8.68 47.624 0.246 7.85 2.94 11.78
3/31/2021 11:45:00 AM 8.75 47.75 0.246 7.88 2.75 11.78
3/31/2021 12:00:00 PM 8.81 47.858 0.245 7.88 2.76 11.71
3/31/2021 12:15:00 PM 8.87 47.966 0.246 7.89 2.8 11.71
3/31/2021 12:30:00 PM 8.95 48.11 0.246 7.9 3.1 11.71
3/31/2021 12:45:00 PM 8.99 48.182 0.245 7.91 2.88 11.68
3/31/2021 1:00:00 PM 9.03 48.254 0.245 7.92 2.79 11.65
3/31/2021 1:15:00 PM 9.08 48.344 0.246 7.9 2.84 11.61
3/31/2021 1:30:00 PM 9.12 48.416 0.245 7.89 2.77 11.56
3/31/2021 1:45:00 PM 9.21 48.578 0.245 7.92 2.77 11.61
3/31/2021 2:00:00 PM 9.27 48.686 0.245 7.94 2.82 11.62
3/31/2021 2:15:00 PM 9.32 48.776 0.244 7.95 2.85 11.58
3/31/2021 2:30:00 PM 9.36 48.848 0.245 7.96 2.83 11.56
3/31/2021 2:45:00 PM 9.38 48.884 0.246 7.91 2.78 11.44
3/31/2021 3:00:00 PM 9.4 48.92 0.244 7.88 2.8 11.35
3/31/2021 3:15:00 PM 9.43 48.974 0.244 7.84 2.77 11.27
3/31/2021 3:30:00 PM 9.44 48.992 0.245 7.81 2.83 11.18
3/31/2021 3:45:00 PM 9.44 48.992 0.246 7.76 2.8 11.07
3/31/2021 4:00:00 PM 9.45 49.01 0.246 7.72 2.69 10.98
3/31/2021 4:15:00 PM 9.45 49.01 0.246 7.7 2.8 10.91
3/31/2021 4:30:00 PM 9.45 49.01 0.245 7.68 2.79 10.9
3/31/2021 4:45:00 PM 9.45 49.01 0.245 7.67 2.76 10.85
3/31/2021 5:00:00 PM 9.44 48.992 0.246 7.66 2.78 10.84
3/31/2021 5:15:00 PM 9.44 48.992 0.247 7.64 2.8 10.8
3/31/2021 5:30:00 PM 9.43 48.974 0.247 7.62 2.82 10.72
3/31/2021 5:45:00 PM 9.42 48.956 0.246 7.6 2.72 10.67
3/31/2021 6:00:00 PM 9.4 48.92 0.247 7.58 2.84 10.6
3/31/2021 6:15:00 PM 9.39 48.902 0.247 7.56 2.72 10.58
3/31/2021 6:30:00 PM 9.37 48.866 0.247 7.54 2.91 10.52
3/31/2021 6:45:00 PM 9.35 48.83 0.247 7.52 2.9 10.47
3/31/2021 7:00:00 PM 9.34 48.812 0.247 7.5 3.36 10.43
3/31/2021 7:15:00 PM 9.32 48.776 0.246 7.49 2.98 10.41
3/31/2021 7:30:00 PM 9.3 48.74 0.245 7.47 2.8 10.38
3/31/2021 7:45:00 PM 9.28 48.704 0.246 7.46 2.92 10.34
3/31/2021 8:00:00 PM 9.26 48.668 0.247 7.44 2.99 10.33
3/31/2021 8:15:00 PM 9.24 48.632 0.247 7.42 3.29 10.31
3/31/2021 8:30:00 PM 9.23 48.614 0.247 7.42 2.94 10.3
3/31/2021 8:45:00 PM 9.22 48.596 0.247 7.42 3.03 10.3
3/31/2021 9:00:00 PM 9.18 48.524 0.246 7.42 2.93 10.3
3/31/2021 9:15:00 PM 9.13 48.434 0.246 7.42 2.92 10.31
3/31/2021 9:30:00 PM 9.09 48.362 0.247 7.43 3.03 10.32
3/31/2021 9:45:00 PM 9.04 48.272 0.247 7.43 3.27 10.33
3/31/2021 10:00:00 PM 8.99 48.182 0.248 7.42 3.34 10.34
3/31/2021 10:15:00 PM 8.95 48.11 0.248 7.43 3.22 10.35
3/31/2021 10:30:00 PM 8.91 48.038 0.249 7.43 3.12 10.36
3/31/2021 10:45:00 PM 8.85 47.93 0.249 7.43 3.03 10.37
3/31/2021 11:00:00 PM 8.81 47.858 0.249 7.44 3.08 10.38
3/31/2021 11:15:00 PM 8.76 47.768 0.25 7.44 3.03 10.39
3/31/2021 11:30:00 PM 8.71 47.678 0.251 7.44 3.11 10.41
3/31/2021 11:45:00 PM 8.67 47.606 0.251 7.44 3.03 10.42
4/1/2021 12:00:00 AM 8.63 47.534 0.252 7.44 3.2 10.44
4/1/2021 12:15:00 AM 8.58 47.444 0.253 7.43 3.28 10.45
4/1/2021 12:30:00 AM 8.54 47.372 0.254 7.44 3.16 10.48
4/1/2021 12:45:00 AM 8.5 47.3 0.255 7.44 3.22 10.47
4/1/2021 1:00:00 AM 8.46 47.228 0.256 7.44 3.84 10.48
4/1/2021 1:15:00 AM 8.42 47.156 0.257 7.45 3.49 10.51
4/1/2021 1:30:00 AM 8.37 47.066 0.257 7.43 3.34 10.52
4/1/2021 1:45:00 AM 8.33 46.994 0.259 7.45 3.3 10.53
4/1/2021 2:00:00 AM 8.28 46.904 0.261 7.44 3.26 10.54
4/1/2021 2:15:00 AM 8.23 46.814 0.262 7.45 3.36 10.55
4/1/2021 2:30:00 AM 8.17 46.706 0.263 7.45 3.3 10.56
4/1/2021 2:45:00 AM 8.11 46.598 0.265 7.46 3.33 10.6
4/1/2021 3:00:00 AM 8.05 46.49 0.266 7.45 3.48 10.6
4/1/2021 3:15:00 AM 8 46.4 0.268 7.45 3.38 10.62
4/1/2021 3:30:00 AM 7.94 46.292 0.269 7.45 3.31 10.65
4/1/2021 3:45:00 AM 7.88 46.184 0.27 7.44 3.29 10.66
4/1/2021 4:00:00 AM 7.82 46.076 0.271 7.45 3.37 10.69
4/1/2021 4:15:00 AM 7.76 45.968 0.271 7.45 3.14 10.69
4/1/2021 4:30:00 AM 7.7 45.86 0.272 7.44 3.42 10.71
4/1/2021 4:45:00 AM 7.63 45.734 0.275 7.46 3.65 10.74
4/1/2021 5:00:00 AM 7.56 45.608 0.276 7.45 3.46 10.73
4/1/2021 5:15:00 AM 7.47 45.446 0.277 7.45 3.31 10.75
4/1/2021 5:30:00 AM 7.39 45.302 0.279 7.45 3.4 10.77
4/1/2021 5:45:00 AM 7.34 45.212 0.279 7.46 3.41 10.8
4/1/2021 6:00:00 AM 7.3 45.14 0.279 7.46 3.77 10.81
4/1/2021 6:15:00 AM 7.19 44.942 0.278 7.45 3.62 10.82
4/1/2021 6:30:00 AM 7.12 44.816 0.277 7.46 3.63 10.85
4/1/2021 6:45:00 AM 7.08 44.744 0.275 7.46 3.68 10.87
4/1/2021 7:00:00 AM 7.01 44.618 0.273 7.46 3.88 10.87
4/1/2021 7:15:00 AM 6.95 44.51 0.27 7.45 3.86 10.9
4/1/2021 7:30:00 AM 6.91 44.438 0.267 7.46 3.82 10.95
4/1/2021 7:45:00 AM 6.89 44.402 0.264 7.46 3.77 10.97
4/1/2021 8:00:00 AM 6.87 44.366 0.262 7.47 3.91 11.05
4/1/2021 8:15:00 AM 6.85 44.33 0.261 7.49 3.74 11.14
4/1/2021 8:30:00 AM 6.85 44.33 0.26 7.52 3.76 11.25
4/1/2021 8:45:00 AM 6.84 44.312 0.26 7.53 3.78 11.35
4/1/2021 9:00:00 AM 6.84 44.312 0.26 7.55 4.46 11.43
4/1/2021 9:15:00 AM 6.85 44.33 0.259 7.58 3.84 11.54
4/1/2021 9:30:00 AM 6.89 44.402 0.259 7.6 3.81 11.64
4/1/2021 9:45:00 AM 6.94 44.492 0.259 7.64 3.67 11.75
4/1/2021 10:00:00 AM 6.99 44.582 0.258 7.69 4.17 11.84
4/1/2021 10:15:00 AM 7.05 44.69 0.257 7.71 3.74 11.93
4/1/2021 10:30:00 AM 7.09 44.762 0.258 7.75 3.79 11.97
4/1/2021 10:45:00 AM 7.18 44.924 0.257 7.77 3.68 12.01
4/1/2021 11:00:00 AM 7.27 45.086 0.257 7.81 3.67 12.04
4/1/2021 11:15:00 AM 7.36 45.248 0.257 7.84 3.91 12.06
4/1/2021 11:30:00 AM 7.44 45.392 0.257 7.85 3.69 12.07
4/1/2021 11:45:00 AM 7.56 45.608 0.257 7.88 4.34 12.07
4/1/2021 12:00:00 PM 7.68 45.824 0.257 7.87 3.58 12.03
4/1/2021 12:15:00 PM 7.86 46.148 0.257 7.89 3.54 12.04
4/1/2021 12:30:00 PM 8.03 46.454 0.257 7.92 3.72 12.01
4/1/2021 12:45:00 PM 8.19 46.742 0.257 7.93 3.44 11.96
4/1/2021 1:00:00 PM 8.36 47.048 0.258 7.94 3.68 11.94
4/1/2021 1:15:00 PM 8.54 47.372 0.258 7.94 3.61 11.91
4/1/2021 1:30:00 PM 8.62 47.516 0.258 7.94 3.48 11.86
4/1/2021 1:45:00 PM 8.7 47.66 0.258 7.94 3.78 11.82
4/1/2021 2:00:00 PM 8.83 47.894 0.257 7.95 3.75 11.81
4/1/2021 2:15:00 PM 8.85 47.93 0.258 7.97 3.89 11.79
4/1/2021 2:30:00 PM 8.76 47.768 0.258 7.97 3.75 11.74
4/1/2021 2:45:00 PM 8.69 47.642 0.258 7.95 3.81 11.72
4/1/2021 3:00:00 PM 8.73 47.714 0.258 7.96 3.71 11.69
4/1/2021 3:15:00 PM 8.93 48.074 0.258 7.96 3.93 11.72
4/1/2021 3:30:00 PM 8.99 48.182 0.257 7.98 3.69 11.71
4/1/2021 3:45:00 PM 8.95 48.11 0.257 7.98 3.57 11.68
4/1/2021 4:00:00 PM 8.89 48.002 0.256 7.98 3.99 11.67
4/1/2021 4:15:00 PM 8.83 47.894 0.257 7.97 3.69 11.64
4/1/2021 4:30:00 PM 8.78 47.804 0.257 7.95 3.6 11.63
4/1/2021 4:45:00 PM 8.7 47.66 0.257 7.94 3.57 11.6
4/1/2021 5:00:00 PM 8.63 47.534 0.256 7.91 3.68 11.54
4/1/2021 5:15:00 PM 8.53 47.354 0.256 7.88 3.48 11.53
4/1/2021 5:30:00 PM 8.4 47.12 0.256 7.86 3.64 11.49
4/1/2021 5:45:00 PM 8.28 46.904 0.256 7.8 3.63 11.43
4/1/2021 6:00:00 PM 8.19 46.742 0.257 7.78 3.79 11.39
4/1/2021 6:15:00 PM 8.1 46.58 0.257 7.75 3.66 11.38
4/1/2021 6:30:00 PM 7.9 46.22 0.257 7.73 3.83 11.35
4/1/2021 6:45:00 PM 7.8 46.04 0.257 7.7 3.63 11.32
4/1/2021 7:00:00 PM 7.64 45.752 0.258 7.67 3.54 11.28
4/1/2021 7:15:00 PM 7.51 45.518 0.258 7.64 3.74 11.25
4/1/2021 7:30:00 PM 7.38 45.284 0.258 7.6 3.68 11.2
4/1/2021 7:45:00 PM 7.27 45.086 0.258 7.57 3.83 11.17
4/1/2021 8:00:00 PM 7.18 44.924 0.258 7.56 3.79 11.15
4/1/2021 8:15:00 PM 7.1 44.78 0.259 7.54 3.74 11.12
4/1/2021 8:30:00 PM 7.02 44.636 0.26 7.53 3.66 11.12
4/1/2021 8:45:00 PM 6.94 44.492 0.259 7.51 4.37 11.1
4/1/2021 9:00:00 PM 6.87 44.366 0.259 7.49 3.85 11.1
4/1/2021 9:15:00 PM 6.81 44.258 0.258 7.5 3.63 11.11
4/1/2021 9:30:00 PM 6.77 44.186 0.258 7.49 3.63 11.1
4/1/2021 9:45:00 PM 6.73 44.114 0.258 7.48 3.73 11.11
4/1/2021 10:00:00 PM 6.68 44.024 0.257 7.48 3.68 11.12
4/1/2021 10:15:00 PM 6.66 43.988 0.256 7.48 3.9 11.13
4/1/2021 10:30:00 PM 6.63 43.934 0.256 7.47 3.57 11.14
4/1/2021 10:45:00 PM 6.59 43.862 0.256 7.48 3.63 11.15
4/1/2021 11:00:00 PM 6.55 43.79 0.255 7.47 3.66 11.16
4/1/2021 11:15:00 PM 6.51 43.718 0.255 7.47 3.68 11.17
4/1/2021 11:30:00 PM 6.47 43.646 0.255 7.46 3.53 11.18
4/1/2021 11:45:00 PM 6.43 43.574 0.254 7.47 3.6 11.19
4/2/2021 12:00:00 AM 6.39 43.502 0.254 7.46 3.52 11.21
4/2/2021 12:15:00 AM 6.35 43.43 0.253 7.46 3.54 11.2
4/2/2021 12:30:00 AM 6.32 43.376 0.253 7.46 3.64 11.22
4/2/2021 12:45:00 AM 6.29 43.322 0.253 7.46 3.75 11.23
4/2/2021 1:00:00 AM 6.26 43.268 0.253 7.46 3.66 11.23
4/2/2021 1:15:00 AM 6.22 43.196 0.253 7.46 3.54 11.24
4/2/2021 1:30:00 AM 6.16 43.088 0.253 7.45 3.56 11.26
4/2/2021 1:45:00 AM 6.1 42.98 0.252 7.46 3.67 11.28
4/2/2021 2:00:00 AM 6.04 42.872 0.252 7.46 3.56 11.3
4/2/2021 2:15:00 AM 6 42.8 0.252 7.45 3.55 11.31
4/2/2021 2:30:00 AM 5.96 42.728 0.252 7.46 3.43 11.32
4/2/2021 2:45:00 AM 5.9 42.62 0.251 7.46 3.58 11.34
4/2/2021 3:00:00 AM 5.84 42.512 0.251 7.45 3.61 11.36
4/2/2021 3:15:00 AM 5.8 42.44 0.251 7.46 3.75 11.39
4/2/2021 3:30:00 AM 5.74 42.332 0.25 7.46 3.52 11.4
4/2/2021 3:45:00 AM 5.69 42.242 0.25 7.45 3.52 11.41
4/2/2021 4:00:00 AM 5.63 42.134 0.25 7.45 3.55 11.41
4/2/2021 4:15:00 AM 5.59 42.062 0.251 7.46 3.51 11.45
4/2/2021 4:30:00 AM 5.54 41.972 0.251 7.46 3.65 11.46
4/2/2021 4:45:00 AM 5.5 41.9 0.251 7.45 3.54 11.47
4/2/2021 5:00:00 AM 5.44 41.792 0.25 7.45 3.78 11.46
4/2/2021 5:15:00 AM 5.39 41.702 0.251 7.46 3.55 11.52
4/2/2021 5:30:00 AM 5.34 41.612 0.251 7.46 3.53 11.54
4/2/2021 5:45:00 AM 5.29 41.522 0.252 7.46 3.7 11.57
4/2/2021 6:00:00 AM 5.25 41.45 0.252 7.45 3.46 11.57
4/2/2021 6:15:00 AM 5.21 41.378 0.252 7.46 3.55 11.59
4/2/2021 6:30:00 AM 5.17 41.306 0.252 7.45 3.51 11.6
4/2/2021 6:45:00 AM 5.14 41.252 0.252 7.45 3.63 11.62
4/2/2021 7:00:00 AM 5.12 41.216 0.252 7.45 3.47 11.65
4/2/2021 7:15:00 AM 5.09 41.162 0.252 7.46 3.77 11.69
4/2/2021 7:30:00 AM 5.08 41.144 0.252 7.48 3.65 11.75
4/2/2021 7:45:00 AM 5.07 41.126 0.252 7.49 3.45 11.83
4/2/2021 8:00:00 AM 5.07 41.126 0.252 7.51 6.59 11.91
4/2/2021 8:15:00 AM 5.08 41.144 0.252 7.52 3.51 11.99
4/2/2021 8:30:00 AM 5.12 41.216 0.252 7.55 3.45 12.09
4/2/2021 8:45:00 AM 5.15 41.27 0.252 7.57 3.41 12.16
4/2/2021 9:00:00 AM 5.18 41.324 0.251 7.6 3.49 12.22
4/2/2021 9:15:00 AM 5.21 41.378 0.251 7.61 3.45 12.27
4/2/2021 9:30:00 AM 5.32 41.576 0.251 7.64 3.65 12.34
4/2/2021 9:45:00 AM 5.37 41.666 0.251 7.66 3.45 12.38
4/2/2021 10:00:00 AM 5.39 41.702 0.25 7.69 3.38 12.42
4/2/2021 10:15:00 AM 5.49 41.882 0.25 7.69 3.34 12.42
4/2/2021 10:30:00 AM 5.61 42.098 0.249 7.72 3.42 12.44
4/2/2021 10:45:00 AM 5.69 42.242 0.248 7.74 3.37 12.46
4/2/2021 11:00:00 AM 5.77 42.386 0.249 7.76 3.44 12.47
4/2/2021 11:15:00 AM 5.87 42.566 0.249 7.77 3.4 12.48
4/2/2021 11:30:00 AM 5.91 42.638 0.249 7.78 3.49 12.49
4/2/2021 11:45:00 AM 5.98 42.764 0.248 7.8 3.46 12.49
4/2/2021 12:00:00 PM 6.14 43.052 0.249 7.81 3.47 12.45
4/2/2021 12:15:00 PM 6.35 43.43 0.248 7.8 3.58 12.44
4/2/2021 12:30:00 PM 6.52 43.736 0.248 7.83 3.42 12.42
4/2/2021 12:45:00 PM 6.69 44.042 0.248 7.84 3.46 12.38
4/2/2021 1:00:00 PM 6.83 44.294 0.249 7.84 3.52 12.33
4/2/2021 1:15:00 PM 6.96 44.528 0.249 7.83 3.4 12.3
4/2/2021 1:30:00 PM 7.16 44.888 0.248 7.85 3.43 12.28
4/2/2021 1:45:00 PM 7.32 45.176 0.248 7.85 3.39 12.21
4/2/2021 2:00:00 PM 7.46 45.428 0.248 7.85 3.35 12.15
4/2/2021 2:15:00 PM 7.61 45.698 0.248 7.85 3.4 12.12
4/2/2021 2:30:00 PM 7.7 45.86 0.249 7.85 3.34 12.07
4/2/2021 2:45:00 PM 7.77 45.986 0.249 7.85 3.43 12.02
4/2/2021 3:00:00 PM 7.85 46.13 0.249 7.86 3.54 12
4/2/2021 3:15:00 PM 7.87 46.166 0.25 7.84 3.53 11.95
4/2/2021 3:30:00 PM 7.89 46.202 0.25 7.84 3.38 11.93
4/2/2021 3:45:00 PM 7.9 46.22 0.25 7.84 3.47 11.88
4/2/2021 4:00:00 PM 7.91 46.238 0.25 7.83 3.38 11.81
4/2/2021 4:15:00 PM 7.91 46.238 0.251 7.84 3.35 11.81
4/2/2021 4:30:00 PM 7.89 46.202 0.251 7.83 3.43 11.78
4/2/2021 4:45:00 PM 7.82 46.076 0.251 7.82 3.5 11.75
4/2/2021 5:00:00 PM 7.73 45.914 0.251 7.8 3.37 11.73
4/2/2021 5:15:00 PM 7.64 45.752 0.251 7.77 3.33 11.68
4/2/2021 5:30:00 PM 7.55 45.59 0.252 7.76 3.25 11.64
4/2/2021 5:45:00 PM 7.47 45.446 0.252 7.74 3.4 11.64
4/2/2021 6:00:00 PM 7.34 45.212 0.252 7.73 3.3 11.61
4/2/2021 6:15:00 PM 7.21 44.978 0.253 7.71 3.41 11.61
4/2/2021 6:30:00 PM 7.07 44.726 0.252 7.68 3.3 11.57
4/2/2021 6:45:00 PM 6.92 44.456 0.252 7.65 3.22 11.52
4/2/2021 7:00:00 PM 6.77 44.186 0.253 7.63 3.31 11.49
4/2/2021 7:15:00 PM 6.62 43.916 0.253 7.61 3.26 11.48
4/2/2021 7:30:00 PM 6.48 43.664 0.254 7.58 3.33 11.45
4/2/2021 7:45:00 PM 6.35 43.43 0.254 7.57 3.36 11.45
4/2/2021 8:00:00 PM 6.23 43.214 0.254 7.55 3.17 11.41
4/2/2021 8:15:00 PM 6.11 42.998 0.255 7.53 3.27 11.41
4/2/2021 8:30:00 PM 5.99 42.782 0.255 7.52 3.42 11.44
4/2/2021 8:45:00 PM 5.88 42.584 0.256 7.51 3.4 11.46
4/2/2021 9:00:00 PM 5.78 42.404 0.257 7.49 3.54 11.47
4/2/2021 9:15:00 PM 5.69 42.242 0.257 7.49 3.64 11.49
4/2/2021 9:30:00 PM 5.6 42.08 0.258 7.48 3.44 11.48
4/2/2021 9:45:00 PM 5.52 41.936 0.258 7.47 3.32 11.5
4/2/2021 10:00:00 PM 5.44 41.792 0.258 7.48 3.3 11.52
4/2/2021 10:15:00 PM 5.38 41.684 0.258 7.47 3.16 11.55
4/2/2021 10:30:00 PM 5.33 41.594 0.258 7.47 3.15 11.56
4/2/2021 10:45:00 PM 5.28 41.504 0.257 7.47 3.2 11.57
4/2/2021 11:00:00 PM 5.24 41.432 0.257 7.46 3.15 11.59
4/2/2021 11:15:00 PM 5.2 41.36 0.257 7.47 3.28 11.62
4/2/2021 11:30:00 PM 5.16 41.288 0.257 7.46 3.3 11.63
4/2/2021 11:45:00 PM 5.12 41.216 0.257 7.46 3.19 11.63
4/3/2021 12:00:00 AM 5.08 41.144 0.257 7.46 3.47 11.63
4/3/2021 12:15:00 AM 5.06 41.108 0.257 7.46 3.15 11.63
4/3/2021 12:30:00 AM 5.03 41.054 0.256 7.47 3.52 11.66
4/3/2021 12:45:00 AM 5 41 0.256 7.46 3.12 11.66
4/3/2021 1:00:00 AM 4.97 40.946 0.256 7.46 3.13 11.64
4/3/2021 1:15:00 AM 4.94 40.892 0.255 7.46 3.15 11.67
4/3/2021 1:30:00 AM 4.91 40.838 0.255 7.46 3.13 11.68
4/3/2021 1:45:00 AM 4.88 40.784 0.255 7.46 3.03 11.68
4/3/2021 2:00:00 AM 4.84 40.712 0.255 7.46 3.09 11.7
4/3/2021 2:15:00 AM 4.81 40.658 0.255 7.45 3.13 11.71
4/3/2021 2:30:00 AM 4.76 40.568 0.255 7.44 3.02 11.72
4/3/2021 2:45:00 AM 4.73 40.514 0.254 7.45 3.06 11.73
4/3/2021 3:00:00 AM 4.68 40.424 0.254 7.45 3.16 11.75
4/3/2021 3:15:00 AM 4.64 40.352 0.254 7.46 3.05 11.78
4/3/2021 3:30:00 AM 4.6 40.28 0.254 7.44 3.01 11.79
4/3/2021 3:45:00 AM 4.56 40.208 0.254 7.46 3.01 11.81
4/3/2021 4:00:00 AM 4.52 40.136 0.254 7.44 3.27 11.82
4/3/2021 4:15:00 AM 4.47 40.046 0.254 7.45 3.07 11.83
4/3/2021 4:30:00 AM 4.43 39.974 0.254 7.45 3.05 11.84
4/3/2021 4:45:00 AM 4.39 39.902 0.254 7.45 3.17 11.86
4/3/2021 5:00:00 AM 4.36 39.848 0.254 7.45 3.2 11.87
4/3/2021 5:15:00 AM 4.32 39.776 0.254 7.46 3.12 11.89
4/3/2021 5:30:00 AM 4.27 39.686 0.253 7.45 3.02 11.9
4/3/2021 5:45:00 AM 4.23 39.614 0.254 7.45 3.05 11.91
4/3/2021 6:00:00 AM 4.2 39.56 0.254 7.45 3.17 11.93
4/3/2021 6:15:00 AM 4.16 39.488 0.253 7.45 3.14 11.95
4/3/2021 6:30:00 AM 4.13 39.434 0.254 7.44 3.14 11.98
4/3/2021 6:45:00 AM 4.09 39.362 0.252 7.45 3.16 11.99
4/3/2021 7:00:00 AM 4.05 39.29 0.254 7.46 3.12 12.02
4/3/2021 7:15:00 AM 4.02 39.236 0.254 7.46 3.17 12.06
4/3/2021 7:30:00 AM 4.01 39.218 0.255 7.47 3.08 12.13
4/3/2021 7:45:00 AM 4 39.2 0.254 7.48 3.04 12.16
4/3/2021 8:00:00 AM 4.01 39.218 0.254 7.5 3.09 12.27
4/3/2021 8:15:00 AM 4.03 39.254 0.254 7.51 3.22 12.34
4/3/2021 8:30:00 AM 4.07 39.326 0.253 7.53 3.15 12.4
4/3/2021 8:45:00 AM 4.14 39.452 0.252 7.53 3.23 12.47
4/3/2021 9:00:00 AM 4.22 39.596 0.253 7.56 3.31 12.5
4/3/2021 9:15:00 AM 4.32 39.776 0.254 7.57 3.06 12.55
4/3/2021 9:30:00 AM 4.42 39.956 0.254 7.58 3.17 12.6
4/3/2021 9:45:00 AM 4.55 40.19 0.254 7.61 3.29 12.61
4/3/2021 10:00:00 AM 4.68 40.424 0.254 7.62 3.22 12.63
4/3/2021 10:15:00 AM 4.83 40.694 0.254 7.64 3.12 12.63
4/3/2021 10:30:00 AM 4.99 40.982 0.254 7.66 3.18 12.63
4/3/2021 10:45:00 AM 5.16 41.288 0.253 7.67 3.16 12.62
4/3/2021 11:00:00 AM 5.36 41.648 0.253 7.68 3.19 12.6
4/3/2021 11:15:00 AM 5.57 42.026 0.253 7.69 3.15 12.55
4/3/2021 11:30:00 AM 5.8 42.44 0.254 7.71 3.09 12.54
4/3/2021 11:45:00 AM 6.03 42.854 0.253 7.71 3.07 12.47
4/3/2021 12:00:00 PM 6.26 43.268 0.253 7.72 3.24 12.43
4/3/2021 12:15:00 PM 6.51 43.718 0.253 7.72 3.11 12.38
4/3/2021 12:30:00 PM 6.75 44.15 0.252 7.74 3.14 12.32
4/3/2021 12:45:00 PM 7.01 44.618 0.252 7.74 3.21 12.27
4/3/2021 1:00:00 PM 7.25 45.05 0.254 7.76 3.05 12.22
4/3/2021 1:15:00 PM 7.49 45.482 0.254 7.76 3.16 12.13
4/3/2021 1:30:00 PM 7.73 45.914 0.254 7.77 3.11 12.09
4/3/2021 1:45:00 PM 7.97 46.346 0.254 7.76 3.09 12.01
4/3/2021 2:00:00 PM 8.19 46.742 0.253 7.78 2.95 11.94
4/3/2021 2:15:00 PM 8.4 47.12 0.254 7.79 3.02 11.88
4/3/2021 2:30:00 PM 8.59 47.462 0.254 7.77 3.04 11.82
4/3/2021 2:45:00 PM 8.75 47.75 0.253 7.79 2.99 11.74
4/3/2021 3:00:00 PM 8.91 48.038 0.252 7.79 3.05 11.69
4/3/2021 3:15:00 PM 9 48.2 0.253 7.8 3.03 11.66
4/3/2021 3:30:00 PM 9.07 48.326 0.254 7.79 3.29 11.59
4/3/2021 3:45:00 PM 9.11 48.398 0.254 7.8 2.98 11.56
4/3/2021 4:00:00 PM 9.06 48.308 0.255 7.79 2.81 11.51
4/3/2021 4:15:00 PM 9.02 48.236 0.255 7.78 2.97 11.49
4/3/2021 4:30:00 PM 8.98 48.164 0.254 7.79 3.06 11.47
4/3/2021 4:45:00 PM 8.93 48.074 0.255 7.8 3.41 11.48
4/3/2021 5:00:00 PM 8.91 48.038 0.255 7.79 3.26 11.44
4/3/2021 5:15:00 PM 8.9 48.02 0.253 7.79 2.86 11.48
4/3/2021 5:30:00 PM 8.85 47.93 0.255 7.79 2.84 11.45
4/3/2021 5:45:00 PM 8.71 47.678 0.255 7.78 2.97 11.38
4/3/2021 6:00:00 PM 8.61 47.498 0.254 7.75 2.97 11.37
4/3/2021 6:15:00 PM 8.48 47.264 0.255 7.72 3.03 11.29
4/3/2021 6:30:00 PM 8.36 47.048 0.256 7.7 2.97 11.25
4/3/2021 6:45:00 PM 8.26 46.868 0.255 7.68 3.09 11.24
4/3/2021 7:00:00 PM 8.13 46.634 0.255 7.66 3.09 11.2
4/3/2021 7:15:00 PM 8 46.4 0.255 7.64 3.27 11.18
4/3/2021 7:30:00 PM 7.86 46.148 0.256 7.62 3.11 11.15
4/3/2021 7:45:00 PM 7.73 45.914 0.256 7.58 3.1 11.08
4/3/2021 8:00:00 PM 7.59 45.662 0.256 7.56 3.13 11.06
4/3/2021 8:15:00 PM 7.46 45.428 0.256 7.53 3.03 11.04
4/3/2021 8:30:00 PM 7.32 45.176 0.255 7.53 3.46 11.01
4/3/2021 8:45:00 PM 7.2 44.96 0.257 7.52 3.16 11.05
4/3/2021 9:00:00 PM 7.08 44.744 0.256 7.51 3.2 11.07
4/3/2021 9:15:00 PM 6.98 44.564 0.256 7.5 3.43 11.09
4/3/2021 9:30:00 PM 6.89 44.402 0.257 7.48 3.43 11.08
4/3/2021 9:45:00 PM 6.8 44.24 0.256 7.49 2.99 11.12
4/3/2021 10:00:00 PM 6.72 44.096 0.256 7.48 3.2 11.11
4/3/2021 10:15:00 PM 6.65 43.97 0.256 7.48 3.06 11.15
4/3/2021 10:30:00 PM 6.58 43.844 0.255 7.46 3.1 11.17
4/3/2021 10:45:00 PM 6.51 43.718 0.256 7.48 3.3 11.19
4/3/2021 11:00:00 PM 6.46 43.628 0.256 7.47 3.04 11.2
4/3/2021 11:15:00 PM 6.41 43.538 0.256 7.47 3.24 11.23
4/3/2021 11:30:00 PM 6.37 43.466 0.255 7.47 2.98 11.24
4/3/2021 11:45:00 PM 6.33 43.394 0.256 7.46 3.12 11.26
4/4/2021 12:00:00 AM 6.31 43.358 0.256 7.46 3.1 11.27
4/4/2021 12:15:00 AM 6.28 43.304 0.256 7.45 3.19 11.27
4/4/2021 12:30:00 AM 6.26 43.268 0.256 7.46 2.97 11.28
4/4/2021 12:45:00 AM 6.24 43.232 0.256 7.46 3.05 11.27
4/4/2021 1:00:00 AM 6.23 43.214 0.256 7.44 3.04 11.28
4/4/2021 1:15:00 AM 6.22 43.196 0.255 7.45 2.98 11.29
4/4/2021 1:30:00 AM 6.21 43.178 0.256 7.45 3.19 11.28
4/4/2021 1:45:00 AM 6.2 43.16 0.256 7.45 3.05 11.28
4/4/2021 2:00:00 AM 6.2 43.16 0.256 7.45 3.14 11.28
4/4/2021 2:15:00 AM 6.2 43.16 0.256 7.45 3.22 11.29
4/4/2021 2:30:00 AM 6.19 43.142 0.255 7.45 3.12 11.28
4/4/2021 2:45:00 AM 6.19 43.142 0.255 7.45 3.25 11.29
4/4/2021 3:00:00 AM 6.18 43.124 0.255 7.45 3.03 11.28
4/4/2021 3:15:00 AM 6.18 43.124 0.256 7.44 3.26 11.3
4/4/2021 3:30:00 AM 6.18 43.124 0.255 7.45 3.06 11.28
4/4/2021 3:45:00 AM 6.17 43.106 0.255 7.45 3.15 11.29
4/4/2021 4:00:00 AM 6.17 43.106 0.254 7.43 3.08 11.29
4/4/2021 4:15:00 AM 6.17 43.106 0.254 7.45 3.1 11.29
4/4/2021 4:30:00 AM 6.16 43.088 0.255 7.45 3.18 11.27
4/4/2021 4:45:00 AM 6.16 43.088 0.255 7.45 3 11.28
4/4/2021 5:00:00 AM 6.15 43.07 0.254 7.45 3.2 11.29
4/4/2021 5:15:00 AM 6.14 43.052 0.255 7.44 3.18 11.27
4/4/2021 5:30:00 AM 6.13 43.034 0.255 7.44 3.09 11.28
4/4/2021 5:45:00 AM 6.12 43.016 0.254 7.45 3.12 11.29
4/4/2021 6:00:00 AM 6.11 42.998 0.254 7.43 2.98 11.29
4/4/2021 6:15:00 AM 6.1 42.98 0.255 7.45 3.03 11.29
4/4/2021 6:30:00 AM 6.09 42.962 0.255 7.45 3.13 11.3
4/4/2021 6:45:00 AM 6.07 42.926 0.254 7.44 3.11 11.31
4/4/2021 7:00:00 AM 6.06 42.908 0.254 7.44 3.03 11.31
4/4/2021 7:15:00 AM 6.06 42.908 0.255 7.45 3.13 11.35
4/4/2021 7:30:00 AM 6.07 42.926 0.255 7.46 3.13 11.37
4/4/2021 7:45:00 AM 6.09 42.962 0.254 7.47 3.26 11.43
4/4/2021 8:00:00 AM 6.12 43.016 0.254 7.49 3.09 11.52
4/4/2021 8:15:00 AM 6.16 43.088 0.254 7.51 2.97 11.59
4/4/2021 8:30:00 AM 6.21 43.178 0.254 7.51 3.02 11.64
4/4/2021 8:45:00 AM 6.27 43.286 0.253 7.54 3.01 11.73
4/4/2021 9:00:00 AM 6.34 43.412 0.254 7.55 3.09 11.77
4/4/2021 9:15:00 AM 6.44 43.592 0.254 7.58 3.18 11.82
4/4/2021 9:30:00 AM 6.55 43.79 0.254 7.6 3.03 11.85
4/4/2021 9:45:00 AM 6.67 44.006 0.253 7.61 3.01 11.86
4/4/2021 10:00:00 AM 6.81 44.258 0.253 7.63 3.05 11.89
4/4/2021 10:15:00 AM 6.95 44.51 0.253 7.65 3.08 11.89
4/4/2021 10:30:00 AM 7.1 44.78 0.252 7.66 3.18 11.91
4/4/2021 10:45:00 AM 7.26 45.068 0.254 7.68 2.86 11.89
4/4/2021 11:00:00 AM 7.43 45.374 0.253 7.69 2.94 11.87
4/4/2021 11:15:00 AM 7.64 45.752 0.253 7.69 2.87 11.86
4/4/2021 11:30:00 AM 7.86 46.148 0.252 7.72 2.93 11.83
4/4/2021 11:45:00 AM 8.08 46.544 0.252 7.72 2.87 11.8
4/4/2021 12:00:00 PM 8.3 46.94 0.253 7.73 2.97 11.75
4/4/2021 12:15:00 PM 8.56 47.408 0.254 7.74 2.74 11.71
4/4/2021 12:30:00 PM 8.79 47.822 0.253 7.75 2.88 11.67
4/4/2021 12:45:00 PM 9.02 48.236 0.254 7.76 2.9 11.62
4/4/2021 1:00:00 PM 9.26 48.668 0.253 7.76 2.88 11.57
4/4/2021 1:15:00 PM 9.48 49.064 0.253 7.78 2.86 11.5
4/4/2021 1:30:00 PM 9.7 49.46 0.253 7.79 2.81 11.45
4/4/2021 1:45:00 PM 9.89 49.802 0.253 7.79 2.86 11.37
4/4/2021 2:00:00 PM 10.07 50.126 0.253 7.78 3.04 11.32
4/4/2021 2:15:00 PM 10.29 50.522 0.253 7.8 2.9 11.27
4/4/2021 2:30:00 PM 10.44 50.792 0.253 7.79 3.04 11.21
4/4/2021 2:45:00 PM 10.6 51.08 0.253 7.79 2.94 11.15
4/4/2021 3:00:00 PM 10.76 51.368 0.253 7.8 2.91 11.09
4/4/2021 3:15:00 PM 10.9 51.62 0.252 7.81 2.65 11.04
4/4/2021 3:30:00 PM 11 51.8 0.252 7.8 2.87 11
4/4/2021 3:45:00 PM 11.07 51.926 0.253 7.81 2.81 10.95
4/4/2021 4:00:00 PM 11.09 51.962 0.253 7.8 2.89 10.92
4/4/2021 4:15:00 PM 11.09 51.962 0.254 7.79 2.96 10.88
4/4/2021 4:30:00 PM 11.05 51.89 0.252 7.79 3.01 10.86
4/4/2021 4:45:00 PM 11.03 51.854 0.252 7.78 3.05 10.82
4/4/2021 5:00:00 PM 10.97 51.746 0.253 7.78 3.05 10.81
4/4/2021 5:15:00 PM 10.89 51.602 0.254 7.78 2.71 10.77
4/4/2021 5:30:00 PM 10.79 51.422 0.253 7.74 2.81 10.72
4/4/2021 5:45:00 PM 10.67 51.206 0.253 7.75 2.83 10.7
4/4/2021 6:00:00 PM 10.55 50.99 0.254 7.72 2.86 10.67
4/4/2021 6:15:00 PM 10.4 50.72 0.254 7.71 2.75 10.66
4/4/2021 6:30:00 PM 10.24 50.432 0.254 7.69 2.95 10.61
4/4/2021 6:45:00 PM 10.06 50.108 0.254 7.66 3.09 10.58
4/4/2021 7:00:00 PM 9.89 49.802 0.254 7.64 2.81 10.53
4/4/2021 7:15:00 PM 9.72 49.496 0.254 7.61 2.84 10.53
4/4/2021 7:30:00 PM 9.54 49.172 0.254 7.6 3.02 10.5
4/4/2021 7:45:00 PM 9.37 48.866 0.254 7.57 2.97 10.49
4/4/2021 8:00:00 PM 9.21 48.578 0.254 7.55 3.01 10.49
4/4/2021 8:15:00 PM 9.04 48.272 0.255 7.54 2.78 10.49
4/4/2021 8:30:00 PM 8.88 47.984 0.255 7.53 2.95 10.52
4/4/2021 8:45:00 PM 8.71 47.678 0.255 7.52 2.93 10.54
4/4/2021 9:00:00 PM 8.55 47.39 0.256 7.51 3.12 10.57
4/4/2021 9:15:00 PM 8.39 47.102 0.256 7.51 3 10.63
4/4/2021 9:30:00 PM 8.25 46.85 0.256 7.5 3.1 10.64
4/4/2021 9:45:00 PM 8.11 46.598 0.255 7.49 2.98 10.68
4/4/2021 10:00:00 PM 7.97 46.346 0.256 7.49 3.06 10.72
4/4/2021 10:15:00 PM 7.84 46.112 0.256 7.48 3 10.75
4/4/2021 10:30:00 PM 7.71 45.878 0.257 7.48 3.1 10.8
4/4/2021 10:45:00 PM 7.6 45.68 0.258 7.47 3.15 10.79
4/4/2021 11:00:00 PM 7.49 45.482 0.257 7.47 3.07 10.83
4/4/2021 11:15:00 PM 7.38 45.284 0.257 7.47 3.16 10.89
4/4/2021 11:30:00 PM 7.28 45.104 0.257 7.47 3.13 10.91
4/4/2021 11:45:00 PM 7.19 44.942 0.257 7.46 2.95 10.93
4/5/2021 12:00:00 AM 7.09 44.762 0.257 7.46 3.04 10.96
4/5/2021 12:15:00 AM 7.01 44.618 0.258 7.46 3.15 10.98
4/5/2021 12:30:00 AM 6.92 44.456 0.258 7.46 2.97 11
4/5/2021 12:45:00 AM 6.84 44.312 0.258 7.45 3.13 11.02
4/5/2021 1:00:00 AM 6.77 44.186 0.257 7.46 3.04 11.04
4/5/2021 1:15:00 AM 6.7 44.06 0.257 7.45 3.06 11.07
4/5/2021 1:30:00 AM 6.63 43.934 0.257 7.45 3 11.09
4/5/2021 1:45:00 AM 6.58 43.844 0.257 7.45 3.03 11.1
4/5/2021 2:00:00 AM 6.53 43.754 0.256 7.45 2.98 11.11
4/5/2021 2:15:00 AM 6.49 43.682 0.256 7.45 3.06 11.13
4/5/2021 2:30:00 AM 6.46 43.628 0.256 7.46 3.32 11.13
4/5/2021 2:45:00 AM 6.44 43.592 0.256 7.45 3.47 11.13
4/5/2021 3:00:00 AM 6.44 43.592 0.256 7.45 5.52 11.13
4/5/2021 3:15:00 AM 6.45 43.61 0.255 7.45 4.67 11.13
4/5/2021 3:30:00 AM 6.46 43.628 0.255 7.44 3.88 11.11
4/5/2021 3:45:00 AM 6.47 43.646 0.255 7.45 3.05 11.1
4/5/2021 4:00:00 AM 6.48 43.664 0.254 7.45 2.85 11.1
4/5/2021 4:15:00 AM 6.48 43.664 0.254 7.45 2.75 11.09
4/5/2021 4:30:00 AM 6.49 43.682 0.254 7.45 2.72 11.09
4/5/2021 4:45:00 AM 6.49 43.682 0.254 7.45 2.93 11.1
4/5/2021 5:00:00 AM 6.48 43.664 0.254 7.45 2.83 11.09
4/5/2021 5:15:00 AM 6.47 43.646 0.254 7.45 2.9 11.09
4/5/2021 5:30:00 AM 6.46 43.628 0.254 7.45 2.77 11.1
4/5/2021 5:45:00 AM 6.44 43.592 0.255 7.45 2.82 11.1
4/5/2021 6:00:00 AM 6.42 43.556 0.255 7.45 2.87 11.11
4/5/2021 6:15:00 AM 6.39 43.502 0.254 7.45 2.94 11.12
4/5/2021 6:30:00 AM 6.37 43.466 0.254 7.45 2.93 11.12
4/5/2021 6:45:00 AM 6.34 43.412 0.255 7.45 2.98 11.14
4/5/2021 7:00:00 AM 6.32 43.376 0.255 7.46 2.85 11.17
4/5/2021 7:15:00 AM 6.3 43.34 0.255 7.46 2.93 11.21
4/5/2021 7:30:00 AM 6.29 43.322 0.255 7.47 2.91 11.26
4/5/2021 7:45:00 AM 6.29 43.322 0.254 7.48 2.88 11.32
4/5/2021 8:00:00 AM 6.3 43.34 0.254 7.49 2.81 11.39
4/5/2021 8:15:00 AM 6.35 43.43 0.254 7.51 2.88 11.47
4/5/2021 8:30:00 AM 6.4 43.52 0.254 7.52 2.71 11.52
4/5/2021 8:45:00 AM 6.48 43.664 0.254 7.54 2.83 11.58
4/5/2021 9:00:00 AM 6.57 43.826 0.253 7.54 2.85 11.62
4/5/2021 9:15:00 AM 6.67 44.006 0.253 7.56 2.85 11.64
4/5/2021 9:30:00 AM 6.8 44.24 0.254 7.59 2.93 11.67
4/5/2021 9:45:00 AM 6.94 44.492 0.254 7.6 2.94 11.68
4/5/2021 10:00:00 AM 7.09 44.762 0.254 7.61 2.83 11.7
4/5/2021 10:15:00 AM 7.26 45.068 0.254 7.62 2.96 11.69
4/5/2021 10:30:00 AM 7.44 45.392 0.254 7.64 2.86 11.68
4/5/2021 10:45:00 AM 7.61 45.698 0.254 7.64 2.99 11.67
4/5/2021 11:00:00 AM 7.81 46.058 0.254 7.66 2.84 11.65
4/5/2021 11:15:00 AM 8.04 46.472 0.254 7.67 2.88 11.62
4/5/2021 11:30:00 AM 8.29 46.922 0.253 7.67 2.97 11.58
4/5/2021 11:45:00 AM 8.53 47.354 0.253 7.69 2.83 11.55
4/5/2021 12:00:00 PM 8.79 47.822 0.254 7.7 2.9 11.49
4/5/2021 12:15:00 PM 9.05 48.29 0.254 7.71 3.09 11.45
4/5/2021 12:30:00 PM 9.31 48.758 0.254 7.7 2.97 11.39
4/5/2021 12:45:00 PM 9.57 49.226 0.253 7.72 2.99 11.34
4/5/2021 1:00:00 PM 9.81 49.658 0.253 7.72 2.93 11.27
4/5/2021 1:15:00 PM 10.07 50.126 0.253 7.73 2.92 11.21
4/5/2021 1:30:00 PM 10.3 50.54 0.254 7.73 2.91 11.17
4/5/2021 1:45:00 PM 10.55 50.99 0.254 7.74 2.93 11.1
4/5/2021 2:00:00 PM 10.76 51.368 0.253 7.74 2.95 11.04
4/5/2021 2:15:00 PM 10.97 51.746 0.253 7.75 2.89 10.99
4/5/2021 2:30:00 PM 11.16 52.088 0.253 7.75 2.96 10.93
4/5/2021 2:45:00 PM 11.32 52.376 0.254 7.75 2.96 10.86
4/5/2021 3:00:00 PM 11.45 52.61 0.254 7.76 3.05 10.81
4/5/2021 3:15:00 PM 11.54 52.772 0.255 7.76 2.81 10.77
4/5/2021 3:30:00 PM 11.6 52.88 0.255 7.75 2.85 10.72
4/5/2021 3:45:00 PM 11.64 52.952 0.255 7.76 2.79 10.69
4/5/2021 4:00:00 PM 11.66 52.988 0.254 7.76 2.82 10.66
4/5/2021 4:15:00 PM 11.67 53.006 0.254 7.75 2.87 10.62
4/5/2021 4:30:00 PM 11.64 52.952 0.254 7.75 2.7 10.6
4/5/2021 4:45:00 PM 11.58 52.844 0.254 7.75 2.85 10.57
4/5/2021 5:00:00 PM 11.51 52.718 0.255 7.74 2.87 10.54
4/5/2021 5:15:00 PM 11.41 52.538 0.255 7.73 2.84 10.51
4/5/2021 5:30:00 PM 11.29 52.322 0.255 7.72 2.88 10.49
4/5/2021 5:45:00 PM 11.15 52.07 0.255 7.71 2.82 10.5
4/5/2021 6:00:00 PM 11 51.8 0.255 7.69 3.03 10.48
4/5/2021 6:15:00 PM 10.83 51.494 0.255 7.66 2.95 10.46
4/5/2021 6:30:00 PM 10.65 51.17 0.256 7.66 2.92 10.44
4/5/2021 6:45:00 PM 10.47 50.846 0.257 7.64 2.93 10.41
4/5/2021 7:00:00 PM 10.29 50.522 0.257 7.62 2.91 10.4
4/5/2021 7:15:00 PM 10.1 50.18 0.257 7.6 2.98 10.36
4/5/2021 7:30:00 PM 9.89 49.802 0.257 7.58 2.99 10.38
4/5/2021 7:45:00 PM 9.7 49.46 0.257 7.56 3 10.37
4/5/2021 8:00:00 PM 9.5 49.1 0.257 7.54 3.08 10.37
4/5/2021 8:15:00 PM 9.33 48.794 0.258 7.54 3.12 10.39
4/5/2021 8:30:00 PM 9.15 48.47 0.258 7.53 3.23 10.41
4/5/2021 8:45:00 PM 8.98 48.164 0.258 7.52 3.3 10.45
4/5/2021 9:00:00 PM 8.83 47.894 0.259 7.51 3.21 10.46
4/5/2021 9:15:00 PM 8.67 47.606 0.259 7.5 3.23 10.5
4/5/2021 9:30:00 PM 8.52 47.336 0.26 7.48 3.23 10.54
4/5/2021 9:45:00 PM 8.37 47.066 0.26 7.49 3.05 10.58
4/5/2021 10:00:00 PM 8.22 46.796 0.26 7.49 3.05 10.61
4/5/2021 10:15:00 PM 8.08 46.544 0.26 7.48 2.95 10.64
4/5/2021 10:30:00 PM 7.95 46.31 0.26 7.48 3.08 10.68
4/5/2021 10:45:00 PM 7.84 46.112 0.26 7.48 3.06 10.71
4/5/2021 11:00:00 PM 7.73 45.914 0.26 7.47 3 10.74
4/5/2021 11:15:00 PM 7.62 45.716 0.26 7.47 2.97 10.76
4/5/2021 11:30:00 PM 7.52 45.536 0.26 7.47 3.03 10.78
4/5/2021 11:45:00 PM 7.43 45.374 0.26 7.46 2.99 10.8
4/6/2021 12:00:00 AM 7.33 45.194 0.259 7.46 2.97 10.82
4/6/2021 12:15:00 AM 7.25 45.05 0.259 7.46 3.06 10.85
4/6/2021 12:30:00 AM 7.17 44.906 0.259 7.46 2.95 10.88
4/6/2021 12:45:00 AM 7.1 44.78 0.259 7.46 3.02 10.9
4/6/2021 1:00:00 AM 7.03 44.654 0.26 7.46 2.98 10.91
4/6/2021 1:15:00 AM 6.98 44.564 0.259 7.46 2.99 10.91
4/6/2021 1:30:00 AM 6.94 44.492 0.259 7.46 2.95 10.93
4/6/2021 1:45:00 AM 6.91 44.438 0.258 7.46 2.96 10.93
4/6/2021 2:00:00 AM 6.88 44.384 0.258 7.46 2.89 10.93
4/6/2021 2:15:00 AM 6.87 44.366 0.258 7.46 2.78 10.93
4/6/2021 2:30:00 AM 6.86 44.348 0.257 7.46 2.84 10.93
4/6/2021 2:45:00 AM 6.85 44.33 0.257 7.45 2.92 10.93
4/6/2021 3:00:00 AM 6.83 44.294 0.257 7.46 2.87 10.92
4/6/2021 3:15:00 AM 6.82 44.276 0.257 7.46 2.89 10.93
4/6/2021 3:30:00 AM 6.8 44.24 0.256 7.46 2.86 10.94
4/6/2021 3:45:00 AM 6.78 44.204 0.257 7.46 2.73 10.95
4/6/2021 4:00:00 AM 6.75 44.15 0.256 7.46 2.89 10.95
4/6/2021 4:15:00 AM 6.72 44.096 0.256 7.46 3.24 10.96
4/6/2021 4:30:00 AM 6.7 44.06 0.256 7.44 2.82 10.97
4/6/2021 4:45:00 AM 6.66 43.988 0.256 7.46 2.97 10.99
4/6/2021 5:00:00 AM 6.63 43.934 0.257 7.46 2.86 10.99
4/6/2021 5:15:00 AM 6.59 43.862 0.257 7.46 2.93 11
4/6/2021 5:30:00 AM 6.55 43.79 0.257 7.46 2.84 11.02
4/6/2021 5:45:00 AM 6.52 43.736 0.257 7.46 2.8 11.03
4/6/2021 6:00:00 AM 6.48 43.664 0.257 7.46 2.84 11.05
4/6/2021 6:15:00 AM 6.44 43.592 0.257 7.46 2.87 11.06
4/6/2021 6:30:00 AM 6.4 43.52 0.257 7.46 2.85 11.07
4/6/2021 6:45:00 AM 6.36 43.448 0.257 7.46 2.95 11.08
4/6/2021 7:00:00 AM 6.33 43.394 0.257 7.47 3.7 11.13
4/6/2021 7:15:00 AM 6.29 43.322 0.257 7.46 2.95 11.17
4/6/2021 7:30:00 AM 6.27 43.286 0.257 7.48 3.66 11.22
4/6/2021 7:45:00 AM 6.27 43.286 0.257 7.49 3.15 11.28
4/6/2021 8:00:00 AM 6.27 43.286 0.257 7.5 2.95 11.34
4/6/2021 8:15:00 AM 6.31 43.358 0.256 7.51 2.91 11.4
4/6/2021 8:30:00 AM 6.35 43.43 0.257 7.52 3.08 11.47
4/6/2021 8:45:00 AM 6.42 43.556 0.257 7.53 3 11.52
4/6/2021 9:00:00 AM 6.51 43.718 0.256 7.55 2.81 11.56
4/6/2021 9:15:00 AM 6.62 43.916 0.256 7.56 2.77 11.6
4/6/2021 9:30:00 AM 6.75 44.15 0.256 7.57 2.82 11.62
4/6/2021 9:45:00 AM 6.91 44.438 0.256 7.59 2.87 11.63
4/6/2021 10:00:00 AM 7.07 44.726 0.256 7.58 2.82 11.65
4/6/2021 10:15:00 AM 7.25 45.05 0.256 7.61 2.85 11.63
4/6/2021 10:30:00 AM 7.44 45.392 0.256 7.63 2.92 11.63
4/6/2021 10:45:00 AM 7.63 45.734 0.255 7.63 2.94 11.61
4/6/2021 11:00:00 AM 7.84 46.112 0.255 7.65 2.8 11.59
4/6/2021 11:15:00 AM 8.08 46.544 0.255 7.66 2.91 11.56
4/6/2021 11:30:00 AM 8.34 47.012 0.255 7.66 2.88 11.52
4/6/2021 11:45:00 AM 8.62 47.516 0.255 7.67 2.82 11.46
4/6/2021 12:00:00 PM 8.91 48.038 0.255 7.68 2.86 11.41
4/6/2021 12:15:00 PM 9.2 48.56 0.255 7.69 3.02 11.35
4/6/2021 12:30:00 PM 9.47 49.046 0.255 7.7 2.88 11.29
4/6/2021 12:45:00 PM 9.76 49.568 0.255 7.7 2.82 11.24
4/6/2021 1:00:00 PM 10.04 50.072 0.255 7.71 2.89 11.16
4/6/2021 1:15:00 PM 10.31 50.558 0.255 7.71 2.89 11.11
4/6/2021 1:30:00 PM 10.57 51.026 0.255 7.72 2.8 11.05
4/6/2021 1:45:00 PM 10.8 51.44 0.255 7.73 2.78 10.99
4/6/2021 2:00:00 PM 11.05 51.89 0.254 7.74 2.79 10.95
4/6/2021 2:15:00 PM 11.23 52.214 0.254 7.74 2.93 10.9
4/6/2021 2:30:00 PM 11.38 52.484 0.254 7.75 2.85 10.83
4/6/2021 2:45:00 PM 11.51 52.718 0.255 7.75 3 10.79
4/6/2021 3:00:00 PM 11.64 52.952 0.254 7.75 2.94 10.74
4/6/2021 3:15:00 PM 11.72 53.096 0.254 7.76 2.83 10.7
4/6/2021 3:30:00 PM 11.79 53.222 0.255 7.76 2.86 10.64
4/6/2021 3:45:00 PM 11.93 53.474 0.255 7.76 2.8 10.6
4/6/2021 4:00:00 PM 12.03 53.654 0.255 7.76 2.88 10.56
4/6/2021 4:15:00 PM 12.07 53.726 0.255 7.73 2.77 10.51
4/6/2021 4:30:00 PM 12.08 53.744 0.255 7.75 2.84 10.45
4/6/2021 4:45:00 PM 12.09 53.762 0.254 7.74 2.83 10.43
4/6/2021 5:00:00 PM 12.06 53.708 0.254 7.74 2.79 10.4
4/6/2021 5:15:00 PM 12.01 53.618 0.255 7.73 2.81 10.36
4/6/2021 5:30:00 PM 11.92 53.456 0.255 7.72 2.88 10.34
4/6/2021 5:45:00 PM 11.83 53.294 0.256 7.71 2.83 10.31
4/6/2021 6:00:00 PM 11.72 53.096 0.256 7.7 2.72 10.28
4/6/2021 6:15:00 PM 11.58 52.844 0.256 7.67 2.78 10.25
4/6/2021 6:30:00 PM 11.42 52.556 0.255 7.66 2.7 10.21
4/6/2021 6:45:00 PM 11.28 52.304 0.256 7.64 2.81 10.15
4/6/2021 7:00:00 PM 11.11 51.998 0.256 7.62 2.79 10.13
4/6/2021 7:15:00 PM 10.96 51.728 0.257 7.6 2.8 10.1
4/6/2021 7:30:00 PM 10.8 51.44 0.257 7.58 2.86 10.07
4/6/2021 7:45:00 PM 10.64 51.152 0.258 7.56 2.97 10.05
4/6/2021 8:00:00 PM 10.47 50.846 0.258 7.54 2.9 10.05
4/6/2021 8:15:00 PM 10.3 50.54 0.258 7.53 2.84 10.06
4/6/2021 8:30:00 PM 10.14 50.252 0.258 7.52 2.96 10.07
4/6/2021 8:45:00 PM 9.98 49.964 0.258 7.51 2.83 10.09
4/6/2021 9:00:00 PM 9.83 49.694 0.258 7.5 2.88 10.13
4/6/2021 9:15:00 PM 9.68 49.424 0.259 7.49 2.88 10.16
4/6/2021 9:30:00 PM 9.53 49.154 0.259 7.49 2.91 10.18
4/6/2021 9:45:00 PM 9.36 48.848 0.26 7.48 2.86 10.22
4/6/2021 10:00:00 PM 9.21 48.578 0.259 7.48 2.91 10.27
4/6/2021 10:15:00 PM 9.06 48.308 0.26 7.48 2.96 10.32
4/6/2021 10:30:00 PM 8.92 48.056 0.259 7.47 2.89 10.35
4/6/2021 10:45:00 PM 8.78 47.804 0.259 7.47 2.95 10.38
4/6/2021 11:00:00 PM 8.65 47.57 0.26 7.47 2.87 10.43
4/6/2021 11:15:00 PM 8.52 47.336 0.26 7.45 2.93 10.46
4/6/2021 11:30:00 PM 8.41 47.138 0.26 7.47 2.91 10.51
4/6/2021 11:45:00 PM 8.32 46.976 0.26 7.47 3.29 10.53
4/7/2021 12:00:00 AM 8.26 46.868 0.259 7.46 2.92 10.54
4/7/2021 12:15:00 AM 8.2 46.76 0.259 7.46 2.87 10.56
4/7/2021 12:30:00 AM 8.16 46.688 0.259 7.47 2.91 10.58
4/7/2021 12:45:00 AM 8.12 46.616 0.259 7.46 2.95 10.58
4/7/2021 1:00:00 AM 8.09 46.562 0.259 7.46 2.98 10.59
4/7/2021 1:15:00 AM 8.07 46.526 0.259 7.46 2.83 10.59
4/7/2021 1:30:00 AM 8.05 46.49 0.259 7.46 2.83 10.61
4/7/2021 1:45:00 AM 8.04 46.472 0.259 7.46 2.86 10.61
4/7/2021 2:00:00 AM 8.04 46.472 0.258 7.46 2.81 10.61
4/7/2021 2:15:00 AM 8.03 46.454 0.259 7.45 2.84 10.61
4/7/2021 2:30:00 AM 8.03 46.454 0.258 7.45 2.81 10.61
4/7/2021 2:45:00 AM 8.04 46.472 0.258 7.46 2.86 10.61
4/7/2021 3:00:00 AM 8.04 46.472 0.258 7.46 2.79 10.61
4/7/2021 3:15:00 AM 8.04 46.472 0.257 7.45 2.83 10.6
4/7/2021 3:30:00 AM 8.05 46.49 0.258 7.45 2.83 10.61
4/7/2021 3:45:00 AM 8.06 46.508 0.258 7.45 7.1 10.6
4/7/2021 4:00:00 AM 8.06 46.508 0.258 7.45 2.83 10.6
4/7/2021 4:15:00 AM 8.08 46.544 0.258 7.45 2.77 10.59
4/7/2021 4:30:00 AM 8.09 46.562 0.258 7.45 2.59 10.59
4/7/2021 4:45:00 AM 8.11 46.598 0.258 7.46 2.71 10.59
4/7/2021 5:00:00 AM 8.13 46.634 0.257 7.45 2.73 10.59
4/7/2021 5:15:00 AM 8.14 46.652 0.256 7.45 2.72 10.58
4/7/2021 5:30:00 AM 8.15 46.67 0.256 7.45 2.74 10.57
4/7/2021 5:45:00 AM 8.18 46.724 0.257 7.44 2.83 10.57
4/7/2021 6:00:00 AM 8.18 46.724 0.257 7.44 2.64 10.57
4/7/2021 6:15:00 AM 8.19 46.742 0.257 7.45 2.68 10.57
4/7/2021 6:30:00 AM 8.2 46.76 0.257 7.45 2.82 10.57
4/7/2021 6:45:00 AM 8.21 46.778 0.257 7.45 2.95 10.57
4/7/2021 7:00:00 AM 8.23 46.814 0.257 7.46 3.29 10.57
4/7/2021 7:15:00 AM 8.24 46.832 0.257 7.46 2.71 10.59
4/7/2021 7:30:00 AM 8.27 46.886 0.257 7.47 2.71 10.65
4/7/2021 7:45:00 AM 8.28 46.904 0.257 7.48 2.74 10.68
4/7/2021 8:00:00 AM 8.31 46.958 0.257 7.49 4.46 10.73
4/7/2021 8:15:00 AM 8.37 47.066 0.257 7.49 3.22 10.81
4/7/2021 8:30:00 AM 8.43 47.174 0.257 7.52 2.7 10.88
4/7/2021 8:45:00 AM 8.48 47.264 0.257 7.53 2.75 10.92
4/7/2021 9:00:00 AM 8.51 47.318 0.256 7.54 2.72 10.94
4/7/2021 9:15:00 AM 8.57 47.426 0.256 7.55 2.72 10.97
4/7/2021 9:30:00 AM 8.66 47.588 0.256 7.57 2.74 11.02
4/7/2021 9:45:00 AM 8.75 47.75 0.256 7.58 2.69 11.05
4/7/2021 10:00:00 AM 8.83 47.894 0.256 7.6 2.67 11.09
4/7/2021 10:15:00 AM 8.95 48.11 0.256 7.62 2.69 11.13
4/7/2021 10:30:00 AM 9.09 48.362 0.256 7.62 2.61 11.16
4/7/2021 10:45:00 AM 9.27 48.686 0.256 7.65 2.67 11.18
4/7/2021 11:00:00 AM 9.45 49.01 0.256 7.67 2.92 11.18
4/7/2021 11:15:00 AM 9.57 49.226 0.256 7.68 2.67 11.18
4/7/2021 11:30:00 AM 9.7 49.46 0.256 7.7 2.9 11.18
4/7/2021 11:45:00 AM 9.79 49.622 0.256 7.7 2.65 11.15
4/7/2021 12:00:00 PM 9.97 49.946 0.256 7.71 2.65 11.14
4/7/2021 12:15:00 PM 10.15 50.27 0.256 7.72 2.65 11.11
4/7/2021 12:30:00 PM 10.38 50.684 0.256 7.73 2.67 11.08
4/7/2021 12:45:00 PM 10.69 51.242 0.256 7.73 2.71 11.02
4/7/2021 1:00:00 PM 11.03 51.854 0.256 7.74 2.74 10.99
4/7/2021 1:15:00 PM 11.27 52.286 0.256 7.74 2.64 10.91
4/7/2021 1:30:00 PM 11.5 52.7 0.256 7.75 2.69 10.84
4/7/2021 1:45:00 PM 11.78 53.204 0.256 7.75 2.77 10.78
4/7/2021 2:00:00 PM 12.04 53.672 0.256 7.74 2.59 10.72
4/7/2021 2:15:00 PM 12.29 54.122 0.255 7.75 2.63 10.68
4/7/2021 2:30:00 PM 12.53 54.554 0.255 7.75 2.61 10.6
4/7/2021 2:45:00 PM 12.72 54.896 0.255 7.76 2.6 10.52
4/7/2021 3:00:00 PM 12.89 55.202 0.256 7.74 2.45 10.47
4/7/2021 3:15:00 PM 13.03 55.454 0.256 7.75 2.52 10.41
4/7/2021 3:30:00 PM 13.16 55.688 0.256 7.75 2.51 10.35
4/7/2021 3:45:00 PM 13.25 55.85 0.256 7.75 2.57 10.31
4/7/2021 4:00:00 PM 13.33 55.994 0.256 7.73 2.44 10.25
4/7/2021 4:15:00 PM 13.39 56.102 0.256 7.75 2.67 10.22
4/7/2021 4:30:00 PM 13.42 56.156 0.255 7.75 2.47 10.18
4/7/2021 4:45:00 PM 13.43 56.174 0.256 7.74 2.55 10.14
4/7/2021 5:00:00 PM 13.44 56.192 0.256 7.74 2.46 10.09
4/7/2021 5:15:00 PM 13.43 56.174 0.257 7.73 2.58 10.04
4/7/2021 5:30:00 PM 13.39 56.102 0.257 7.7 2.56 9.99
4/7/2021 5:45:00 PM 13.33 55.994 0.257 7.7 2.51 9.94
4/7/2021 6:00:00 PM 13.25 55.85 0.257 7.69 2.55 9.89
4/7/2021 6:15:00 PM 13.18 55.724 0.257 7.66 2.47 9.84
4/7/2021 6:30:00 PM 13.09 55.562 0.257 7.66 2.59 9.8
4/7/2021 6:45:00 PM 12.98 55.364 0.257 7.63 2.62 9.75
4/7/2021 7:00:00 PM 12.87 55.166 0.258 7.61 2.58 9.68
4/7/2021 7:15:00 PM 12.76 54.968 0.258 7.59 2.55 9.62
4/7/2021 7:30:00 PM 12.65 54.77 0.259 7.57 2.68 9.58
4/7/2021 7:45:00 PM 12.53 54.554 0.259 7.54 2.66 9.56
4/7/2021 8:00:00 PM 12.4 54.32 0.258 7.53 2.61 9.55
4/7/2021 8:15:00 PM 12.27 54.086 0.258 7.51 2.65 9.52
4/7/2021 8:30:00 PM 12.13 53.834 0.259 7.5 2.58 9.53
4/7/2021 8:45:00 PM 11.99 53.582 0.259 7.49 2.55 9.53
4/7/2021 9:00:00 PM 11.84 53.312 0.259 7.48 2.65 9.56
4/7/2021 9:15:00 PM 11.69 53.042 0.26 7.48 2.58 9.6
4/7/2021 9:30:00 PM 11.55 52.79 0.26 7.48 2.58 9.63
4/7/2021 9:45:00 PM 11.39 52.502 0.261 7.47 2.62 9.65
4/7/2021 10:00:00 PM 11.24 52.232 0.26 7.47 2.53 9.68
4/7/2021 10:15:00 PM 11.1 51.98 0.26 7.46 2.58 9.72
4/7/2021 10:30:00 PM 10.96 51.728 0.26 7.46 2.56 9.77
4/7/2021 10:45:00 PM 10.84 51.512 0.26 7.47 2.44 9.81
4/7/2021 11:00:00 PM 10.74 51.332 0.26 7.46 2.4 9.81
4/7/2021 11:15:00 PM 10.67 51.206 0.26 7.46 2.46 9.81
4/7/2021 11:30:00 PM 10.63 51.134 0.261 7.45 2.41 9.83
4/7/2021 11:45:00 PM 10.6 51.08 0.261 7.46 2.44 9.84
4/8/2021 12:00:00 AM 10.57 51.026 0.26 7.45 2.45 9.84
4/8/2021 12:15:00 AM 10.54 50.972 0.26 7.45 2.4 9.85
4/8/2021 12:30:00 AM 10.5 50.9 0.26 7.45 2.44 9.85
4/8/2021 12:45:00 AM 10.46 50.828 0.26 7.45 2.43 9.88
4/8/2021 1:00:00 AM 10.41 50.738 0.26 7.45 2.37 9.88
4/8/2021 1:15:00 AM 10.35 50.63 0.26 7.45 2.47 9.91
4/8/2021 1:30:00 AM 10.29 50.522 0.26 7.45 2.6 9.92
4/8/2021 1:45:00 AM 10.23 50.414 0.26 7.45 2.62 9.93
4/8/2021 2:00:00 AM 10.16 50.288 0.26 7.45 5.52 9.96
4/8/2021 2:15:00 AM 10.1 50.18 0.259 7.45 2.53 9.96
4/8/2021 2:30:00 AM 10.04 50.072 0.259 7.43 2.52 9.98
4/8/2021 2:45:00 AM 9.98 49.964 0.259 7.44 2.6 10
4/8/2021 3:00:00 AM 9.92 49.856 0.26 7.44 2.53 10.02
4/8/2021 3:15:00 AM 9.87 49.766 0.259 7.44 2.57 10.04
4/8/2021 3:30:00 AM 9.82 49.676 0.259 7.45 2.72 10.07
4/8/2021 3:45:00 AM 9.76 49.568 0.259 7.44 2.77 10.08
4/8/2021 4:00:00 AM 9.7 49.46 0.259 7.45 2.57 10.1
4/8/2021 4:15:00 AM 9.65 49.37 0.259 7.45 2.59 10.12
4/8/2021 4:30:00 AM 9.58 49.244 0.259 7.43 2.95 10.13
4/8/2021 4:45:00 AM 9.53 49.154 0.259 7.44 3.16 10.15
4/8/2021 5:00:00 AM 9.46 49.028 0.259 7.44 3.02 10.17
4/8/2021 5:15:00 AM 9.4 48.92 0.26 7.45 3.13 10.19
4/8/2021 5:30:00 AM 9.33 48.794 0.259 7.44 3.17 10.21
4/8/2021 5:45:00 AM 9.27 48.686 0.26 7.44 3.18 10.24
4/8/2021 6:00:00 AM 9.21 48.578 0.26 7.44 2.82 10.25
4/8/2021 6:15:00 AM 9.14 48.452 0.259 7.44 2.85 10.28
4/8/2021 6:30:00 AM 9.08 48.344 0.259 7.43 2.92 10.3
4/8/2021 6:45:00 AM 9.02 48.236 0.259 7.45 3.08 10.33
4/8/2021 7:00:00 AM 8.97 48.146 0.26 7.45 3.05 10.37
4/8/2021 7:15:00 AM 8.93 48.074 0.259 7.46 2.98 10.41
4/8/2021 7:30:00 AM 8.9 48.02 0.259 7.45 2.67 10.47
4/8/2021 7:45:00 AM 8.89 48.002 0.259 7.48 3.14 10.54
4/8/2021 8:00:00 AM 8.91 48.038 0.258 7.49 3.44 10.6
4/8/2021 8:15:00 AM 8.95 48.11 0.258 7.5 2.65 10.67
4/8/2021 8:30:00 AM 9.01 48.218 0.259 7.52 2.62 10.73
4/8/2021 8:45:00 AM 9.09 48.362 0.259 7.53 2.77 10.78
4/8/2021 9:00:00 AM 9.2 48.56 0.259 7.53 2.79 10.82
4/8/2021 9:15:00 AM 9.33 48.794 0.259 7.57 3.05 10.86
4/8/2021 9:30:00 AM 9.48 49.064 0.259 7.57 2.87 10.87
4/8/2021 9:45:00 AM 9.64 49.352 0.259 7.6 2.84 10.91
4/8/2021 10:00:00 AM 9.81 49.658 0.259 7.61 3 10.91
4/8/2021 10:15:00 AM 10 50 0.259 7.63 2.84 10.91
4/8/2021 10:30:00 AM 10.19 50.342 0.259 7.64 2.98 10.9
4/8/2021 10:45:00 AM 10.39 50.702 0.259 7.64 2.76 10.9
4/8/2021 11:00:00 AM 10.59 51.062 0.259 7.66 2.74 10.87
4/8/2021 11:15:00 AM 10.83 51.494 0.259 7.68 2.82 10.84
4/8/2021 11:30:00 AM 11.09 51.962 0.259 7.68 2.92 10.81
4/8/2021 11:45:00 AM 11.37 52.466 0.259 7.69 2.77 10.77
4/8/2021 12:00:00 PM 11.67 53.006 0.259 7.68 2.92 10.72
4/8/2021 12:15:00 PM 11.97 53.546 0.259 7.71 2.85 10.67
4/8/2021 12:30:00 PM 12.27 54.086 0.258 7.7 2.8 10.63
4/8/2021 12:45:00 PM 12.57 54.626 0.259 7.71 2.89 10.56
4/8/2021 1:00:00 PM 12.89 55.202 0.259 7.73 2.89 10.51
4/8/2021 1:15:00 PM 13.18 55.724 0.259 7.73 2.97 10.44
4/8/2021 1:30:00 PM 13.45 56.21 0.258 7.74 2.89 10.38
4/8/2021 1:45:00 PM 13.72 56.696 0.259 7.74 2.99 10.32
4/8/2021 2:00:00 PM 13.98 57.164 0.258 7.75 2.84 10.26
4/8/2021 2:15:00 PM 14.21 57.578 0.258 7.75 2.79 10.21
4/8/2021 2:30:00 PM 14.42 57.956 0.258 7.76 2.78 10.14
4/8/2021 2:45:00 PM 14.62 58.316 0.258 7.76 2.77 10.09
4/8/2021 3:00:00 PM 14.78 58.604 0.258 7.76 2.9 10.04
4/8/2021 3:15:00 PM 14.94 58.892 0.259 7.77 2.8 10
4/8/2021 3:30:00 PM 15.05 59.09 0.258 7.76 2.92 9.94
4/8/2021 3:45:00 PM 15.13 59.234 0.258 7.76 2.72 9.87
4/8/2021 4:00:00 PM 15.2 59.36 0.258 7.76 2.67 9.82
4/8/2021 4:15:00 PM 15.25 59.45 0.259 7.75 2.66 9.76
4/8/2021 4:30:00 PM 15.27 59.486 0.26 7.73 3.12 9.72
4/8/2021 4:45:00 PM 15.27 59.486 0.259 7.75 2.74 9.69
4/8/2021 5:00:00 PM 15.26 59.468 0.259 7.74 2.76 9.64
4/8/2021 5:15:00 PM 15.23 59.414 0.259 7.73 2.7 9.61
4/8/2021 5:30:00 PM 15.17 59.306 0.259 7.71 2.79 9.57
4/8/2021 5:45:00 PM 15.1 59.18 0.259 7.7 2.77 9.53
4/8/2021 6:00:00 PM 15.02 59.036 0.259 7.69 2.75 9.49
4/8/2021 6:15:00 PM 14.91 58.838 0.26 7.68 2.78 9.47
4/8/2021 6:30:00 PM 14.8 58.64 0.26 7.66 2.77 9.41
4/8/2021 6:45:00 PM 14.68 58.424 0.261 7.64 2.96 9.34
4/8/2021 7:00:00 PM 14.56 58.208 0.261 7.62 2.88 9.29
4/8/2021 7:15:00 PM 14.43 57.974 0.26 7.59 2.88 9.24
4/8/2021 7:30:00 PM 14.3 57.74 0.26 7.58 2.72 9.2
4/8/2021 7:45:00 PM 14.16 57.488 0.261 7.56 2.8 9.17
4/8/2021 8:00:00 PM 14.03 57.254 0.261 7.54 2.83 9.14
4/8/2021 8:15:00 PM 13.89 57.002 0.261 7.52 2.85 9.13
4/8/2021 8:30:00 PM 13.74 56.732 0.261 7.51 2.82 9.14
4/8/2021 8:45:00 PM 13.6 56.48 0.262 7.5 2.99 9.14
4/8/2021 9:00:00 PM 13.45 56.21 0.262 7.49 2.98 9.16
4/8/2021 9:15:00 PM 13.3 55.94 0.261 7.47 2.85 9.17
4/8/2021 9:30:00 PM 13.15 55.67 0.262 7.48 2.94 9.22
4/8/2021 9:45:00 PM 13 55.4 0.262 7.48 2.88 9.25
4/8/2021 10:00:00 PM 12.85 55.13 0.262 7.47 2.84 9.28
4/8/2021 10:15:00 PM 12.7 54.86 0.261 7.48 2.88 9.32
4/8/2021 10:30:00 PM 12.55 54.59 0.261 7.47 2.84 9.36
4/8/2021 10:45:00 PM 12.4 54.32 0.261 7.47 2.84 9.4
4/8/2021 11:00:00 PM 12.26 54.068 0.262 7.46 2.84 9.43
4/8/2021 11:15:00 PM 12.14 53.852 0.262 7.47 2.91 9.46
4/8/2021 11:30:00 PM 12.01 53.618 0.261 7.47 2.8 9.49
4/8/2021 11:45:00 PM 11.89 53.402 0.261 7.47 2.79 9.53
4/9/2021 12:00:00 AM 11.76 53.168 0.261 7.47 2.9 9.58
4/9/2021 12:15:00 AM 11.63 52.934 0.261 7.47 3.04 9.63
4/9/2021 12:30:00 AM 11.5 52.7 0.261 7.47 2.95 9.66
4/9/2021 12:45:00 AM 11.38 52.484 0.26 7.47 2.81 9.67
4/9/2021 1:00:00 AM 11.26 52.268 0.26 7.47 2.8 9.73
4/9/2021 1:15:00 AM 11.14 52.052 0.26 7.45 2.51 9.76
4/9/2021 1:30:00 AM 11.04 51.872 0.26 7.47 2.37 9.78
4/9/2021 1:45:00 AM 10.93 51.674 0.26 7.45 2.29 9.83
4/9/2021 2:00:00 AM 10.84 51.512 0.26 7.47 2.39 9.86
4/9/2021 2:15:00 AM 10.75 51.35 0.26 7.47 2.37 9.86
4/9/2021 2:30:00 AM 10.67 51.206 0.26 7.47 2.36 9.89
4/9/2021 2:45:00 AM 10.6 51.08 0.26 7.47 2.32 9.91
4/9/2021 3:00:00 AM 10.52 50.936 0.26 7.47 2.37 9.93
4/9/2021 3:15:00 AM 10.45 50.81 0.26 7.47 2.33 9.96
4/9/2021 3:30:00 AM 10.39 50.702 0.26 7.47 2.72 9.97
4/9/2021 3:45:00 AM 10.33 50.594 0.26 7.47 2.29 10
4/9/2021 4:00:00 AM 10.27 50.486 0.259 7.47 2.36 10.01
4/9/2021 4:15:00 AM 10.23 50.414 0.26 7.47 2.31 10.03
4/9/2021 4:30:00 AM 10.19 50.342 0.26 7.47 2.31 10.03
4/9/2021 4:45:00 AM 10.17 50.306 0.259 7.47 2.41 10.03
4/9/2021 5:00:00 AM 10.15 50.27 0.26 7.47 2.32 10.04
4/9/2021 5:15:00 AM 10.15 50.27 0.26 7.47 2.34 10.04
4/9/2021 5:30:00 AM 10.14 50.252 0.261 7.47 2.37 10.05
4/9/2021 5:45:00 AM 10.13 50.234 0.261 7.47 2.36 10.05
4/9/2021 6:00:00 AM 10.13 50.234 0.261 7.47 2.29 10.04
4/9/2021 6:15:00 AM 10.12 50.216 0.261 7.47 2.35 10.05
4/9/2021 6:30:00 AM 10.11 50.198 0.261 7.47 2.37 10.06
4/9/2021 6:45:00 AM 10.1 50.18 0.262 7.47 2.39 10.06
4/9/2021 7:00:00 AM 10.08 50.144 0.262 7.47 2.43 10.08
4/9/2021 7:15:00 AM 10.07 50.126 0.262 7.48 2.31 10.12
4/9/2021 7:30:00 AM 10.06 50.108 0.262 7.49 2.37 10.16
4/9/2021 7:45:00 AM 10.06 50.108 0.262 7.5 2.46 10.23
4/9/2021 8:00:00 AM 10.08 50.144 0.262 7.51 2.35 10.29
4/9/2021 8:15:00 AM 10.15 50.27 0.262 7.53 2.3 10.38
4/9/2021 8:30:00 AM 10.23 50.414 0.262 7.55 2.34 10.47
4/9/2021 8:45:00 AM 10.3 50.54 0.262 7.57 2.35 10.54
4/9/2021 9:00:00 AM 10.4 50.72 0.261 7.59 2.3 10.6
4/9/2021 9:15:00 AM 10.51 50.918 0.262 7.61 2.39 10.66
4/9/2021 9:30:00 AM 10.65 51.17 0.262 7.63 2.31 10.69
4/9/2021 9:45:00 AM 10.67 51.206 0.262 7.65 2.34 10.7
4/9/2021 10:00:00 AM 10.8 51.44 0.262 7.65 2.28 10.74
4/9/2021 10:15:00 AM 10.91 51.638 0.262 7.68 2.36 10.77
4/9/2021 10:30:00 AM 10.97 51.746 0.262 7.69 2.33 10.8
4/9/2021 10:45:00 AM 11.03 51.854 0.262 7.7 2.33 10.79
4/9/2021 11:00:00 AM 11.03 51.854 0.263 7.7 2.58 10.73
4/9/2021 11:15:00 AM 11.04 51.872 0.263 7.71 2.54 10.7
4/9/2021 11:30:00 AM 11.07 51.926 0.263 7.7 2.34 10.66
4/9/2021 11:45:00 AM 11.11 51.998 0.264 7.71 2.45 10.65
4/9/2021 12:00:00 PM 11.2 52.16 0.264 7.69 2.39 10.64
4/9/2021 12:15:00 PM 11.24 52.232 0.264 7.71 2.3 10.63
4/9/2021 12:30:00 PM 11.34 52.412 0.264 7.72 2.3 10.63
4/9/2021 12:45:00 PM 11.42 52.556 0.264 7.73 2.34 10.64
4/9/2021 1:00:00 PM 11.49 52.682 0.265 7.73 2.31 10.64
4/9/2021 1:15:00 PM 11.54 52.772 0.265 7.75 2.24 10.63
4/9/2021 1:30:00 PM 11.58 52.844 0.266 7.75 2.49 10.61
4/9/2021 1:45:00 PM 11.62 52.916 0.266 7.76 2.3 10.59
4/9/2021 2:00:00 PM 11.64 52.952 0.266 7.74 2.3 10.53
4/9/2021 2:15:00 PM 11.68 53.024 0.266 7.74 2.4 10.52
4/9/2021 2:30:00 PM 11.77 53.186 0.266 7.75 2.24 10.54
4/9/2021 2:45:00 PM 11.83 53.294 0.266 7.75 2.33 10.51
4/9/2021 3:00:00 PM 11.92 53.456 0.266 7.76 2.36 10.51
4/9/2021 3:15:00 PM 11.98 53.564 0.266 7.77 2.24 10.5
4/9/2021 3:30:00 PM 12.01 53.618 0.266 7.77 2.27 10.45
4/9/2021 3:45:00 PM 12.03 53.654 0.267 7.76 2.5 10.43
4/9/2021 4:00:00 PM 12.05 53.69 0.267 7.75 2.24 10.39
4/9/2021 4:15:00 PM 12.09 53.762 0.268 7.75 2.22 10.38
4/9/2021 4:30:00 PM 12.11 53.798 0.268 7.73 2.29 10.36
4/9/2021 4:45:00 PM 12.12 53.816 0.268 7.74 2.28 10.32
4/9/2021 5:00:00 PM 12.12 53.816 0.269 7.73 2.23 10.27
4/9/2021 5:15:00 PM 12.11 53.798 0.269 7.7 2.23 10.21
4/9/2021 5:30:00 PM 12.12 53.816 0.269 7.7 2.23 10.18
4/9/2021 5:45:00 PM 12.15 53.87 0.27 7.7 2.24 10.19
4/9/2021 6:00:00 PM 12.14 53.852 0.27 7.68 2.3 10.15
4/9/2021 6:15:00 PM 12.11 53.798 0.271 7.67 2.25 10.09
4/9/2021 6:30:00 PM 12.09 53.762 0.271 7.66 2.32 10.03
4/9/2021 6:45:00 PM 12.07 53.726 0.271 7.64 2.21 9.98
4/9/2021 7:00:00 PM 12.05 53.69 0.272 7.61 2.31 9.92
4/9/2021 7:15:00 PM 12.03 53.654 0.273 7.6 2.34 9.87
4/9/2021 7:30:00 PM 11.99 53.582 0.273 7.59 2.29 9.82
4/9/2021 7:45:00 PM 11.96 53.528 0.273 7.56 2.29 9.78
4/9/2021 8:00:00 PM 11.92 53.456 0.273 7.56 2.33 9.75
4/9/2021 8:15:00 PM 11.88 53.384 0.274 7.55 2.38 9.73
4/9/2021 8:30:00 PM 11.83 53.294 0.274 7.53 2.43 9.69
4/9/2021 8:45:00 PM 11.79 53.222 0.274 7.53 2.3 9.69
4/9/2021 9:00:00 PM 11.75 53.15 0.273 7.5 2.36 9.68
4/9/2021 9:15:00 PM 11.71 53.078 0.273 7.51 2.27 9.69
4/9/2021 9:30:00 PM 11.67 53.006 0.273 7.49 2.28 9.67
4/9/2021 9:45:00 PM 11.64 52.952 0.273 7.5 2.32 9.69
4/9/2021 10:00:00 PM 11.61 52.898 0.274 7.5 2.33 9.69
4/9/2021 10:15:00 PM 11.59 52.862 0.274 7.49 2.33 9.68
4/9/2021 10:30:00 PM 11.57 52.826 0.274 7.49 2.31 9.68
4/9/2021 10:45:00 PM 11.55 52.79 0.274 7.49 2.33 9.68
4/9/2021 11:00:00 PM 11.54 52.772 0.273 7.48 2.24 9.69
4/9/2021 11:15:00 PM 11.52 52.736 0.273 7.48 2.29 9.68
4/9/2021 11:30:00 PM 11.5 52.7 0.273 7.48 2.31 9.68
4/9/2021 11:45:00 PM 11.48 52.664 0.273 7.48 2.36 9.7
4/10/2021 12:00:00 AM 11.46 52.628 0.272 7.47 2.37 9.7
4/10/2021 12:15:00 AM 11.44 52.592 0.273 7.49 2.27 9.7
4/10/2021 12:30:00 AM 11.43 52.574 0.273 7.48 2.22 9.7
4/10/2021 12:45:00 AM 11.41 52.538 0.272 7.48 2.29 9.7
4/10/2021 1:00:00 AM 11.4 52.52 0.273 7.49 2.27 9.72
4/10/2021 1:15:00 AM 11.38 52.484 0.272 7.47 2.25 9.72
4/10/2021 1:30:00 AM 11.36 52.448 0.272 7.49 2.25 9.73
4/10/2021 1:45:00 AM 11.35 52.43 0.272 7.48 2.26 9.72
4/10/2021 2:00:00 AM 11.33 52.394 0.273 7.48 2.25 9.72
4/10/2021 2:15:00 AM 11.32 52.376 0.273 7.48 2.31 9.72
4/10/2021 2:30:00 AM 11.3 52.34 0.273 7.48 2.27 9.74
4/10/2021 2:45:00 AM 11.29 52.322 0.272 7.48 2.21 9.75
4/10/2021 3:00:00 AM 11.27 52.286 0.272 7.48 2.3 9.74
4/10/2021 3:15:00 AM 11.24 52.232 0.271 7.48 2.22 9.74
4/10/2021 3:30:00 AM 11.22 52.196 0.271 7.48 2.28 9.77
4/10/2021 3:45:00 AM 11.19 52.142 0.271 7.47 2.25 9.77
4/10/2021 4:00:00 AM 11.17 52.106 0.27 7.48 2.22 9.79
4/10/2021 4:15:00 AM 11.14 52.052 0.27 7.48 2.29 9.8
4/10/2021 4:30:00 AM 11.11 51.998 0.271 7.48 2.26 9.79
4/10/2021 4:45:00 AM 11.09 51.962 0.27 7.48 2.31 9.8
4/10/2021 5:00:00 AM 11.06 51.908 0.27 7.48 2.28 9.8
4/10/2021 5:15:00 AM 11.04 51.872 0.27 7.48 2.27 9.81
4/10/2021 5:30:00 AM 11.02 51.836 0.27 7.48 2.26 9.81
4/10/2021 5:45:00 AM 11 51.8 0.27 7.48 2.34 9.83
4/10/2021 6:00:00 AM 10.98 51.764 0.27 7.48 2.28 9.84
4/10/2021 6:15:00 AM 10.96 51.728 0.27 7.48 2.22 9.84
4/10/2021 6:30:00 AM 10.94 51.692 0.27 7.46 2.31 9.84
4/10/2021 6:45:00 AM 10.92 51.656 0.269 7.48 2.37 9.85
4/10/2021 7:00:00 AM 10.91 51.638 0.27 7.47 2.34 9.88
4/10/2021 7:15:00 AM 10.9 51.62 0.27 7.48 2.3 9.9
4/10/2021 7:30:00 AM 10.89 51.602 0.269 7.49 2.26 9.94
4/10/2021 7:45:00 AM 10.89 51.602 0.269 7.5 2.29 9.96
4/10/2021 8:00:00 AM 10.9 51.62 0.269 7.51 2.33 10.02
4/10/2021 8:15:00 AM 10.92 51.656 0.269 7.52 2.35 10.07
4/10/2021 8:30:00 AM 10.96 51.728 0.269 7.53 2.29 10.16
4/10/2021 8:45:00 AM 10.99 51.782 0.269 7.55 2.4 10.21
4/10/2021 9:00:00 AM 11.05 51.89 0.269 7.57 2.22 10.29
4/10/2021 9:15:00 AM 11.12 52.016 0.269 7.59 2.23 10.36
4/10/2021 9:30:00 AM 11.18 52.124 0.269 7.61 2.38 10.42
4/10/2021 9:45:00 AM 11.24 52.232 0.269 7.62 2.31 10.46
4/10/2021 10:00:00 AM 11.3 52.34 0.269 7.65 2.24 10.48
4/10/2021 10:15:00 AM 11.36 52.448 0.269 7.64 2.22 10.51
4/10/2021 10:30:00 AM 11.45 52.61 0.269 7.68 2.26 10.55
4/10/2021 10:45:00 AM 11.52 52.736 0.269 7.7 2.33 10.58
4/10/2021 11:00:00 AM 11.62 52.916 0.269 7.71 2.72 10.6
4/10/2021 11:15:00 AM 11.72 53.096 0.268 7.73 2.61 10.61
4/10/2021 11:30:00 AM 11.86 53.348 0.268 7.74 2.93 10.62
4/10/2021 11:45:00 AM 12 53.6 0.269 7.77 2.64 10.63
4/10/2021 12:00:00 PM 12.24 54.032 0.268 7.76 2.73 10.65
4/10/2021 12:15:00 PM 12.44 54.392 0.268 7.8 3.04 10.64
4/10/2021 12:30:00 PM 12.79 55.022 0.267 7.79 2.81 10.59
4/10/2021 12:45:00 PM 13.06 55.508 0.268 7.81 2.58 10.55
4/10/2021 1:00:00 PM 13.3 55.94 0.268 7.82 2.67 10.5
4/10/2021 1:15:00 PM 13.58 56.444 0.267 7.83 2.57 10.48
4/10/2021 1:30:00 PM 13.83 56.894 0.268 7.84 2.59 10.43
4/10/2021 1:45:00 PM 14.06 57.308 0.268 7.85 2.89 10.39
4/10/2021 2:00:00 PM 14.26 57.668 0.268 7.87 2.41 10.34
4/10/2021 2:15:00 PM 14.46 58.028 0.268 7.89 2.41 10.31
4/10/2021 2:30:00 PM 14.62 58.316 0.268 7.9 2.41 10.25
4/10/2021 2:45:00 PM 14.77 58.586 0.268 7.88 2.39 10.24
4/10/2021 3:00:00 PM 14.92 58.856 0.268 7.91 2.41 10.19
4/10/2021 3:15:00 PM 15.05 59.09 0.268 7.93 2.42 10.15
4/10/2021 3:30:00 PM 15.16 59.288 0.268 7.91 2.38 10.11
4/10/2021 3:45:00 PM 15.25 59.45 0.268 7.93 2.33 10.07
4/10/2021 4:00:00 PM 15.3 59.54 0.268 7.93 2.46 10.01
4/10/2021 4:15:00 PM 15.35 59.63 0.268 7.95 2.44 9.97
4/10/2021 4:30:00 PM 15.39 59.702 0.268 7.93 2.49 9.94
4/10/2021 4:45:00 PM 15.41 59.738 0.268 7.93 2.74 9.9
4/10/2021 5:00:00 PM 15.42 59.756 0.268 7.93 2.76 9.86
4/10/2021 5:15:00 PM 15.42 59.756 0.268 7.92 2.43 9.82
4/10/2021 5:30:00 PM 15.41 59.738 0.268 7.92 2.37 9.78
4/10/2021 5:45:00 PM 15.39 59.702 0.268 7.9 2.44 9.72
4/10/2021 6:00:00 PM 15.35 59.63 0.268 7.87 2.44 9.66
4/10/2021 6:15:00 PM 15.3 59.54 0.268 7.85 2.36 9.59
4/10/2021 6:30:00 PM 15.24 59.432 0.268 7.82 2.38 9.53
4/10/2021 6:45:00 PM 15.16 59.288 0.269 7.78 2.44 9.43
4/10/2021 7:00:00 PM 15.07 59.126 0.269 7.73 2.44 9.34
4/10/2021 7:15:00 PM 14.98 58.964 0.269 7.71 2.33 9.27
4/10/2021 7:30:00 PM 14.87 58.766 0.27 7.67 2.44 9.19
4/10/2021 7:45:00 PM 14.75 58.55 0.27 7.64 2.43 9.11
4/10/2021 8:00:00 PM 14.63 58.334 0.27 7.61 2.51 9.04
4/10/2021 8:15:00 PM 14.5 58.1 0.27 7.58 2.52 9.01
4/10/2021 8:30:00 PM 14.37 57.866 0.27 7.55 2.72 9
4/10/2021 8:45:00 PM 14.24 57.632 0.27 7.55 2.52 8.99
4/10/2021 9:00:00 PM 14.11 57.398 0.27 7.53 2.53 8.98
4/10/2021 9:15:00 PM 13.97 57.146 0.27 7.52 2.56 8.99
4/10/2021 9:30:00 PM 13.84 56.912 0.27 7.51 2.56 9.02
4/10/2021 9:45:00 PM 13.71 56.678 0.27 7.51 2.57 9.04
4/10/2021 10:00:00 PM 13.58 56.444 0.27 7.5 2.62 9.06
4/10/2021 10:15:00 PM 13.45 56.21 0.27 7.49 2.51 9.08
4/10/2021 10:30:00 PM 13.34 56.012 0.27 7.49 2.55 9.1
4/10/2021 10:45:00 PM 13.22 55.796 0.27 7.49 2.62 9.12
4/10/2021 11:00:00 PM 13.1 55.58 0.27 7.48 2.51 9.15
4/10/2021 11:15:00 PM 12.97 55.346 0.27 7.48 2.7 9.19
4/10/2021 11:30:00 PM 12.85 55.13 0.27 7.48 2.57 9.21
4/10/2021 11:45:00 PM 12.73 54.914 0.27 7.48 2.54 9.26
4/11/2021 12:00:00 AM 12.61 54.698 0.27 7.48 2.75 9.28
4/11/2021 12:15:00 AM 12.49 54.482 0.27 7.47 2.92 9.31
4/11/2021 12:30:00 AM 12.37 54.266 0.27 7.48 2.57 9.35
4/11/2021 12:45:00 AM 12.26 54.068 0.27 7.47 2.59 9.37
4/11/2021 1:00:00 AM 12.15 53.87 0.27 7.47 2.52 9.4
4/11/2021 1:15:00 AM 12.04 53.672 0.27 7.47 2.57 9.43
4/11/2021 1:30:00 AM 11.92 53.456 0.269 7.47 2.53 9.47
4/11/2021 1:45:00 AM 11.81 53.258 0.27 7.47 2.87 9.49
4/11/2021 2:00:00 AM 11.69 53.042 0.27 7.46 2.54 9.51
4/11/2021 2:15:00 AM 11.58 52.844 0.269 7.46 2.53 9.54
4/11/2021 2:30:00 AM 11.48 52.664 0.269 7.46 2.99 9.57
4/11/2021 2:45:00 AM 11.37 52.466 0.269 7.46 2.58 9.6
4/11/2021 3:00:00 AM 11.27 52.286 0.268 7.45 2.56 9.62
4/11/2021 3:15:00 AM 11.19 52.142 0.269 7.46 2.77 9.65
4/11/2021 3:30:00 AM 11.11 51.998 0.268 7.44 2.54 9.68
4/11/2021 3:45:00 AM 11.04 51.872 0.268 7.46 2.54 9.69
4/11/2021 4:00:00 AM 10.99 51.782 0.269 7.46 2.54 9.72
4/11/2021 4:15:00 AM 10.93 51.674 0.269 7.46 2.43 9.72
4/11/2021 4:30:00 AM 10.88 51.584 0.269 7.46 2.49 9.73
4/11/2021 4:45:00 AM 10.83 51.494 0.269 7.46 2.46 9.73
4/11/2021 5:00:00 AM 10.79 51.422 0.269 7.46 2.45 9.75
4/11/2021 5:15:00 AM 10.75 51.35 0.269 7.44 2.45 9.76
4/11/2021 5:30:00 AM 10.72 51.296 0.268 7.46 2.48 9.76
4/11/2021 5:45:00 AM 10.69 51.242 0.268 7.46 2.48 9.77
4/11/2021 6:00:00 AM 10.67 51.206 0.268 7.46 2.48 9.78
4/11/2021 6:15:00 AM 10.66 51.188 0.268 7.46 2.45 9.78
4/11/2021 6:30:00 AM 10.66 51.188 0.269 7.46 2.49 9.78
4/11/2021 6:45:00 AM 10.67 51.206 0.268 7.44 2.47 9.77
4/11/2021 7:00:00 AM 10.69 51.242 0.268 7.46 2.58 9.78
4/11/2021 7:15:00 AM 10.73 51.314 0.268 7.47 2.47 9.8
4/11/2021 7:30:00 AM 10.77 51.386 0.268 7.46 2.58 9.83
4/11/2021 7:45:00 AM 10.82 51.476 0.268 7.49 2.42 9.87
4/11/2021 8:00:00 AM 10.88 51.584 0.268 7.48 2.46 9.89
4/11/2021 8:15:00 AM 10.94 51.692 0.267 7.5 2.72 9.91
4/11/2021 8:30:00 AM 11.02 51.836 0.267 7.52 2.59 9.98
4/11/2021 8:45:00 AM 11.08 51.944 0.266 7.52 2.5 10
4/11/2021 9:00:00 AM 11.14 52.052 0.266 7.54 2.52 10
4/11/2021 9:15:00 AM 11.18 52.124 0.265 7.54 2.53 9.98
4/11/2021 9:30:00 AM 11.24 52.232 0.265 7.54 2.46 10
4/11/2021 9:45:00 AM 11.29 52.322 0.265 7.55 2.69 10
4/11/2021 10:00:00 AM 11.34 52.412 0.264 7.55 2.57 9.99
4/11/2021 10:15:00 AM 11.39 52.502 0.264 7.55 2.63 10
4/11/2021 10:30:00 AM 11.44 52.592 0.264 7.57 2.7 10.02
4/11/2021 10:45:00 AM 11.5 52.7 0.264 7.58 2.67 10.04
4/11/2021 11:00:00 AM 11.57 52.826 0.264 7.6 2.85 10.08
4/11/2021 11:15:00 AM 11.62 52.916 0.265 7.59 2.72 10.08
4/11/2021 11:30:00 AM 11.7 53.06 0.265 7.62 2.71 10.12
4/11/2021 11:45:00 AM 11.81 53.258 0.266 7.64 2.9 10.18
4/11/2021 12:00:00 PM 11.91 53.438 0.268 7.66 2.8 10.21
4/11/2021 12:15:00 PM 11.96 53.528 0.269 7.65 2.82 10.19
4/11/2021 12:30:00 PM 12.05 53.69 0.27 7.68 2.75 10.22
4/11/2021 12:45:00 PM 12.13 53.834 0.271 7.7 3.32 10.23
4/11/2021 1:00:00 PM 12.25 54.05 0.272 7.72 2.77 10.26
4/11/2021 1:15:00 PM 12.35 54.23 0.273 7.74 2.81 10.28
4/11/2021 1:30:00 PM 12.39 54.302 0.274 7.74 3 10.25
4/11/2021 1:45:00 PM 12.45 54.41 0.275 7.75 2.8 10.24
4/11/2021 2:00:00 PM 12.52 54.536 0.275 7.75 2.73 10.24
4/11/2021 2:15:00 PM 12.58 54.644 0.276 7.76 2.82 10.22
4/11/2021 2:30:00 PM 12.63 54.734 0.278 7.77 2.94 10.21
4/11/2021 2:45:00 PM 12.7 54.86 0.283 7.77 3.28 10.21
4/11/2021 3:00:00 PM 12.76 54.968 0.287 7.8 3.66 10.21
4/11/2021 3:15:00 PM 12.8 55.04 0.289 7.8 3.26 10.19
4/11/2021 3:30:00 PM 12.82 55.076 0.291 7.79 3.27 10.14
4/11/2021 3:45:00 PM 12.83 55.094 0.293 7.78 3.4 10.06
4/11/2021 4:00:00 PM 12.85 55.13 0.294 7.77 3.31 10
4/11/2021 4:15:00 PM 12.86 55.148 0.297 7.75 3.34 9.95
4/11/2021 4:30:00 PM 12.87 55.166 0.298 7.74 3.41 9.89
4/11/2021 4:45:00 PM 12.89 55.202 0.299 7.73 3.41 9.86
4/11/2021 5:00:00 PM 12.91 55.238 0.302 7.73 3.63 9.85
4/11/2021 5:15:00 PM 12.93 55.274 0.305 7.72 3.51 9.84
4/11/2021 5:30:00 PM 12.92 55.256 0.308 7.7 3.34 9.79
4/11/2021 5:45:00 PM 12.92 55.256 0.309 7.7 3.4 9.76
4/11/2021 6:00:00 PM 12.92 55.256 0.31 7.69 3.67 9.72
4/11/2021 6:15:00 PM 12.91 55.238 0.313 7.68 3.48 9.66
4/11/2021 6:30:00 PM 12.9 55.22 0.316 7.66 3.46 9.6
4/11/2021 6:45:00 PM 12.89 55.202 0.318 7.64 3.27 9.53
4/11/2021 7:00:00 PM 12.87 55.166 0.321 7.61 3.33 9.52
4/11/2021 7:15:00 PM 12.86 55.148 0.324 7.61 3.75 9.46
4/11/2021 7:30:00 PM 12.84 55.112 0.325 7.6 3.44 9.42
4/11/2021 7:45:00 PM 12.82 55.076 0.324 7.58 3.7 9.38
4/11/2021 8:00:00 PM 12.81 55.058 0.322 7.57 3.71 9.34
4/11/2021 8:15:00 PM 12.79 55.022 0.321 7.56 4 9.3
4/11/2021 8:30:00 PM 12.78 55.004 0.318 7.55 3.9 9.28
4/11/2021 8:45:00 PM 12.76 54.968 0.315 7.54 4.43 9.28
4/11/2021 9:00:00 PM 12.74 54.932 0.311 7.52 3.97 9.28
4/11/2021 9:15:00 PM 12.72 54.896 0.309 7.53 4.16 9.26
4/11/2021 9:30:00 PM 12.7 54.86 0.305 7.53 4.35 9.26
4/11/2021 9:45:00 PM 12.67 54.806 0.302 7.53 4.03 9.28
4/11/2021 10:00:00 PM 12.64 54.752 0.3 7.53 4.04 9.28
4/11/2021 10:15:00 PM 12.61 54.698 0.298 7.52 4.8 9.28
4/11/2021 10:30:00 PM 12.58 54.644 0.297 7.51 4.45 9.28
4/11/2021 10:45:00 PM 12.56 54.608 0.295 7.51 4.36 9.29
4/11/2021 11:00:00 PM 12.53 54.554 0.293 7.52 5.61 9.31
4/11/2021 11:15:00 PM 12.5 54.5 0.294 7.52 4.12 9.32
4/11/2021 11:30:00 PM 12.47 54.446 0.294 7.52 4.15 9.31
4/11/2021 11:45:00 PM 12.44 54.392 0.293 7.52 3.88 9.35
4/12/2021 12:00:00 AM 12.41 54.338 0.293 7.52 4.27 9.33
4/12/2021 12:15:00 AM 12.38 54.284 0.293 7.52 4.28 9.36
4/12/2021 12:30:00 AM 12.35 54.23 0.293 7.52 4.17 9.37
4/12/2021 12:45:00 AM 12.32 54.176 0.293 7.52 4.11 9.39
4/12/2021 1:00:00 AM 12.29 54.122 0.292 7.52 4.23 9.4
4/12/2021 1:15:00 AM 12.26 54.068 0.291 7.52 3.98 9.43
4/12/2021 1:30:00 AM 12.24 54.032 0.291 7.52 3.87 9.42
4/12/2021 1:45:00 AM 12.21 53.978 0.291 7.52 3.95 9.43
4/12/2021 2:00:00 AM 12.18 53.924 0.29 7.51 4.07 9.45
4/12/2021 2:15:00 AM 12.15 53.87 0.288 7.52 4.57 9.47
4/12/2021 2:30:00 AM 12.12 53.816 0.287 7.52 4.07 9.47
4/12/2021 2:45:00 AM 12.1 53.78 0.287 7.52 3.71 9.49
4/12/2021 3:00:00 AM 12.08 53.744 0.287 7.52 4.2 9.49
4/12/2021 3:15:00 AM 12.06 53.708 0.287 7.52 4.21 9.5
4/12/2021 3:30:00 AM 12.04 53.672 0.287 7.5 4.06 9.5
4/12/2021 3:45:00 AM 12.01 53.618 0.287 7.52 4.46 9.5
4/12/2021 4:00:00 AM 11.99 53.582 0.287 7.51 3.91 9.49
4/12/2021 4:15:00 AM 11.96 53.528 0.286 7.52 3.76 9.52
4/12/2021 4:30:00 AM 11.94 53.492 0.285 7.52 3.95 9.52
4/12/2021 4:45:00 AM 11.92 53.456 0.283 7.5 3.86 9.54
4/12/2021 5:00:00 AM 11.9 53.42 0.281 7.51 4.45 9.53
4/12/2021 5:15:00 AM 11.88 53.384 0.279 7.51 3.89 9.54
4/12/2021 5:30:00 AM 11.86 53.348 0.278 7.52 4.34 9.54
4/12/2021 5:45:00 AM 11.84 53.312 0.276 7.52 3.67 9.57
4/12/2021 6:00:00 AM 11.82 53.276 0.274 7.52 3.9 9.56
4/12/2021 6:15:00 AM 11.81 53.258 0.272 7.49 3.58 9.56
4/12/2021 6:30:00 AM 11.78 53.204 0.271 7.52 3.99 9.58
4/12/2021 6:45:00 AM 11.75 53.15 0.269 7.51 4.08 9.58
4/12/2021 7:00:00 AM 11.72 53.096 0.268 7.52 3.76 9.59
4/12/2021 7:15:00 AM 11.7 53.06 0.267 7.52 3.95 9.62
4/12/2021 7:30:00 AM 11.67 53.006 0.266 7.5 3.79 9.66
4/12/2021 7:45:00 AM 11.64 52.952 0.264 7.52 3.72 9.68
4/12/2021 8:00:00 AM 11.61 52.898 0.263 7.53 3.68 9.71
4/12/2021 8:15:00 AM 11.58 52.844 0.263 7.53 3.68 9.75
4/12/2021 8:30:00 AM 11.54 52.772 0.262 7.54 3.73 9.77
4/12/2021 8:45:00 AM 11.51 52.718 0.262 7.53 3.43 9.78
4/12/2021 9:00:00 AM 11.47 52.646 0.261 7.54 3.24 9.8
4/12/2021 9:15:00 AM 11.44 52.592 0.26 7.53 3.57 9.83
4/12/2021 9:30:00 AM 11.42 52.556 0.26 7.56 3.55 9.87
4/12/2021 9:45:00 AM 11.39 52.502 0.26 7.57 3.83 9.9
4/12/2021 10:00:00 AM 11.37 52.466 0.26 7.57 3.64 9.93
4/12/2021 10:15:00 AM 11.34 52.412 0.261 7.59 3.67 9.97
4/12/2021 10:30:00 AM 11.33 52.394 0.26 7.6 3.71 10.04
4/12/2021 10:45:00 AM 11.33 52.394 0.26 7.61 3.37 10.11
4/12/2021 11:00:00 AM 11.34 52.412 0.259 7.62 3.43 10.16
4/12/2021 11:15:00 AM 11.33 52.394 0.259 7.64 3.59 10.2
4/12/2021 11:30:00 AM 11.32 52.376 0.259 7.63 3.12 10.22
4/12/2021 11:45:00 AM 11.32 52.376 0.259 7.67 3.49 10.27
4/12/2021 12:00:00 PM 11.33 52.394 0.258 7.68 3.11 10.32
4/12/2021 12:15:00 PM 11.33 52.394 0.258 7.69 3.35 10.35
4/12/2021 12:30:00 PM 11.33 52.394 0.258 7.68 3.21 10.38
4/12/2021 12:45:00 PM 11.35 52.43 0.258 7.7 3.45 10.4
4/12/2021 1:00:00 PM 11.37 52.466 0.258 7.72 3.12 10.42
4/12/2021 1:15:00 PM 11.39 52.502 0.258 7.74 3.14 10.44
4/12/2021 1:30:00 PM 11.42 52.556 0.257 7.75 3.3 10.47
4/12/2021 1:45:00 PM 11.44 52.592 0.257 7.76 3.27 10.49
4/12/2021 2:00:00 PM 11.44 52.592 0.257 7.76 3.35 10.49
4/12/2021 2:15:00 PM 11.44 52.592 0.257 7.78 3.3 10.48
4/12/2021 2:30:00 PM 11.45 52.61 0.257 7.75 3.27 10.46
4/12/2021 2:45:00 PM 11.46 52.628 0.258 7.77 3.41 10.44
4/12/2021 3:00:00 PM 11.47 52.646 0.258 7.75 3.1 10.43
4/12/2021 3:15:00 PM 11.48 52.664 0.257 7.77 3.2 10.43
4/12/2021 3:30:00 PM 11.49 52.682 0.257 7.77 3.19 10.4
4/12/2021 3:45:00 PM 11.48 52.664 0.257 7.76 3.2 10.39
4/12/2021 4:00:00 PM 11.48 52.664 0.257 7.76 3.13 10.38
4/12/2021 4:15:00 PM 11.48 52.664 0.257 7.75 3.31 10.35
4/12/2021 4:30:00 PM 11.47 52.646 0.257 7.75 3.6 10.33
4/12/2021 4:45:00 PM 11.46 52.628 0.257 7.74 3.42 10.31
4/12/2021 5:00:00 PM 11.44 52.592 0.257 7.73 3.52 10.28
4/12/2021 5:15:00 PM 11.42 52.556 0.257 7.7 3.29 10.24
4/12/2021 5:30:00 PM 11.39 52.502 0.257 7.7 3.47 10.19
4/12/2021 5:45:00 PM 11.37 52.466 0.257 7.68 3.66 10.16
4/12/2021 6:00:00 PM 11.34 52.412 0.257 7.67 3.32 10.11
4/12/2021 6:15:00 PM 11.31 52.358 0.257 7.63 3.78 10.08
4/12/2021 6:30:00 PM 11.29 52.322 0.257 7.63 3.74 10.04
4/12/2021 6:45:00 PM 11.26 52.268 0.258 7.63 3.43 10.03
4/12/2021 7:00:00 PM 11.23 52.214 0.258 7.6 3.39 10.01
4/12/2021 7:15:00 PM 11.19 52.142 0.258 7.59 3.88 9.98
4/12/2021 7:30:00 PM 11.16 52.088 0.258 7.57 3.61 9.96
4/12/2021 7:45:00 PM 11.13 52.034 0.258 7.58 3.31 9.95
4/12/2021 8:00:00 PM 11.11 51.998 0.258 7.57 3.74 9.93
4/12/2021 8:15:00 PM 11.08 51.944 0.258 7.57 3.78 9.91
4/12/2021 8:30:00 PM 11.06 51.908 0.258 7.54 4.56 9.9
4/12/2021 8:45:00 PM 11.03 51.854 0.258 7.55 4.02 9.91
4/12/2021 9:00:00 PM 11 51.8 0.258 7.55 3.64 9.91
4/12/2021 9:15:00 PM 10.98 51.764 0.258 7.54 3.58 9.9
4/12/2021 9:30:00 PM 10.95 51.71 0.258 7.54 3.66 9.92
4/12/2021 9:45:00 PM 10.93 51.674 0.258 7.54 3.77 9.91
4/12/2021 10:00:00 PM 10.91 51.638 0.258 7.53 4.04 9.9
4/12/2021 10:15:00 PM 10.89 51.602 0.258 7.53 3.58 9.91
4/12/2021 10:30:00 PM 10.87 51.566 0.258 7.53 3.88 9.93
4/12/2021 10:45:00 PM 10.85 51.53 0.258 7.53 3.6 9.93
4/12/2021 11:00:00 PM 10.83 51.494 0.258 7.52 3.69 9.94
4/12/2021 11:15:00 PM 10.81 51.458 0.257 7.53 3.55 9.94
4/12/2021 11:30:00 PM 10.79 51.422 0.257 7.52 3.44 9.95
4/12/2021 11:45:00 PM 10.77 51.386 0.257 7.53 3.91 9.94
4/13/2021 12:00:00 AM 10.75 51.35 0.257 7.52 3.47 9.95
4/13/2021 12:15:00 AM 10.73 51.314 0.257 7.52 3.59 9.95
4/13/2021 12:30:00 AM 10.72 51.296 0.257 7.52 3.78 9.96
4/13/2021 12:45:00 AM 10.7 51.26 0.257 7.52 3.53 9.97
4/13/2021 1:00:00 AM 10.68 51.224 0.257 7.52 3.07 9.96
4/13/2021 1:15:00 AM 10.67 51.206 0.257 7.52 3.45 9.98
4/13/2021 1:30:00 AM 10.66 51.188 0.256 7.52 3.24 9.99
4/13/2021 1:45:00 AM 10.64 51.152 0.257 7.52 3.15 10
4/13/2021 2:00:00 AM 10.61 51.098 0.257 7.51 3.22 10
4/13/2021 2:15:00 AM 10.58 51.044 0.257 7.52 3.27 10
4/13/2021 2:30:00 AM 10.56 51.008 0.257 7.53 3.27 10.02
4/13/2021 2:45:00 AM 10.53 50.954 0.257 7.52 3.36 10.02
4/13/2021 3:00:00 AM 10.5 50.9 0.257 7.52 3.16 10.03
4/13/2021 3:15:00 AM 10.47 50.846 0.257 7.52 4.32 10.04
4/13/2021 3:30:00 AM 10.44 50.792 0.257 7.52 3.28 10.06
4/13/2021 3:45:00 AM 10.41 50.738 0.257 7.53 3.35 10.06
4/13/2021 4:00:00 AM 10.38 50.684 0.256 7.52 3.61 10.07
4/13/2021 4:15:00 AM 10.34 50.612 0.257 7.53 3.12 10.08
4/13/2021 4:30:00 AM 10.31 50.558 0.257 7.53 3 10.09
4/13/2021 4:45:00 AM 10.29 50.522 0.256 7.51 3.09 10.1
4/13/2021 5:00:00 AM 10.26 50.468 0.256 7.52 3.06 10.1
4/13/2021 5:15:00 AM 10.23 50.414 0.257 7.53 3.16 10.1
4/13/2021 5:30:00 AM 10.19 50.342 0.257 7.52 3.19 10.11
4/13/2021 5:45:00 AM 10.15 50.27 0.257 7.51 3.14 10.13
4/13/2021 6:00:00 AM 10.11 50.198 0.257 7.52 3.15 10.13
4/13/2021 6:15:00 AM 10.07 50.126 0.257 7.52 3.05 10.15
4/13/2021 6:30:00 AM 10.01 50.018 0.258 7.53 3.14 10.18
4/13/2021 6:45:00 AM 9.97 49.946 0.258 7.53 3.11 10.2
4/13/2021 7:00:00 AM 9.95 49.91 0.257 7.53 3 10.24
4/13/2021 7:15:00 AM 9.93 49.874 0.257 7.52 3.11 10.3
4/13/2021 7:30:00 AM 9.93 49.874 0.258 7.56 3.16 10.37
4/13/2021 7:45:00 AM 9.92 49.856 0.258 7.58 3.58 10.46
4/13/2021 8:00:00 AM 9.92 49.856 0.258 7.59 2.92 10.53
4/13/2021 8:15:00 AM 9.91 49.838 0.258 7.61 3.14 10.59
4/13/2021 8:30:00 AM 9.96 49.928 0.258 7.62 2.99 10.65
4/13/2021 8:45:00 AM 10 50 0.258 7.64 2.9 10.7
4/13/2021 9:00:00 AM 10.05 50.09 0.258 7.63 3.13 10.74
4/13/2021 9:15:00 AM 10.13 50.234 0.258 7.67 3.25 10.77
4/13/2021 9:30:00 AM 10.23 50.414 0.258 7.68 2.88 10.8
4/13/2021 9:45:00 AM 10.34 50.612 0.257 7.7 2.92 10.83
4/13/2021 10:00:00 AM 10.47 50.846 0.258 7.71 2.83 10.84
4/13/2021 10:15:00 AM 10.61 51.098 0.258 7.72 2.8 10.84
4/13/2021 10:30:00 AM 10.77 51.386 0.258 7.74 2.85 10.84
4/13/2021 10:45:00 AM 10.95 51.71 0.258 7.75 2.87 10.84
4/13/2021 11:00:00 AM 11.15 52.07 0.256 7.76 2.97 10.82
4/13/2021 11:15:00 AM 11.37 52.466 0.258 7.78 2.79 10.79
4/13/2021 11:30:00 AM 11.61 52.898 0.258 7.79 2.83 10.78
4/13/2021 11:45:00 AM 11.85 53.33 0.258 7.8 4.13 10.75
4/13/2021 12:00:00 PM 12.09 53.762 0.259 7.8 2.85 10.7
4/13/2021 12:15:00 PM 12.33 54.194 0.258 7.82 2.91 10.67
4/13/2021 12:30:00 PM 12.57 54.626 0.258 7.83 2.85 10.62
4/13/2021 12:45:00 PM 12.8 55.04 0.258 7.81 2.85 10.58
4/13/2021 1:00:00 PM 13.03 55.454 0.259 7.84 2.76 10.55
4/13/2021 1:15:00 PM 13.28 55.904 0.258 7.84 2.83 10.5
4/13/2021 1:30:00 PM 13.5 56.3 0.258 7.86 2.68 10.45
4/13/2021 1:45:00 PM 13.74 56.732 0.258 7.87 2.7 10.38
4/13/2021 2:00:00 PM 13.97 57.146 0.258 7.87 2.63 10.35
4/13/2021 2:15:00 PM 14.17 57.506 0.257 7.88 2.83 10.29
4/13/2021 2:30:00 PM 14.35 57.83 0.257 7.88 2.75 10.24
4/13/2021 2:45:00 PM 14.5 58.1 0.257 7.88 2.73 10.18
4/13/2021 3:00:00 PM 14.66 58.388 0.257 7.9 2.9 10.14
4/13/2021 3:15:00 PM 14.76 58.568 0.257 7.89 2.71 10.09
4/13/2021 3:30:00 PM 14.85 58.73 0.257 7.89 2.64 10.06
4/13/2021 3:45:00 PM 14.91 58.838 0.258 7.89 2.76 10.02
4/13/2021 4:00:00 PM 14.93 58.874 0.258 7.89 2.89 9.98
4/13/2021 4:15:00 PM 14.93 58.874 0.258 7.86 2.79 9.95
4/13/2021 4:30:00 PM 14.91 58.838 0.258 7.88 3.05 9.93
4/13/2021 4:45:00 PM 14.87 58.766 0.258 7.87 2.79 9.9
4/13/2021 5:00:00 PM 14.81 58.658 0.258 7.87 3.01 9.87
4/13/2021 5:15:00 PM 14.76 58.568 0.258 7.86 3.05 9.84
4/13/2021 5:30:00 PM 14.69 58.442 0.258 7.86 2.96 9.82
4/13/2021 5:45:00 PM 14.61 58.298 0.258 7.81 2.75 9.77
4/13/2021 6:00:00 PM 14.5 58.1 0.258 7.81 3.27 9.74
4/13/2021 6:15:00 PM 14.38 57.884 0.258 7.77 3.11 9.7
4/13/2021 6:30:00 PM 14.26 57.668 0.258 7.77 2.9 9.68
4/13/2021 6:45:00 PM 14.14 57.452 0.259 7.74 3.39 9.64
4/13/2021 7:00:00 PM 14.01 57.218 0.258 7.71 2.85 9.58
4/13/2021 7:15:00 PM 13.87 56.966 0.259 7.68 2.95 9.54
4/13/2021 7:30:00 PM 13.73 56.714 0.26 7.65 3.06 9.51
4/13/2021 7:45:00 PM 13.59 56.462 0.26 7.64 3.02 9.47
4/13/2021 8:00:00 PM 13.46 56.228 0.261 7.61 3.02 9.44
4/13/2021 8:15:00 PM 13.32 55.976 0.26 7.59 3.26 9.41
4/13/2021 8:30:00 PM 13.18 55.724 0.26 7.58 3.04 9.39
4/13/2021 8:45:00 PM 13.04 55.472 0.26 7.54 3.12 9.43
4/13/2021 9:00:00 PM 12.89 55.202 0.26 7.56 3.12 9.44
4/13/2021 9:15:00 PM 12.76 54.968 0.26 7.55 3.18 9.46
4/13/2021 9:30:00 PM 12.63 54.734 0.26 7.54 3.4 9.48
4/13/2021 9:45:00 PM 12.49 54.482 0.26 7.51 3.23 9.52
4/13/2021 10:00:00 PM 12.35 54.23 0.26 7.53 3.14 9.54
4/13/2021 10:15:00 PM 12.2 53.96 0.26 7.53 3.71 9.58
4/13/2021 10:30:00 PM 12.06 53.708 0.26 7.52 3.07 9.61
4/13/2021 10:45:00 PM 11.93 53.474 0.26 7.52 3.08 9.63
4/13/2021 11:00:00 PM 11.81 53.258 0.26 7.5 3 9.66
4/13/2021 11:15:00 PM 11.7 53.06 0.26 7.51 3.12 9.69
4/13/2021 11:30:00 PM 11.6 52.88 0.261 7.5 3.01 9.71
4/13/2021 11:45:00 PM 11.5 52.7 0.261 7.51 3 9.73
4/14/2021 12:00:00 AM 11.41 52.538 0.261 7.51 2.92 9.74
4/14/2021 12:15:00 AM 11.32 52.376 0.26 7.48 3.56 9.76
4/14/2021 12:30:00 AM 11.23 52.214 0.26 7.5 2.9 9.79
4/14/2021 12:45:00 AM 11.15 52.07 0.26 7.5 2.98 9.81
4/14/2021 1:00:00 AM 11.06 51.908 0.26 7.5 3.17 9.84
4/14/2021 1:15:00 AM 10.97 51.746 0.26 7.5 3.68 9.88
4/14/2021 1:30:00 AM 10.88 51.584 0.26 7.5 2.93 9.89
4/14/2021 1:45:00 AM 10.79 51.422 0.26 7.48 2.98 9.91
4/14/2021 2:00:00 AM 10.7 51.26 0.26 7.5 2.97 9.93
4/14/2021 2:15:00 AM 10.62 51.116 0.26 7.5 4.68 9.95
4/14/2021 2:30:00 AM 10.55 50.99 0.26 7.5 2.98 9.98
4/14/2021 2:45:00 AM 10.48 50.864 0.26 7.5 3.01 9.99
4/14/2021 3:00:00 AM 10.41 50.738 0.261 7.49 3.03 10.02
4/14/2021 3:15:00 AM 10.36 50.648 0.261 7.5 3.09 10.04
4/14/2021 3:30:00 AM 10.33 50.594 0.262 7.5 2.91 10.05
4/14/2021 3:45:00 AM 10.3 50.54 0.262 7.48 2.98 10.05
4/14/2021 4:00:00 AM 10.28 50.504 0.262 7.5 2.9 10.06
4/14/2021 4:15:00 AM 10.27 50.486 0.262 7.5 2.97 10.08
4/14/2021 4:30:00 AM 10.25 50.45 0.262 7.5 2.95 10.07
4/14/2021 4:45:00 AM 10.23 50.414 0.262 7.5 2.83 10.08
4/14/2021 5:00:00 AM 10.2 50.36 0.262 7.5 2.89 10.08
4/14/2021 5:15:00 AM 10.18 50.324 0.262 7.5 2.94 10.08
4/14/2021 5:30:00 AM 10.16 50.288 0.262 7.48 3.01 10.08
4/14/2021 5:45:00 AM 10.13 50.234 0.262 7.5 2.91 10.08
4/14/2021 6:00:00 AM 10.1 50.18 0.262 7.5 2.96 10.09
4/14/2021 6:15:00 AM 10.07 50.126 0.262 7.5 3 10.1
4/14/2021 6:30:00 AM 10.05 50.09 0.263 7.47 2.88 10.11
4/14/2021 6:45:00 AM 10.04 50.072 0.262 7.5 3.32 10.13
4/14/2021 7:00:00 AM 10.03 50.054 0.262 7.51 2.89 10.17
4/14/2021 7:15:00 AM 10.04 50.072 0.262 7.51 2.74 10.23
4/14/2021 7:30:00 AM 10.04 50.072 0.262 7.53 2.94 10.28
4/14/2021 7:45:00 AM 10.06 50.108 0.262 7.55 2.79 10.36
4/14/2021 8:00:00 AM 10.12 50.216 0.262 7.57 2.75 10.44
4/14/2021 8:15:00 AM 10.2 50.36 0.262 7.57 2.71 10.52
4/14/2021 8:30:00 AM 10.28 50.504 0.262 7.61 2.74 10.58
4/14/2021 8:45:00 AM 10.38 50.684 0.261 7.62 2.63 10.64
4/14/2021 9:00:00 AM 10.49 50.882 0.261 7.65 2.85 10.68
4/14/2021 9:15:00 AM 10.64 51.152 0.262 7.67 2.84 10.73
4/14/2021 9:30:00 AM 10.78 51.404 0.262 7.69 2.9 10.76
4/14/2021 9:45:00 AM 10.92 51.656 0.261 7.72 2.7 10.81
4/14/2021 10:00:00 AM 11.06 51.908 0.261 7.75 2.65 10.85
4/14/2021 10:15:00 AM 11.23 52.214 0.261 7.78 2.72 10.85
4/14/2021 10:30:00 AM 11.37 52.466 0.261 7.79 3.03 10.85
4/14/2021 10:45:00 AM 11.55 52.79 0.261 7.82 2.57 10.88
4/14/2021 11:00:00 AM 11.79 53.222 0.261 7.84 2.63 10.87
4/14/2021 11:15:00 AM 12.02 53.636 0.261 7.85 2.65 10.84
4/14/2021 11:30:00 AM 12.21 53.978 0.26 7.88 2.56 10.84
4/14/2021 11:45:00 AM 12.42 54.356 0.261 7.91 2.61 10.82
4/14/2021 12:00:00 PM 12.57 54.626 0.261 7.93 2.55 10.78
4/14/2021 12:15:00 PM 12.74 54.932 0.261 7.94 2.61 10.75
4/14/2021 12:30:00 PM 12.87 55.166 0.261 7.97 2.57 10.74
4/14/2021 12:45:00 PM 12.92 55.256 0.261 7.99 2.61 10.69
4/14/2021 1:00:00 PM 12.99 55.382 0.261 7.97 2.81 10.64
4/14/2021 1:15:00 PM 13.13 55.634 0.261 8 2.51 10.61
4/14/2021 1:30:00 PM 13.17 55.706 0.261 8 2.53 10.56
4/14/2021 1:45:00 PM 13.18 55.724 0.261 7.99 2.77 10.47
4/14/2021 2:00:00 PM 13.18 55.724 0.262 7.96 2.73 10.37
4/14/2021 2:15:00 PM 13.22 55.796 0.262 7.93 2.73 10.31
4/14/2021 2:30:00 PM 13.21 55.778 0.262 7.91 2.56 10.19
4/14/2021 2:45:00 PM 13.21 55.778 0.262 7.86 2.78 10.06
4/14/2021 3:00:00 PM 13.24 55.832 0.262 7.84 2.6 10.04
4/14/2021 3:15:00 PM 13.33 55.994 0.262 7.85 2.63 10.08
4/14/2021 3:30:00 PM 13.39 56.102 0.263 7.85 2.56 10.11
4/14/2021 3:45:00 PM 13.41 56.138 0.263 7.86 2.77 10.11
4/14/2021 4:00:00 PM 13.4 56.12 0.263 7.84 2.67 10.04
4/14/2021 4:15:00 PM 13.36 56.048 0.264 7.82 2.75 9.96
4/14/2021 4:30:00 PM 13.32 55.976 0.264 7.79 2.6 9.88
4/14/2021 4:45:00 PM 13.28 55.904 0.264 7.76 2.65 9.81
4/14/2021 5:00:00 PM 13.24 55.832 0.264 7.73 2.72 9.76
4/14/2021 5:15:00 PM 13.21 55.778 0.264 7.71 2.73 9.73
4/14/2021 5:30:00 PM 13.18 55.724 0.264 7.71 2.75 9.75
4/14/2021 5:45:00 PM 13.18 55.724 0.263 7.7 2.7 9.82
4/14/2021 6:00:00 PM 13.15 55.67 0.263 7.72 2.59 9.87
4/14/2021 6:15:00 PM 13.11 55.598 0.263 7.72 2.62 9.87
4/14/2021 6:30:00 PM 13.06 55.508 0.263 7.71 2.7 9.85
4/14/2021 6:45:00 PM 13 55.4 0.264 7.68 2.91 9.83
4/14/2021 7:00:00 PM 12.93 55.274 0.264 7.68 2.6 9.79
4/14/2021 7:15:00 PM 12.85 55.13 0.264 7.66 2.7 9.75
4/14/2021 7:30:00 PM 12.77 54.986 0.264 7.64 2.86 9.71
4/14/2021 7:45:00 PM 12.68 54.824 0.264 7.62 2.62 9.66
4/14/2021 8:00:00 PM 12.57 54.626 0.264 7.6 2.8 9.63
4/14/2021 8:15:00 PM 12.46 54.428 0.264 7.59 2.8 9.61
4/14/2021 8:30:00 PM 12.35 54.23 0.264 7.56 2.93 9.6
4/14/2021 8:45:00 PM 12.25 54.05 0.264 7.56 2.79 9.59
4/14/2021 9:00:00 PM 12.15 53.87 0.264 7.55 2.8 9.59
4/14/2021 9:15:00 PM 12.05 53.69 0.264 7.54 2.99 9.59
4/14/2021 9:30:00 PM 11.95 53.51 0.264 7.54 2.97 9.61
4/14/2021 9:45:00 PM 11.85 53.33 0.264 7.51 2.97 9.62
4/14/2021 10:00:00 PM 11.76 53.168 0.264 7.53 3.13 9.64
4/14/2021 10:15:00 PM 11.67 53.006 0.265 7.53 2.74 9.65
4/14/2021 10:30:00 PM 11.58 52.844 0.265 7.53 2.98 9.66
4/14/2021 10:45:00 PM 11.49 52.682 0.265 7.51 2.96 9.68
4/14/2021 11:00:00 PM 11.41 52.538 0.265 7.52 2.87 9.69
4/14/2021 11:15:00 PM 11.33 52.394 0.264 7.5 2.8 9.72
4/14/2021 11:30:00 PM 11.24 52.232 0.265 7.52 2.83 9.75
4/14/2021 11:45:00 PM 11.17 52.106 0.265 7.49 3.08 9.76
4/15/2021 12:00:00 AM 11.11 51.998 0.264 7.5 2.72 9.78
4/15/2021 12:15:00 AM 11.06 51.908 0.264 7.52 2.92 9.79
4/15/2021 12:30:00 AM 11.01 51.818 0.264 7.49 2.71 9.82
4/15/2021 12:45:00 AM 10.96 51.728 0.264 7.51 2.78 9.82
4/15/2021 1:00:00 AM 10.92 51.656 0.264 7.49 2.88 9.83
4/15/2021 1:15:00 AM 10.87 51.566 0.264 7.5 2.77 9.84
4/15/2021 1:30:00 AM 10.82 51.476 0.264 7.5 2.94 9.85
4/15/2021 1:45:00 AM 10.76 51.368 0.266 7.5 2.9 9.85
4/15/2021 2:00:00 AM 10.7 51.26 0.265 7.5 2.8 9.85
4/15/2021 2:15:00 AM 10.64 51.152 0.265 7.49 3.01 9.87
4/15/2021 2:30:00 AM 10.58 51.044 0.264 7.51 2.74 9.9
4/15/2021 2:45:00 AM 10.52 50.936 0.264 7.51 2.86 9.91
4/15/2021 3:00:00 AM 10.47 50.846 0.264 7.51 2.71 9.93
4/15/2021 3:15:00 AM 10.42 50.756 0.264 7.48 2.69 9.94
4/15/2021 3:30:00 AM 10.38 50.684 0.264 7.51 3.44 9.95
4/15/2021 3:45:00 AM 10.34 50.612 0.264 7.51 2.62 9.96
4/15/2021 4:00:00 AM 10.29 50.522 0.264 7.51 2.73 9.96
4/15/2021 4:15:00 AM 10.25 50.45 0.264 7.51 2.66 9.97
4/15/2021 4:30:00 AM 10.22 50.396 0.264 7.51 2.72 9.97
4/15/2021 4:45:00 AM 10.19 50.342 0.264 7.51 2.63 9.98
4/15/2021 5:00:00 AM 10.16 50.288 0.263 7.51 2.73 9.98
4/15/2021 5:15:00 AM 10.13 50.234 0.263 7.51 2.73 9.99
4/15/2021 5:30:00 AM 10.1 50.18 0.264 7.51 2.63 10
4/15/2021 5:45:00 AM 10.08 50.144 0.264 7.51 2.71 10
4/15/2021 6:00:00 AM 10.06 50.108 0.264 7.51 2.82 10
4/15/2021 6:15:00 AM 10.03 50.054 0.263 7.51 2.63 10.01
4/15/2021 6:30:00 AM 10.02 50.036 0.263 7.51 2.57 10.02
4/15/2021 6:45:00 AM 10.01 50.018 0.263 7.52 2.72 10.05
4/15/2021 7:00:00 AM 10.01 50.018 0.264 7.5 2.65 10.08
4/15/2021 7:15:00 AM 10 50 0.264 7.54 2.65 10.15
4/15/2021 7:30:00 AM 10.02 50.036 0.264 7.55 2.59 10.23
4/15/2021 7:45:00 AM 10.05 50.09 0.264 7.57 2.6 10.32
4/15/2021 8:00:00 AM 10.09 50.162 0.264 7.59 2.56 10.39
4/15/2021 8:15:00 AM 10.12 50.216 0.264 7.61 2.56 10.46
4/15/2021 8:30:00 AM 10.15 50.27 0.263 7.63 2.5 10.53
4/15/2021 8:45:00 AM 10.22 50.396 0.264 7.65 3.02 10.61
4/15/2021 9:00:00 AM 10.29 50.522 0.264 7.67 2.48 10.68
4/15/2021 9:15:00 AM 10.34 50.612 0.264 7.7 2.47 10.72
4/15/2021 9:30:00 AM 10.39 50.702 0.264 7.71 2.59 10.73
4/15/2021 9:45:00 AM 10.42 50.756 0.263 7.71 2.43 10.7
4/15/2021 10:00:00 AM 10.47 50.846 0.263 7.73 2.42 10.7
4/15/2021 10:15:00 AM 10.5 50.9 0.263 7.72 2.4 10.68
4/15/2021 10:30:00 AM 10.56 51.008 0.262 7.74 2.47 10.69
4/15/2021 10:45:00 AM 10.59 51.062 0.262 7.75 2.42 10.69
4/15/2021 11:00:00 AM 10.69 51.242 0.262 7.77 2.45 10.74
4/15/2021 11:15:00 AM 10.8 51.44 0.262 7.79 2.32 10.78
4/15/2021 11:30:00 AM 10.89 51.602 0.263 7.8 2.43 10.82
4/15/2021 11:45:00 AM 10.94 51.692 0.262 7.84 2.34 10.83
4/15/2021 12:00:00 PM 11.07 51.926 0.262 7.86 2.39 10.86
4/15/2021 12:15:00 PM 11.11 51.998 0.262 7.89 2.37 10.87
4/15/2021 12:30:00 PM 11.1 51.98 0.262 7.88 2.64 10.79
4/15/2021 12:45:00 PM 11.12 52.016 0.262 7.87 2.44 10.76
4/15/2021 1:00:00 PM 11.14 52.052 0.261 7.89 2.38 10.77
4/15/2021 1:15:00 PM 11.16 52.088 0.262 7.9 2.5 10.75
4/15/2021 1:30:00 PM 11.16 52.088 0.262 7.88 2.69 10.74
4/15/2021 1:45:00 PM 11.18 52.124 0.263 7.91 2.35 10.73
4/15/2021 2:00:00 PM 11.19 52.142 0.263 7.91 2.36 10.73
4/15/2021 2:15:00 PM 11.22 52.196 0.262 7.93 2.45 10.75
4/15/2021 2:30:00 PM 11.28 52.304 0.263 7.93 2.42 10.79
4/15/2021 2:45:00 PM 11.29 52.322 0.263 7.97 2.44 10.78
4/15/2021 3:00:00 PM 11.32 52.376 0.263 7.97 2.46 10.78
4/15/2021 3:15:00 PM 11.51 52.718 0.263 7.99 2.38 10.82
4/15/2021 3:30:00 PM 11.59 52.862 0.263 8.01 2.44 10.8
4/15/2021 3:45:00 PM 11.71 53.078 0.263 8.04 2.43 10.81
4/15/2021 4:00:00 PM 11.8 53.24 0.263 8.04 2.48 10.79
4/15/2021 4:15:00 PM 11.88 53.384 0.264 8.06 2.37 10.77
4/15/2021 4:30:00 PM 11.81 53.258 0.264 8.05 2.48 10.72
4/15/2021 4:45:00 PM 11.71 53.078 0.264 8.02 2.58 10.63
4/15/2021 5:00:00 PM 11.62 52.916 0.264 7.97 2.53 10.5
4/15/2021 5:15:00 PM 11.55 52.79 0.264 7.92 2.58 10.4
4/15/2021 5:30:00 PM 11.49 52.682 0.264 7.87 2.61 10.3
4/15/2021 5:45:00 PM 11.41 52.538 0.265 7.84 2.55 10.22
4/15/2021 6:00:00 PM 11.35 52.43 0.265 7.78 2.52 10.16
4/15/2021 6:15:00 PM 11.28 52.304 0.265 7.77 2.45 10.1
4/15/2021 6:30:00 PM 11.22 52.196 0.265 7.73 2.51 10.05
4/15/2021 6:45:00 PM 11.16 52.088 0.266 7.72 2.62 10.01
4/15/2021 7:00:00 PM 11.1 51.98 0.266 7.68 2.6 9.98
4/15/2021 7:15:00 PM 11.02 51.836 0.266 7.67 2.57 9.95
4/15/2021 7:30:00 PM 10.95 51.71 0.266 7.65 2.55 9.93
4/15/2021 7:45:00 PM 10.87 51.566 0.267 7.61 2.63 9.92
4/15/2021 8:00:00 PM 10.8 51.44 0.267 7.62 2.56 9.91
4/15/2021 8:15:00 PM 10.72 51.296 0.267 7.61 2.7 9.89
4/15/2021 8:30:00 PM 10.66 51.188 0.267 7.58 2.77 9.9
4/15/2021 8:45:00 PM 10.59 51.062 0.267 7.59 2.76 9.9
4/15/2021 9:00:00 PM 10.52 50.936 0.268 7.58 2.71 9.91
4/15/2021 9:15:00 PM 10.45 50.81 0.268 7.58 3.09 9.94
4/15/2021 9:30:00 PM 10.37 50.666 0.268 7.55 2.9 9.96
4/15/2021 9:45:00 PM 10.27 50.486 0.267 7.57 2.66 9.98
4/15/2021 10:00:00 PM 10.16 50.288 0.267 7.56 2.86 10
4/15/2021 10:15:00 PM 10.03 50.054 0.268 7.56 2.68 10.02
4/15/2021 10:30:00 PM 9.9 49.82 0.268 7.56 2.81 10.06
4/15/2021 10:45:00 PM 9.77 49.586 0.268 7.55 2.8 10.09
4/15/2021 11:00:00 PM 9.63 49.334 0.269 7.52 2.89 10.13
4/15/2021 11:15:00 PM 9.5 49.1 0.269 7.54 2.73 10.14
4/15/2021 11:30:00 PM 9.37 48.866 0.269 7.55 2.82 10.18
4/15/2021 11:45:00 PM 9.25 48.65 0.269 7.55 2.79 10.21
4/16/2021 12:00:00 AM 9.13 48.434 0.269 7.54 2.79 10.25
4/16/2021 12:15:00 AM 9.02 48.236 0.269 7.54 2.66 10.28
4/16/2021 12:30:00 AM 8.93 48.074 0.269 7.54 2.71 10.31
4/16/2021 12:45:00 AM 8.84 47.912 0.269 7.54 2.69 10.32
4/16/2021 1:00:00 AM 8.76 47.768 0.269 7.53 2.53 10.34
4/16/2021 1:15:00 AM 8.69 47.642 0.27 7.54 2.62 10.34
4/16/2021 1:30:00 AM 8.63 47.534 0.27 7.54 2.61 10.36
4/16/2021 1:45:00 AM 8.59 47.462 0.27 7.51 2.66 10.38
4/16/2021 2:00:00 AM 8.58 47.444 0.269 7.54 2.55 10.39
4/16/2021 2:15:00 AM 8.57 47.426 0.268 7.54 2.56 10.4
4/16/2021 2:30:00 AM 8.56 47.408 0.269 7.54 2.58 10.4
4/16/2021 2:45:00 AM 8.55 47.39 0.268 7.51 2.64 10.41
4/16/2021 3:00:00 AM 8.54 47.372 0.268 7.54 2.7 10.4
4/16/2021 3:15:00 AM 8.54 47.372 0.267 7.54 2.57 10.41
4/16/2021 3:30:00 AM 8.52 47.336 0.268 7.54 2.57 10.41
4/16/2021 3:45:00 AM 8.52 47.336 0.268 7.53 2.65 10.42
4/16/2021 4:00:00 AM 8.48 47.264 0.267 7.53 2.55 10.42
4/16/2021 4:15:00 AM 8.46 47.228 0.267 7.54 2.68 10.44
4/16/2021 4:30:00 AM 8.44 47.192 0.267 7.54 2.56 10.44
4/16/2021 4:45:00 AM 8.42 47.156 0.267 7.51 2.62 10.44
4/16/2021 5:00:00 AM 8.41 47.138 0.267 7.54 2.86 10.45
4/16/2021 5:15:00 AM 8.41 47.138 0.267 7.54 2.72 10.45
4/16/2021 5:30:00 AM 8.4 47.12 0.266 7.54 2.82 10.46
4/16/2021 5:45:00 AM 8.4 47.12 0.266 7.54 2.56 10.46
4/16/2021 6:00:00 AM 8.4 47.12 0.267 7.54 2.56 10.47
4/16/2021 6:15:00 AM 8.4 47.12 0.267 7.53 2.55 10.46
4/16/2021 6:30:00 AM 8.4 47.12 0.268 7.54 2.61 10.48
4/16/2021 6:45:00 AM 8.41 47.138 0.268 7.53 2.71 10.51
4/16/2021 7:00:00 AM 8.42 47.156 0.268 7.54 2.64 10.53
4/16/2021 7:15:00 AM 8.43 47.174 0.268 7.56 2.55 10.58
4/16/2021 7:30:00 AM 8.45 47.21 0.267 7.58 2.57 10.63
4/16/2021 7:45:00 AM 8.47 47.246 0.268 7.59 2.54 10.68
4/16/2021 8:00:00 AM 8.49 47.282 0.267 7.6 2.52 10.74
4/16/2021 8:15:00 AM 8.5 47.3 0.267 7.62 3.42 10.79
4/16/2021 8:30:00 AM 8.54 47.372 0.267 7.64 2.46 10.85
4/16/2021 8:45:00 AM 8.56 47.408 0.267 7.64 2.42 10.9
4/16/2021 9:00:00 AM 8.6 47.48 0.266 7.67 2.46 10.94
4/16/2021 9:15:00 AM 8.62 47.516 0.266 7.69 2.46 10.98
4/16/2021 9:30:00 AM 8.66 47.588 0.266 7.71 2.41 11.04
4/16/2021 9:45:00 AM 8.7 47.66 0.266 7.72 2.55 11.09
4/16/2021 10:00:00 AM 8.76 47.768 0.266 7.75 2.4 11.13
4/16/2021 10:15:00 AM 8.85 47.93 0.266 7.77 2.42 11.2
4/16/2021 10:30:00 AM 8.96 48.128 0.266 7.8 2.38 11.26
4/16/2021 10:45:00 AM